Time,TemperatureF,DewpointF,PressureIn,WindDirection,WindDirectionDegrees,WindSpeedMPH,WindSpeedGustMPH,Humidity,HourlyPrecipIn,Conditions,Clouds,dailyrainin,SolarRadiationWatts/m^2,SoftwareType,DateUTC
2013-01-24 00:00:00,37.9,27.6,30.07,WSW,248,9.0,10.0,66,0.00,,---,0.00,0.00,VWS V14.01,2013-01-24 05:00:00,
2013-01-24 00:01:00,37.9,27.6,30.06,WNW,298,5.0,10.0,66,0.00,,---,0.00,0.00,VWS V14.01,2013-01-24 05:01:00,
2013-01-24 00:02:00,37.9,27.6,30.06,West,270,3.0,10.0,66,0.00,,---,0.00,0.00,VWS V14.01,2013-01-24 05:02:00,
2013-01-24 00:03:00,37.9,27.6,30.07,SSE,158,4.0,11.0,66,0.00,,---,0.00,0.00,VWS V14.01,2013-01-24 05:03:00,
2013-01-24 00:04:00,37.7,27.0,30.07,WSW,242,10.0,13.0,65,0.00,,---,0.00,0.00,VWS V14.01,2013-01-24 05:04:00,
2013-01-24 00:05:00,37.8,27.5,30.06,West,265,4.0,14.0,66,0.00,,---,0.00,0.00,VWS V14.01,2013-01-24 05:05:00,
2013-01-24 00:06:00,37.8,27.5,30.07,WSW,242,10.0,14.0,66,0.00,,---,0.00,0.00,VWS V14.01,2013-01-24 05:06:00,
2013-01-24 00:07:00,37.8,27.5,30.06,West,264,10.0,15.0,66,0.00,,---,0.00,0.00,VWS V14.01,2013-01-24 05:07:00,
2013-01-24 00:08:00,37.8,27.5,30.06,SW,229,5.0,15.0,66,0.00,,---,0.00,0.00,VWS V14.01,2013-01-24 05:08:00,
2013-01-24 00:09:00,37.9,27.9,30.06,WSW,248,8.0,18.0,67,0.00,,---,0.00,0.00,VWS V14.01,2013-01-24 05:09:00,
2013-01-24 00:10:00,37.9,27.6,30.07,West,273,3.0,9.0,66,0.00,,---,0.00,0.00,VWS V14.01,2013-01-24 05:10:00,
2013-01-24 00:11:00,37.9,27.6,30.06,WSW,255,5.0,9.0,66,0.00,,---,0.00,0.00,VWS V14.01,2013-01-24 05:11:00,
2013-01-24 00:12:00,37.9,27.6,30.07,WNW,289,11.0,14.0,66,0.00,,---,0.00,0.00,VWS V14.01,2013-01-24 05:12:00,
2013-01-24 00:13:00,37.9,27.6,30.07,SW,236,6.0,11.0,66,0.00,,---,0.00,0.00,VWS V14.01,2013-01-24 05:13:00,
2013-01-24 00:14:00,37.9,27.6,30.07,West,269,4.0,14.0,66,0.00,,---,0.00,0.00,VWS V14.01,2013-01-24 05:14:00,
2013-01-24 00:15:00,37.9,27.9,30.07,WNW,283,7.0,14.0,67,0.00,,---,0.00,0.00,VWS V14.01,2013-01-24 05:15:00,
2013-01-24 00:16:00,37.9,27.6,30.06,SW,234,6.0,16.0,66,0.00,,---,0.00,0.00,VWS V14.01,2013-01-24 05:16:00,
2013-01-24 00:17:00,37.9,27.9,30.07,NNW,333,10.0,16.0,67,0.00,,---,0.00,0.00,VWS V14.01,2013-01-24 05:17:00,
2013-01-24 00:18:00,37.9,27.9,30.06,WSW,238,16.0,18.0,67,0.00,,---,0.00,0.00,VWS V14.01,2013-01-24 05:18:00,
2013-01-24 00:19:00,37.9,27.9,30.07,SW,232,12.0,16.0,67,0.00,,---,0.00,0.00,VWS V14.01,2013-01-24 05:19:00,
2013-01-24 00:20:00,38.0,28.0,30.07,SW,229,12.0,14.0,67,0.00,,---,0.00,0.00,VWS V14.01,2013-01-24 05:20:00,
2013-01-24 00:21:00,38.1,28.1,30.06,SW,232,5.0,14.0,67,0.00,,---,0.00,0.00,VWS V14.01,2013-01-24 05:21:00,
2013-01-24 00:22:00,38.1,28.1,30.07,SSW,213,10.0,14.0,67,0.00,,---,0.00,0.00,VWS V14.01,2013-01-24 05:22:00,
2013-01-24 00:23:00,38.1,28.1,30.06,SW,220,5.0,14.0,67,0.00,,---,0.00,0.00,VWS V14.01,2013-01-24 05:23:00,
2013-01-24 00:24:00,37.9,27.9,30.07,WSW,240,10.0,14.0,67,0.00,,---,0.00,0.00,VWS V14.01,2013-01-24 05:24:00,
2013-01-24 00:25:00,38.1,28.1,30.06,SW,233,4.0,18.0,67,0.00,,---,0.00,0.00,VWS V14.01,2013-01-24 05:25:00,
2013-01-24 00:26:00,38.1,28.1,30.07,WSW,242,11.0,18.0,67,0.00,,---,0.00,0.00,VWS V14.01,2013-01-24 05:26:00,
2013-01-24 00:27:00,38.1,28.1,30.07,West,265,5.0,18.0,67,0.00,,---,0.00,0.00,VWS V14.01,2013-01-24 05:27:00,
2013-01-24 00:28:00,38.2,28.2,30.07,WSW,246,6.0,18.0,67,0.00,,---,0.00,0.00,VWS V14.01,2013-01-24 05:28:00,
2013-01-24 00:29:00,38.0,28.0,30.07,SW,234,10.0,10.0,67,0.00,,---,0.00,0.00,VWS V14.01,2013-01-24 05:29:00,
2013-01-24 00:30:00,38.2,28.6,30.07,WSW,248,4.0,12.0,68,0.00,,---,0.00,0.00,VWS V14.01,2013-01-24 05:30:00,
2013-01-24 00:31:00,38.2,28.6,30.07,West,267,4.0,12.0,68,0.00,,---,0.00,0.00,VWS V14.01,2013-01-24 05:31:00,
2013-01-24 00:32:00,38.3,28.7,30.07,WSW,245,3.0,12.0,68,0.00,,---,0.00,0.00,VWS V14.01,2013-01-24 05:32:00,
2013-01-24 00:33:00,38.3,29.0,30.07,SW,236,4.0,12.0,69,0.00,,---,0.00,0.00,VWS V14.01,2013-01-24 05:33:00,
2013-01-24 00:34:00,38.4,29.1,30.06,SW,227,14.0,15.0,69,0.00,,---,0.00,0.00,VWS V14.01,2013-01-24 05:34:00,
2013-01-24 00:35:00,38.2,28.2,30.07,WNW,290,3.0,18.0,67,0.00,,---,0.00,0.00,VWS V14.01,2013-01-24 05:35:00,
2013-01-24 00:36:00,38.8,29.2,30.07,NNW,331,6.0,15.0,68,0.00,,---,0.00,0.00,VWS V14.01,2013-01-24 05:36:00,
2013-01-24 00:37:00,38.8,29.2,30.07,WSW,240,14.0,15.0,68,0.00,,---,0.00,0.00,VWS V14.01,2013-01-24 05:37:00,
2013-01-24 00:38:00,39.0,29.4,30.07,SW,230,9.0,15.0,68,0.00,,---,0.00,0.00,VWS V14.01,2013-01-24 05:38:00,
2013-01-24 00:39:00,39.1,29.8,30.07,WSW,248,6.0,15.0,69,0.00,,---,0.00,0.00,VWS V14.01,2013-01-24 05:39:00,
2013-01-24 00:40:00,38.2,28.6,30.07,WSW,247,11.0,12.0,68,0.00,,---,0.00,0.00,VWS V14.01,2013-01-24 05:40:00,
2013-01-24 00:41:00,39.2,29.9,30.06,WSW,240,5.0,12.0,69,0.00,,---,0.00,0.00,VWS V14.01,2013-01-24 05:41:00,
2013-01-24 00:42:00,39.2,29.9,30.07,WNW,292,6.0,12.0,69,0.00,,---,0.00,0.00,VWS V14.01,2013-01-24 05:42:00,
2013-01-24 00:43:00,39.2,29.5,30.06,SW,226,9.0,12.0,68,0.00,,---,0.00,0.00,VWS V14.01,2013-01-24 05:43:00,
2013-01-24 00:44:00,39.2,29.9,30.07,SW,223,11.0,12.0,69,0.00,,---,0.00,0.00,VWS V14.01,2013-01-24 05:44:00,
2013-01-24 00:45:00,39.2,29.5,30.07,WSW,258,4.0,12.0,68,0.00,,---,0.00,0.00,VWS V14.01,2013-01-24 05:45:00,
2013-01-24 00:46:00,38.8,29.2,30.07,SW,232,9.0,15.0,68,0.00,,---,0.00,0.00,VWS V14.01,2013-01-24 05:46:00,
2013-01-24 00:47:00,39.3,29.6,30.07,SW,217,8.0,14.0,68,0.00,,---,0.00,0.00,VWS V14.01,2013-01-24 05:47:00,
2013-01-24 00:48:00,39.3,29.6,30.06,West,263,5.0,16.0,68,0.00,,---,0.00,0.00,VWS V14.01,2013-01-24 05:48:00,
2013-01-24 00:49:00,39.4,29.7,30.06,WSW,241,12.0,16.0,68,0.00,,---,0.00,0.00,VWS V14.01,2013-01-24 05:49:00,
2013-01-24 00:50:00,39.4,30.1,30.06,SW,228,13.0,13.0,69,0.00,,---,0.00,0.00,VWS V14.01,2013-01-24 05:50:00,
2013-01-24 00:51:00,39.5,30.2,30.06,West,266,4.0,13.0,69,0.00,,---,0.00,0.00,VWS V14.01,2013-01-24 05:51:00,
2013-01-24 00:52:00,39.2,29.9,30.07,SW,223,7.0,12.0,69,0.00,,---,0.00,0.00,VWS V14.01,2013-01-24 05:52:00,
2013-01-24 00:53:00,39.5,30.2,30.06,WSW,255,3.0,13.0,69,0.00,,---,0.00,0.00,VWS V14.01,2013-01-24 05:53:00,
2013-01-24 00:54:00,39.5,30.2,30.06,SW,219,14.0,15.0,69,0.00,,---,0.00,0.00,VWS V14.01,2013-01-24 05:54:00,
2013-01-24 00:55:00,39.5,30.2,30.06,West,271,3.0,15.0,69,0.00,,---,0.00,0.00,VWS V14.01,2013-01-24 05:55:00,
2013-01-24 00:56:00,39.5,30.2,30.05,West,267,2.0,15.0,69,0.00,,---,0.00,0.00,VWS V14.01,2013-01-24 05:56:00,
2013-01-24 00:57:00,39.3,29.6,30.06,WSW,242,4.0,16.0,68,0.00,,---,0.00,0.00,VWS V14.01,2013-01-24 05:57:00,
2013-01-24 00:58:00,39.6,30.3,30.05,WSW,250,3.0,15.0,69,0.00,,---,0.00,0.00,VWS V14.01,2013-01-24 05:58:00,
2013-01-24 00:59:00,39.6,30.3,30.05,West,269,4.0,15.0,69,0.00,,---,0.00,0.00,VWS V14.01,2013-01-24 05:59:00,
2013-01-24 01:00:00,39.7,30.4,30.05,West,262,10.0,11.0,69,0.00,,---,0.00,0.00,VWS V14.01,2013-01-24 06:00:00,
2013-01-24 01:01:00,39.7,30.4,30.05,SSW,211,11.0,11.0,69,0.00,,---,0.00,0.00,VWS V14.01,2013-01-24 06:01:00,
2013-01-24 01:02:00,39.5,30.2,30.06,WSW,238,5.0,13.0,69,0.00,,---,0.00,0.00,VWS V14.01,2013-01-24 06:02:00,
2013-01-24 01:03:00,39.7,30.4,30.06,SW,236,12.0,12.0,69,0.00,,---,0.00,0.00,VWS V14.01,2013-01-24 06:03:00,
2013-01-24 01:04:00,39.7,30.4,30.05,SSW,204,10.0,15.0,69,0.00,,---,0.00,0.00,VWS V14.01,2013-01-24 06:04:00,
2013-01-24 01:05:00,39.8,30.5,30.06,SW,234,7.0,15.0,69,0.00,,---,0.00,0.00,VWS V14.01,2013-01-24 06:05:00,
2013-01-24 01:06:00,39.8,30.5,30.06,SW,234,8.0,15.0,69,0.00,,---,0.00,0.00,VWS V14.01,2013-01-24 06:06:00,
2013-01-24 01:07:00,39.9,30.6,30.06,NW,306,5.0,15.0,69,0.00,,---,0.00,0.00,VWS V14.01,2013-01-24 06:07:00,
2013-01-24 01:08:00,39.6,30.3,30.05,WSW,244,5.0,15.0,69,0.00,,---,0.00,0.00,VWS V14.01,2013-01-24 06:08:00,
2013-01-24 01:09:00,40.0,30.7,30.06,SW,221,13.0,17.0,69,0.00,,---,0.00,0.00,VWS V14.01,2013-01-24 06:09:00,
2013-01-24 01:10:00,40.1,30.8,30.06,SW,235,7.0,13.0,69,0.00,,---,0.00,0.00,VWS V14.01,2013-01-24 06:10:00,
2013-01-24 01:11:00,40.1,30.8,30.05,WSW,244,7.0,13.0,69,0.00,,---,0.00,0.00,VWS V14.01,2013-01-24 06:11:00,
2013-01-24 01:12:00,40.1,30.4,30.05,WSW,245,7.0,13.0,68,0.00,,---,0.00,0.00,VWS V14.01,2013-01-24 06:12:00,
2013-01-24 01:13:00,40.1,30.4,30.06,WSW,240,3.0,13.0,68,0.00,,---,0.00,0.00,VWS V14.01,2013-01-24 06:13:00,
2013-01-24 01:14:00,39.8,30.5,30.06,WSW,255,9.0,15.0,69,0.00,,---,0.00,0.00,VWS V14.01,2013-01-24 06:14:00,
2013-01-24 01:15:00,40.1,30.4,30.06,WSW,246,4.0,13.0,68,0.00,,---,0.00,0.00,VWS V14.01,2013-01-24 06:15:00,
2013-01-24 01:16:00,40.0,30.3,30.06,SW,227,7.0,13.0,68,0.00,,---,0.00,0.00,VWS V14.01,2013-01-24 06:16:00,
2013-01-24 01:17:00,40.0,30.7,30.05,SSW,209,10.0,14.0,69,0.00,,---,0.00,0.00,VWS V14.01,2013-01-24 06:17:00,
2013-01-24 01:18:00,39.9,30.6,30.06,WSW,240,10.0,14.0,69,0.00,,---,0.00,0.00,VWS V14.01,2013-01-24 06:18:00,
2013-01-24 01:19:00,39.9,30.2,30.06,WSW,258,4.0,14.0,68,0.00,,---,0.00,0.00,VWS V14.01,2013-01-24 06:19:00,
2013-01-24 01:20:00,40.1,30.8,30.06,West,262,2.0,13.0,69,0.00,,---,0.00,0.00,VWS V14.01,2013-01-24 06:20:00,
2013-01-24 01:21:00,39.9,30.6,30.06,SW,229,10.0,11.0,69,0.00,,---,0.00,0.00,VWS V14.01,2013-01-24 06:21:00,
2013-01-24 01:22:00,39.9,30.6,30.05,West,277,11.0,11.0,69,0.00,,---,0.00,0.00,VWS V14.01,2013-01-24 06:22:00,
2013-01-24 01:23:00,39.9,30.6,30.05,SW,231,4.0,11.0,69,0.00,,---,0.00,0.00,VWS V14.01,2013-01-24 06:23:00,
2013-01-24 01:24:00,39.9,30.6,30.06,SSW,202,4.0,11.0,69,0.00,,---,0.00,0.00,VWS V14.01,2013-01-24 06:24:00,
2013-01-24 01:25:00,40.0,30.3,30.06,WSW,248,5.0,13.0,68,0.00,,---,0.00,0.00,VWS V14.01,2013-01-24 06:25:00,
2013-01-24 01:26:00,39.9,30.6,30.06,West,262,1.0,11.0,69,0.00,,---,0.00,0.00,VWS V14.01,2013-01-24 06:26:00,
2013-01-24 01:27:00,39.9,30.6,30.06,WSW,257,5.0,13.0,69,0.00,,---,0.00,0.00,VWS V14.01,2013-01-24 06:27:00,
2013-01-24 01:28:00,40.0,30.7,30.06,SW,217,7.0,13.0,69,0.00,,---,0.00,0.00,VWS V14.01,2013-01-24 06:28:00,
2013-01-24 01:29:00,40.0,30.7,30.06,SSW,208,10.0,13.0,69,0.00,,---,0.00,0.00,VWS V14.01,2013-01-24 06:29:00,
2013-01-24 01:30:00,40.0,30.7,30.06,SW,225,10.0,12.0,69,0.00,,---,0.00,0.00,VWS V14.01,2013-01-24 06:30:00,
2013-01-24 01:31:00,39.9,30.6,30.06,SSW,205,4.0,11.0,69,0.00,,---,0.00,0.00,VWS V14.01,2013-01-24 06:31:00,
2013-01-24 01:32:00,40.0,31.0,30.06,WSW,246,4.0,14.0,70,0.00,,---,0.00,0.00,VWS V14.01,2013-01-24 06:32:00,
2013-01-24 01:33:00,40.1,30.8,30.06,SW,232,5.0,14.0,69,0.00,,---,0.00,0.00,VWS V14.01,2013-01-24 06:33:00,
2013-01-24 01:34:00,40.1,30.8,30.06,WNW,294,6.0,14.0,69,0.00,,---,0.00,0.00,VWS V14.01,2013-01-24 06:34:00,
2013-01-24 01:35:00,40.0,30.7,30.06,SW,231,9.0,14.0,69,0.00,,---,0.00,0.00,VWS V14.01,2013-01-24 06:35:00,
2013-01-24 01:36:00,40.0,30.7,30.06,SW,229,4.0,14.0,69,0.00,,---,0.00,0.00,VWS V14.01,2013-01-24 06:36:00,
2013-01-24 01:37:00,40.0,30.7,30.05,SW,234,4.0,14.0,69,0.00,,---,0.00,0.00,VWS V14.01,2013-01-24 06:37:00,
2013-01-24 01:38:00,40.0,30.7,30.06,SW,219,6.0,13.0,69,0.00,,---,0.00,0.00,VWS V14.01,2013-01-24 06:38:00,
2013-01-24 01:39:00,40.1,30.8,30.06,SW,225,3.0,14.0,69,0.00,,---,0.00,0.00,VWS V14.01,2013-01-24 06:39:00,
2013-01-24 01:40:00,40.0,31.0,30.06,NW,322,2.0,6.0,70,0.00,,---,0.00,0.00,VWS V14.01,2013-01-24 06:40:00,
2013-01-24 01:41:00,40.0,31.0,30.06,WSW,238,11.0,14.0,70,0.00,,---,0.00,0.00,VWS V14.01,2013-01-24 06:41:00,
2013-01-24 01:42:00,40.0,30.7,30.06,SW,236,7.0,14.0,69,0.00,,---,0.00,0.00,VWS V14.01,2013-01-24 06:42:00,
2013-01-24 01:43:00,40.1,30.8,30.06,WSW,250,6.0,14.0,69,0.00,,---,0.00,0.00,VWS V14.01,2013-01-24 06:43:00,
2013-01-24 01:44:00,40.1,30.8,30.06,WSW,258,13.0,17.0,69,0.00,,---,0.00,0.00,VWS V14.01,2013-01-24 06:44:00,
2013-01-24 01:45:00,40.1,31.1,30.06,WSW,252,10.0,17.0,70,0.00,,---,0.00,0.00,VWS V14.01,2013-01-24 06:45:00,
2013-01-24 01:46:00,40.2,31.2,30.06,WSW,252,7.0,17.0,70,0.00,,---,0.00,0.00,VWS V14.01,2013-01-24 06:46:00,
2013-01-24 01:47:00,40.2,30.9,30.06,WNW,286,4.0,17.0,69,0.00,,---,0.00,0.00,VWS V14.01,2013-01-24 06:47:00,
2013-01-24 01:48:00,40.1,30.8,30.06,WSW,238,5.0,17.0,69,0.00,,---,0.00,0.00,VWS V14.01,2013-01-24 06:48:00,
2013-01-24 01:49:00,40.0,30.7,30.06,West,277,2.0,14.0,69,0.00,,---,0.00,0.00,VWS V14.01,2013-01-24 06:49:00,
2013-01-24 01:50:00,40.1,30.8,30.06,WSW,248,9.0,9.0,69,0.00,,---,0.00,0.00,VWS V14.01,2013-01-24 06:50:00,
2013-01-24 01:51:00,40.1,31.1,30.06,WSW,247,9.0,9.0,70,0.00,,---,0.00,0.00,VWS V14.01,2013-01-24 06:51:00,
2013-01-24 01:52:00,40.1,31.1,30.06,WSW,257,6.0,10.0,70,0.00,,---,0.00,0.00,VWS V14.01,2013-01-24 06:52:00,
2013-01-24 01:53:00,40.0,30.7,30.06,West,274,5.0,10.0,69,0.00,,---,0.00,0.00,VWS V14.01,2013-01-24 06:53:00,
2013-01-24 01:54:00,40.1,31.1,30.06,WSW,256,11.0,17.0,70,0.00,,---,0.00,0.00,VWS V14.01,2013-01-24 06:54:00,
2013-01-24 01:55:00,40.0,31.0,30.06,West,281,4.0,15.0,70,0.00,,---,0.00,0.00,VWS V14.01,2013-01-24 06:55:00,
2013-01-24 01:56:00,39.9,30.9,30.06,SW,228,6.0,15.0,70,0.00,,---,0.00,0.00,VWS V14.01,2013-01-24 06:56:00,
2013-01-24 01:57:00,39.9,30.9,30.06,WSW,246,6.0,15.0,70,0.00,,---,0.00,0.00,VWS V14.01,2013-01-24 06:57:00,
2013-01-24 01:58:00,39.9,30.9,30.06,SSW,207,3.0,15.0,70,0.00,,---,0.00,0.00,VWS V14.01,2013-01-24 06:58:00,
2013-01-24 01:59:00,40.1,30.8,30.06,SW,227,9.0,17.0,69,0.00,,---,0.00,0.00,VWS V14.01,2013-01-24 06:59:00,
2013-01-24 02:00:00,39.8,30.8,30.06,WSW,252,2.0,9.0,70,0.00,,---,0.00,0.00,VWS V14.01,2013-01-24 07:00:00,
2013-01-24 02:01:00,39.8,30.8,30.06,WSW,239,13.0,13.0,70,0.00,,---,0.00,0.00,VWS V14.01,2013-01-24 07:01:00,
2013-01-24 02:02:00,39.7,30.7,30.06,WSW,249,7.0,13.0,70,0.00,,---,0.00,0.00,VWS V14.01,2013-01-24 07:02:00,
2013-01-24 02:03:00,39.7,30.7,30.06,WSW,249,6.0,13.0,70,0.00,,---,0.00,0.00,VWS V14.01,2013-01-24 07:03:00,
2013-01-24 02:04:00,40.0,31.0,30.06,SW,225,7.0,15.0,70,0.00,,---,0.00,0.00,VWS V14.01,2013-01-24 07:04:00,
2013-01-24 02:05:00,39.7,30.7,30.06,SW,215,13.0,13.0,70,0.00,,---,0.00,0.00,VWS V14.01,2013-01-24 07:05:00,
2013-01-24 02:06:00,39.7,31.1,30.06,WSW,239,4.0,15.0,71,0.00,,---,0.00,0.00,VWS V14.01,2013-01-24 07:06:00,
2013-01-24 02:07:00,39.7,31.1,30.06,WSW,241,9.0,15.0,71,0.00,,---,0.00,0.00,VWS V14.01,2013-01-24 07:07:00,
2013-01-24 02:08:00,39.7,31.1,30.06,SW,236,14.0,15.0,71,0.00,,---,0.00,0.00,VWS V14.01,2013-01-24 07:08:00,
2013-01-24 02:09:00,39.7,31.1,30.06,WSW,255,13.0,16.0,71,0.00,,---,0.00,0.00,VWS V14.01,2013-01-24 07:09:00,
2013-01-24 02:10:00,39.8,30.8,30.06,SW,231,7.0,9.0,70,0.00,,---,0.00,0.00,VWS V14.01,2013-01-24 07:10:00,
2013-01-24 02:11:00,39.7,31.1,30.06,WSW,257,2.0,10.0,71,0.00,,---,0.00,0.00,VWS V14.01,2013-01-24 07:11:00,
2013-01-24 02:12:00,39.7,31.1,30.06,WSW,239,8.0,13.0,71,0.00,,---,0.00,0.00,VWS V14.01,2013-01-24 07:12:00,
2013-01-24 02:13:00,39.7,31.1,30.05,WSW,250,5.0,13.0,71,0.00,,---,0.00,0.00,VWS V14.01,2013-01-24 07:13:00,
2013-01-24 02:14:00,39.7,31.1,30.06,WSW,238,5.0,13.0,71,0.00,,---,0.00,0.00,VWS V14.01,2013-01-24 07:14:00,
2013-01-24 02:15:00,39.7,31.1,30.06,WSW,253,6.0,15.0,71,0.00,,---,0.00,0.00,VWS V14.01,2013-01-24 07:15:00,
2013-01-24 02:16:00,39.7,31.1,30.06,SSW,198,10.0,13.0,71,0.00,,---,0.00,0.00,VWS V14.01,2013-01-24 07:16:00,
2013-01-24 02:17:00,39.6,31.0,30.06,WNW,302,2.0,13.0,71,0.00,,---,0.00,0.00,VWS V14.01,2013-01-24 07:17:00,
2013-01-24 02:18:00,39.6,31.0,30.06,SSW,209,7.0,13.0,71,0.00,,---,0.00,0.00,VWS V14.01,2013-01-24 07:18:00,
2013-01-24 02:19:00,39.6,31.0,30.06,West,266,10.0,15.0,71,0.00,,---,0.00,0.00,VWS V14.01,2013-01-24 07:19:00,
2013-01-24 02:20:00,39.6,31.0,30.06,WSW,240,4.0,7.0,71,0.00,,---,0.00,0.00,VWS V14.01,2013-01-24 07:20:00,
2013-01-24 02:21:00,39.7,31.1,30.06,WSW,244,4.0,13.0,71,0.00,,---,0.00,0.00,VWS V14.01,2013-01-24 07:21:00,
2013-01-24 02:22:00,39.5,30.9,30.06,SW,230,7.0,13.0,71,0.00,,---,0.00,0.00,VWS V14.01,2013-01-24 07:22:00,
2013-01-24 02:23:00,39.6,31.0,30.06,SW,234,5.0,13.0,71,0.00,,---,0.00,0.00,VWS V14.01,2013-01-24 07:23:00,
2013-01-24 02:24:00,39.5,31.2,30.06,SW,222,9.0,13.0,72,0.00,,---,0.00,0.00,VWS V14.01,2013-01-24 07:24:00,
2013-01-24 02:25:00,39.5,31.2,30.06,WSW,240,9.0,13.0,72,0.00,,---,0.00,0.00,VWS V14.01,2013-01-24 07:25:00,
2013-01-24 02:26:00,39.5,30.9,30.06,WSW,240,11.0,13.0,71,0.00,,---,0.00,0.00,VWS V14.01,2013-01-24 07:26:00,
2013-01-24 02:27:00,39.6,31.0,30.06,WSW,242,10.0,13.0,71,0.00,,---,0.00,0.00,VWS V14.01,2013-01-24 07:27:00,
2013-01-24 02:28:00,39.5,31.2,30.06,West,277,1.0,13.0,72,0.00,,---,0.00,0.00,VWS V14.01,2013-01-24 07:28:00,
2013-01-24 02:29:00,39.5,31.2,30.06,WSW,250,2.0,13.0,72,0.00,,---,0.00,0.00,VWS V14.01,2013-01-24 07:29:00,
2013-01-24 02:30:00,39.4,31.1,30.06,SW,236,5.0,5.0,72,0.00,,---,0.00,0.00,VWS V14.01,2013-01-24 07:30:00,
2013-01-24 02:31:00,39.4,31.1,30.06,West,271,4.0,9.0,72,0.00,,---,0.00,0.00,VWS V14.01,2013-01-24 07:31:00,
2013-01-24 02:32:00,39.3,31.0,30.06,West,272,2.0,12.0,72,0.00,,---,0.00,0.00,VWS V14.01,2013-01-24 07:32:00,
2013-01-24 02:33:00,39.5,31.2,30.06,WSW,243,6.0,13.0,72,0.00,,---,0.00,0.00,VWS V14.01,2013-01-24 07:33:00,
2013-01-24 02:34:00,39.3,31.0,30.06,WSW,243,5.0,12.0,72,0.00,,---,0.00,0.00,VWS V14.01,2013-01-24 07:34:00,
2013-01-24 02:35:00,39.3,31.0,30.06,WSW,247,4.0,12.0,72,0.00,,---,0.00,0.00,VWS V14.01,2013-01-24 07:35:00,
2013-01-24 02:36:00,39.3,31.0,30.07,WSW,240,6.0,12.0,72,0.00,,---,0.00,0.00,VWS V14.01,2013-01-24 07:36:00,
2013-01-24 02:37:00,39.3,31.0,30.07,West,267,7.0,12.0,72,0.00,,---,0.00,0.00,VWS V14.01,2013-01-24 07:37:00,
2013-01-24 02:38:00,39.4,31.1,30.06,WSW,258,2.0,13.0,72,0.00,,---,0.00,0.00,VWS V14.01,2013-01-24 07:38:00,
2013-01-24 02:39:00,39.3,31.0,30.06,WSW,257,10.0,13.0,72,0.00,,---,0.00,0.00,VWS V14.01,2013-01-24 07:39:00,
2013-01-24 02:40:00,39.3,31.0,30.06,West,270,4.0,9.0,72,0.00,,---,0.00,0.00,VWS V14.01,2013-01-24 07:40:00,
2013-01-24 02:41:00,39.3,31.0,30.07,WSW,244,6.0,12.0,72,0.00,,---,0.00,0.00,VWS V14.01,2013-01-24 07:41:00,
2013-01-24 02:42:00,39.3,31.0,30.07,SW,236,6.0,12.0,72,0.00,,---,0.00,0.00,VWS V14.01,2013-01-24 07:42:00,
2013-01-24 02:43:00,39.3,31.4,30.07,WSW,255,11.0,12.0,73,0.00,,---,0.00,0.00,VWS V14.01,2013-01-24 07:43:00,
2013-01-24 02:44:00,39.3,31.0,30.06,West,265,5.0,12.0,72,0.00,,---,0.00,0.00,VWS V14.01,2013-01-24 07:44:00,
2013-01-24 02:45:00,39.3,31.4,30.07,WNW,288,1.0,20.0,73,0.00,,---,0.00,0.00,VWS V14.01,2013-01-24 07:45:00,
2013-01-24 02:46:00,39.3,31.4,30.07,WSW,241,12.0,20.0,73,0.00,,---,0.00,0.00,VWS V14.01,2013-01-24 07:46:00,
2013-01-24 02:47:00,39.3,31.4,30.07,SW,230,12.0,20.0,73,0.00,,---,0.00,0.00,VWS V14.01,2013-01-24 07:47:00,
2013-01-24 02:48:00,39.2,31.3,30.07,SW,233,9.0,20.0,73,0.00,,---,0.00,0.00,VWS V14.01,2013-01-24 07:48:00,
2013-01-24 02:49:00,39.3,31.0,30.06,WSW,250,9.0,13.0,72,0.00,,---,0.00,0.00,VWS V14.01,2013-01-24 07:49:00,
2013-01-24 02:50:00,39.3,31.4,30.07,WSW,244,7.0,7.0,73,0.00,,---,0.00,0.00,VWS V14.01,2013-01-24 07:50:00,
2013-01-24 02:51:00,39.3,31.4,30.07,SW,229,9.0,14.0,73,0.00,,---,0.00,0.00,VWS V14.01,2013-01-24 07:51:00,
2013-01-24 02:52:00,39.3,31.4,30.07,West,276,2.0,14.0,73,0.00,,---,0.00,0.00,VWS V14.01,2013-01-24 07:52:00,
2013-01-24 02:53:00,39.3,31.4,30.07,SW,233,7.0,14.0,73,0.00,,---,0.00,0.00,VWS V14.01,2013-01-24 07:53:00,
2013-01-24 02:54:00,39.3,31.4,30.07,West,263,3.0,20.0,73,0.00,,---,0.00,0.00,VWS V14.01,2013-01-24 07:54:00,
2013-01-24 02:55:00,39.4,31.5,30.07,WSW,240,7.0,14.0,73,0.00,,---,0.00,0.00,VWS V14.01,2013-01-24 07:55:00,
2013-01-24 02:56:00,39.3,31.4,30.07,WSW,250,7.0,14.0,73,0.00,,---,0.00,0.00,VWS V14.01,2013-01-24 07:56:00,
2013-01-24 02:57:00,39.4,31.5,30.07,WSW,244,8.0,14.0,73,0.00,,---,0.00,0.00,VWS V14.01,2013-01-24 07:57:00,
2013-01-24 02:58:00,39.4,31.5,30.07,WSW,238,4.0,14.0,73,0.00,,---,0.00,0.00,VWS V14.01,2013-01-24 07:58:00,
2013-01-24 02:59:00,39.2,31.3,30.07,West,277,5.0,20.0,73,0.00,,---,0.00,0.00,VWS V14.01,2013-01-24 07:59:00,
2013-01-24 03:00:00,39.4,31.5,30.08,West,260,5.0,9.0,73,0.00,,---,0.00,0.00,VWS V14.01,2013-01-24 08:00:00,
2013-01-24 03:01:00,39.4,31.5,30.07,WSW,238,5.0,9.0,73,0.00,,---,0.00,0.00,VWS V14.01,2013-01-24 08:01:00,
2013-01-24 03:02:00,39.4,31.5,30.08,West,272,2.0,11.0,73,0.00,,---,0.00,0.00,VWS V14.01,2013-01-24 08:02:00,
2013-01-24 03:03:00,39.5,31.6,30.08,SW,215,4.0,11.0,73,0.00,,---,0.00,0.00,VWS V14.01,2013-01-24 08:03:00,
2013-01-24 03:04:00,39.4,31.5,30.08,West,270,19.0,19.0,73,0.00,,---,0.00,0.00,VWS V14.01,2013-01-24 08:04:00,
2013-01-24 03:05:00,39.3,31.4,30.07,SSW,210,11.0,14.0,73,0.00,,---,0.00,0.00,VWS V14.01,2013-01-24 08:05:00,
2013-01-24 03:06:00,39.4,31.5,30.08,WNW,299,3.0,19.0,73,0.00,,---,0.00,0.00,VWS V14.01,2013-01-24 08:06:00,
2013-01-24 03:07:00,39.4,31.5,30.08,SW,234,1.0,19.0,73,0.00,,---,0.00,0.00,VWS V14.01,2013-01-24 08:07:00,
2013-01-24 03:08:00,39.4,31.5,30.08,WSW,246,9.0,19.0,73,0.00,,---,0.00,0.00,VWS V14.01,2013-01-24 08:08:00,
2013-01-24 03:09:00,39.4,31.5,30.08,WSW,237,4.0,19.0,73,0.00,,---,0.00,0.00,VWS V14.01,2013-01-24 08:09:00,
2013-01-24 03:10:00,39.4,31.5,30.08,SSW,210,6.0,6.0,73,0.00,,---,0.00,0.00,VWS V14.01,2013-01-24 08:10:00,
2013-01-24 03:11:00,39.4,31.5,30.07,WNW,283,5.0,11.0,73,0.00,,---,0.00,0.00,VWS V14.01,2013-01-24 08:11:00,
2013-01-24 03:12:00,39.3,31.0,30.08,WSW,238,2.0,12.0,72,0.00,,---,0.00,0.00,VWS V14.01,2013-01-24 08:12:00,
2013-01-24 03:13:00,39.3,30.7,30.08,NW,306,3.0,21.0,71,0.00,,---,0.00,0.00,VWS V14.01,2013-01-24 08:13:00,
2013-01-24 03:14:00,39.2,30.6,30.08,SW,232,13.0,21.0,71,0.00,,---,0.00,0.00,VWS V14.01,2013-01-24 08:14:00,
2013-01-24 03:15:00,39.2,30.6,30.08,WSW,254,11.0,21.0,71,0.00,,---,0.00,0.00,VWS V14.01,2013-01-24 08:15:00,
2013-01-24 03:16:00,39.4,31.5,30.08,SW,234,5.0,19.0,73,0.00,,---,0.00,0.00,VWS V14.01,2013-01-24 08:16:00,
2013-01-24 03:17:00,39.0,30.1,30.08,SW,236,9.0,26.0,70,0.00,,---,0.00,0.00,VWS V14.01,2013-01-24 08:17:00,
2013-01-24 03:18:00,39.0,30.1,30.08,WSW,244,4.0,26.0,70,0.00,,---,0.00,0.00,VWS V14.01,2013-01-24 08:18:00,
2013-01-24 03:19:00,38.9,29.6,30.09,SW,223,18.0,26.0,69,0.00,,---,0.00,0.00,VWS V14.01,2013-01-24 08:19:00,
2013-01-24 03:20:00,38.8,29.5,30.09,SW,227,14.0,14.0,69,0.00,,---,0.00,0.00,VWS V14.01,2013-01-24 08:20:00,
2013-01-24 03:21:00,39.3,31.0,30.08,SW,229,12.0,12.0,72,0.00,,---,0.00,0.00,VWS V14.01,2013-01-24 08:21:00,
2013-01-24 03:22:00,38.8,29.5,30.09,SW,221,11.0,16.0,69,0.00,,---,0.00,0.00,VWS V14.01,2013-01-24 08:22:00,
2013-01-24 03:23:00,38.7,29.4,30.09,West,275,3.0,16.0,69,0.00,,---,0.00,0.00,VWS V14.01,2013-01-24 08:23:00,
2013-01-24 03:24:00,38.7,29.4,30.09,SSW,198,12.0,16.0,69,0.00,,---,0.00,0.00,VWS V14.01,2013-01-24 08:24:00,
2013-01-24 03:25:00,38.6,29.3,30.09,SW,233,0.0,16.0,69,0.00,,---,0.00,0.00,VWS V14.01,2013-01-24 08:25:00,
2013-01-24 03:26:00,39.1,30.2,30.08,WNW,298,3.0,26.0,70,0.00,,---,0.00,0.00,VWS V14.01,2013-01-24 08:26:00,
2013-01-24 03:27:00,38.6,29.3,30.09,SW,220,4.0,16.0,69,0.00,,---,0.00,0.00,VWS V14.01,2013-01-24 08:27:00,
2013-01-24 03:28:00,38.5,29.2,30.09,SW,236,8.0,16.0,69,0.00,,---,0.00,0.00,VWS V14.01,2013-01-24 08:28:00,
2013-01-24 03:29:00,38.4,29.1,30.09,SW,219,12.0,16.0,69,0.00,,---,0.00,0.00,VWS V14.01,2013-01-24 08:29:00,
2013-01-24 03:30:00,38.4,29.1,30.09,SSW,204,7.0,7.0,69,0.00,,---,0.00,0.00,VWS V14.01,2013-01-24 08:30:00,
2013-01-24 03:31:00,38.3,29.0,30.09,SSE,147,2.0,18.0,69,0.00,,---,0.00,0.00,VWS V14.01,2013-01-24 08:31:00,
2013-01-24 03:32:00,38.2,28.9,30.09,SSW,202,4.0,18.0,69,0.00,,---,0.00,0.00,VWS V14.01,2013-01-24 08:32:00,
2013-01-24 03:33:00,38.7,29.4,30.09,WSW,241,1.0,16.0,69,0.00,,---,0.00,0.00,VWS V14.01,2013-01-24 08:33:00,
2013-01-24 03:34:00,38.0,28.8,30.09,WSW,238,11.0,18.0,69,0.00,,---,0.00,0.00,VWS V14.01,2013-01-24 08:34:00,
2013-01-24 03:35:00,38.0,28.4,30.10,WSW,240,2.0,18.0,68,0.00,,---,0.00,0.00,VWS V14.01,2013-01-24 08:35:00,
2013-01-24 03:36:00,37.9,28.3,30.09,WSW,240,11.0,18.0,68,0.00,,---,0.00,0.00,VWS V14.01,2013-01-24 08:36:00,
2013-01-24 03:37:00,37.8,28.2,30.10,NE,51,4.0,18.0,68,0.00,,---,0.00,0.00,VWS V14.01,2013-01-24 08:37:00,
2013-01-24 03:38:00,38.5,29.2,30.09,WSW,238,5.0,16.0,69,0.00,,---,0.00,0.00,VWS V14.01,2013-01-24 08:38:00,
2013-01-24 03:39:00,37.7,28.1,30.09,SSW,202,4.0,18.0,68,0.00,,---,0.00,0.00,VWS V14.01,2013-01-24 08:39:00,
2013-01-24 03:40:00,37.7,28.1,30.09,SSW,211,9.0,14.0,68,0.00,,---,0.00,0.00,VWS V14.01,2013-01-24 08:40:00,
2013-01-24 03:41:00,37.6,28.0,30.10,NW,309,3.0,16.0,68,0.00,,---,0.00,0.00,VWS V14.01,2013-01-24 08:41:00,
2013-01-24 03:42:00,37.6,28.0,30.09,SW,227,9.0,16.0,68,0.00,,---,0.00,0.00,VWS V14.01,2013-01-24 08:42:00,
2013-01-24 03:43:00,38.0,28.8,30.09,SSW,194,7.0,18.0,69,0.00,,---,0.00,0.00,VWS V14.01,2013-01-24 08:43:00,
2013-01-24 03:44:00,37.4,27.8,30.10,SW,220,10.0,19.0,68,0.00,,---,0.00,0.00,VWS V14.01,2013-01-24 08:44:00,
2013-01-24 03:45:00,37.4,27.8,30.10,SW,236,11.0,19.0,68,0.00,,---,0.00,0.00,VWS V14.01,2013-01-24 08:45:00,
2013-01-24 03:46:00,37.3,27.7,30.09,SW,235,10.0,25.0,68,0.00,,---,0.00,0.00,VWS V14.01,2013-01-24 08:46:00,
2013-01-24 03:47:00,37.3,27.4,30.10,WSW,243,7.0,25.0,67,0.00,,---,0.00,0.00,VWS V14.01,2013-01-24 08:47:00,
2013-01-24 03:48:00,37.3,27.7,30.09,SW,228,9.0,25.0,68,0.00,,---,0.00,0.00,VWS V14.01,2013-01-24 08:48:00,
2013-01-24 03:49:00,37.7,28.1,30.09,WSW,258,10.0,18.0,68,0.00,,---,0.00,0.00,VWS V14.01,2013-01-24 08:49:00,
2013-01-24 03:50:00,37.1,27.5,30.10,SW,226,16.0,16.0,68,0.00,,---,0.00,0.00,VWS V14.01,2013-01-24 08:50:00,
2013-01-24 03:51:00,37.1,27.5,30.10,NNW,335,4.0,22.0,68,0.00,,---,0.00,0.00,VWS V14.01,2013-01-24 08:51:00,
2013-01-24 03:52:00,37.1,27.2,30.10,SW,221,10.0,22.0,67,0.00,,---,0.00,0.00,VWS V14.01,2013-01-24 08:52:00,
2013-01-24 03:53:00,37.1,27.2,30.10,SSW,207,6.0,22.0,67,0.00,,---,0.00,0.00,VWS V14.01,2013-01-24 08:53:00,
2013-01-24 03:54:00,37.4,27.8,30.10,SW,232,12.0,19.0,68,0.00,,---,0.00,0.00,VWS V14.01,2013-01-24 08:54:00,
2013-01-24 03:55:00,37.0,27.1,30.10,SW,218,11.0,22.0,67,0.00,,---,0.00,0.00,VWS V14.01,2013-01-24 08:55:00,
2013-01-24 03:56:00,36.9,27.0,30.10,SW,229,11.0,22.0,67,0.00,,---,0.00,0.00,VWS V14.01,2013-01-24 08:56:00,
2013-01-24 03:57:00,36.9,27.0,30.10,WSW,248,22.0,22.0,67,0.00,,---,0.00,0.00,VWS V14.01,2013-01-24 08:57:00,
2013-01-24 03:58:00,36.9,27.0,30.11,West,261,5.0,22.0,67,0.00,,---,0.00,0.00,VWS V14.01,2013-01-24 08:58:00,
2013-01-24 03:59:00,36.8,26.9,30.10,South,175,7.0,22.0,67,0.00,,---,0.00,0.00,VWS V14.01,2013-01-24 08:59:00,
2013-01-24 04:00:00,37.1,27.5,30.10,SW,219,5.0,22.0,68,0.00,,---,0.00,0.00,VWS V14.01,2013-01-24 09:00:00,
2013-01-24 04:01:00,36.8,26.9,30.11,SW,232,7.0,11.0,67,0.00,,---,0.00,0.00,VWS V14.01,2013-01-24 09:01:00,
2013-01-24 04:02:00,36.7,26.8,30.10,SW,231,4.0,11.0,67,0.00,,---,0.00,0.00,VWS V14.01,2013-01-24 09:02:00,
2013-01-24 04:03:00,36.7,26.8,30.11,SSW,209,2.0,11.0,67,0.00,,---,0.00,0.00,VWS V14.01,2013-01-24 09:03:00,
2013-01-24 04:04:00,36.6,26.7,30.10,SW,221,10.0,16.0,67,0.00,,---,0.00,0.00,VWS V14.01,2013-01-24 09:04:00,
2013-01-24 04:05:00,36.6,26.7,30.11,SW,232,10.0,19.0,67,0.00,,---,0.00,0.00,VWS V14.01,2013-01-24 09:05:00,
2013-01-24 04:06:00,36.9,27.0,30.10,SW,220,17.0,22.0,67,0.00,,---,0.00,0.00,VWS V14.01,2013-01-24 09:06:00,
2013-01-24 04:07:00,36.5,26.6,30.11,WSW,238,2.0,27.0,67,0.00,,---,0.00,0.00,VWS V14.01,2013-01-24 09:07:00,
2013-01-24 04:08:00,36.4,26.1,30.10,WSW,240,2.0,27.0,66,0.00,,---,0.00,0.00,VWS V14.01,2013-01-24 09:08:00,
2013-01-24 04:09:00,36.4,26.1,30.11,West,259,10.0,27.0,66,0.00,,---,0.00,0.00,VWS V14.01,2013-01-24 09:09:00,
2013-01-24 04:10:00,36.4,26.5,30.11,SW,227,11.0,11.0,67,0.00,,---,0.00,0.00,VWS V14.01,2013-01-24 09:10:00,
2013-01-24 04:11:00,36.4,26.5,30.10,SSW,201,11.0,13.0,67,0.00,,---,0.00,0.00,VWS V14.01,2013-01-24 09:11:00,
2013-01-24 04:12:00,36.7,26.8,30.10,WSW,252,2.0,11.0,67,0.00,,---,0.00,0.00,VWS V14.01,2013-01-24 09:12:00,
2013-01-24 04:13:00,36.2,26.3,30.11,SW,223,7.0,15.0,67,0.00,,---,0.00,0.00,VWS V14.01,2013-01-24 09:13:00,
2013-01-24 04:14:00,36.2,26.3,30.11,WSW,249,12.0,17.0,67,0.00,,---,0.00,0.00,VWS V14.01,2013-01-24 09:14:00,
2013-01-24 04:15:00,36.1,26.2,30.10,SW,232,18.0,20.0,67,0.00,,---,0.00,0.00,VWS V14.01,2013-01-24 09:15:00,
2013-01-24 04:16:00,36.1,26.2,30.10,SW,217,12.0,22.0,67,0.00,,---,0.00,0.00,VWS V14.01,2013-01-24 09:16:00,
2013-01-24 04:17:00,36.5,26.2,30.11,SW,224,7.0,27.0,66,0.00,,---,0.00,0.00,VWS V14.01,2013-01-24 09:17:00,
2013-01-24 04:18:00,36.0,26.1,30.11,WSW,252,6.0,22.0,67,0.00,,---,0.00,0.00,VWS V14.01,2013-01-24 09:18:00,
2013-01-24 04:19:00,36.0,26.1,30.11,West,275,6.0,22.0,67,0.00,,---,0.00,0.00,VWS V14.01,2013-01-24 09:19:00,
2013-01-24 04:20:00,36.0,26.1,30.11,SW,233,10.0,10.0,67,0.00,,---,0.00,0.00,VWS V14.01,2013-01-24 09:20:00,
2013-01-24 04:21:00,35.9,26.0,30.11,SW,231,7.0,11.0,67,0.00,,---,0.00,0.00,VWS V14.01,2013-01-24 09:21:00,
2013-01-24 04:22:00,36.2,26.3,30.11,SW,235,9.0,15.0,67,0.00,,---,0.00,0.00,VWS V14.01,2013-01-24 09:22:00,
2013-01-24 04:23:00,35.8,25.9,30.11,SW,229,14.0,14.0,67,0.00,,---,0.00,0.00,VWS V14.01,2013-01-24 09:23:00,
2013-01-24 04:24:00,35.8,25.9,30.11,WSW,250,10.0,15.0,67,0.00,,---,0.00,0.00,VWS V14.01,2013-01-24 09:24:00,
2013-01-24 04:25:00,35.8,25.9,30.12,SSW,211,3.0,15.0,67,0.00,,---,0.00,0.00,VWS V14.01,2013-01-24 09:25:00,
2013-01-24 04:26:00,35.7,25.8,30.12,NW,315,3.0,16.0,67,0.00,,---,0.00,0.00,VWS V14.01,2013-01-24 09:26:00,
2013-01-24 04:27:00,36.0,26.1,30.11,WSW,248,6.0,22.0,67,0.00,,---,0.00,0.00,VWS V14.01,2013-01-24 09:27:00,
2013-01-24 04:28:00,35.7,25.8,30.12,WSW,255,5.0,16.0,67,0.00,,---,0.00,0.00,VWS V14.01,2013-01-24 09:28:00,
2013-01-24 04:29:00,35.7,25.8,30.12,SW,234,10.0,16.0,67,0.00,,---,0.00,0.00,VWS V14.01,2013-01-24 09:29:00,
2013-01-24 04:30:00,35.6,25.7,30.12,West,271,3.0,7.0,67,0.00,,---,0.00,0.00,VWS V14.01,2013-01-24 09:30:00,
2013-01-24 04:31:00,35.6,25.7,30.12,WSW,244,1.0,11.0,67,0.00,,---,0.00,0.00,VWS V14.01,2013-01-24 09:31:00,
2013-01-24 04:32:00,35.9,26.0,30.11,WSW,248,5.0,12.0,67,0.00,,---,0.00,0.00,VWS V14.01,2013-01-24 09:32:00,
2013-01-24 04:33:00,35.6,25.7,30.12,WSW,237,3.0,17.0,67,0.00,,---,0.00,0.00,VWS V14.01,2013-01-24 09:33:00,
2013-01-24 04:34:00,35.6,25.7,30.12,WSW,241,4.0,17.0,67,0.00,,---,0.00,0.00,VWS V14.01,2013-01-24 09:34:00,
2013-01-24 04:35:00,35.6,25.7,30.12,NW,325,7.0,17.0,67,0.00,,---,0.00,0.00,VWS V14.01,2013-01-24 09:35:00,
2013-01-24 04:36:00,35.5,25.3,30.12,West,266,5.0,17.0,66,0.00,,---,0.00,0.00,VWS V14.01,2013-01-24 09:36:00,
2013-01-24 04:37:00,35.5,25.3,30.12,WSW,252,2.0,17.0,66,0.00,,---,0.00,0.00,VWS V14.01,2013-01-24 09:37:00,
2013-01-24 04:38:00,35.7,25.8,30.12,SSW,213,11.0,16.0,67,0.00,,---,0.00,0.00,VWS V14.01,2013-01-24 09:38:00,
2013-01-24 04:39:00,35.4,25.2,30.12,SSW,205,5.0,17.0,66,0.00,,---,0.00,0.00,VWS V14.01,2013-01-24 09:39:00,
2013-01-24 04:40:00,35.4,25.2,30.12,WSW,258,8.0,10.0,66,0.00,,---,0.00,0.00,VWS V14.01,2013-01-24 09:40:00,
2013-01-24 04:41:00,35.4,25.2,30.13,SW,234,11.0,14.0,66,0.00,,---,0.00,0.00,VWS V14.01,2013-01-24 09:41:00,
2013-01-24 04:42:00,35.3,25.1,30.13,WSW,250,6.0,14.0,66,0.00,,---,0.00,0.00,VWS V14.01,2013-01-24 09:42:00,
2013-01-24 04:43:00,35.2,25.0,30.12,WSW,239,10.0,14.0,66,0.00,,---,0.00,0.00,VWS V14.01,2013-01-24 09:43:00,
2013-01-24 04:44:00,35.6,25.7,30.12,WNW,283,5.0,17.0,67,0.00,,---,0.00,0.00,VWS V14.01,2013-01-24 09:44:00,
2013-01-24 04:45:00,35.1,25.3,30.12,SW,232,9.0,14.0,67,0.00,,---,0.00,0.00,VWS V14.01,2013-01-24 09:45:00,
2013-01-24 04:46:00,35.0,25.2,30.13,SW,224,5.0,14.0,67,0.00,,---,0.00,0.00,VWS V14.01,2013-01-24 09:46:00,
2013-01-24 04:47:00,35.0,25.2,30.13,SW,229,5.0,14.0,67,0.00,,---,0.00,0.00,VWS V14.01,2013-01-24 09:47:00,
2013-01-24 04:48:00,35.0,25.2,30.12,SW,219,11.0,14.0,67,0.00,,---,0.00,0.00,VWS V14.01,2013-01-24 09:48:00,
2013-01-24 04:49:00,34.9,25.1,30.12,SW,235,3.0,14.0,67,0.00,,---,0.00,0.00,VWS V14.01,2013-01-24 09:49:00,
2013-01-24 04:50:00,35.4,25.2,30.13,SW,229,10.0,14.0,66,0.00,,---,0.00,0.00,VWS V14.01,2013-01-24 09:50:00,
2013-01-24 04:51:00,34.9,25.1,30.12,SW,215,4.0,11.0,67,0.00,,---,0.00,0.00,VWS V14.01,2013-01-24 09:51:00,
2013-01-24 04:52:00,34.9,24.7,30.12,SW,222,7.0,11.0,66,0.00,,---,0.00,0.00,VWS V14.01,2013-01-24 09:52:00,
2013-01-24 04:53:00,34.9,24.7,30.13,SW,229,5.0,11.0,66,0.00,,---,0.00,0.00,VWS V14.01,2013-01-24 09:53:00,
2013-01-24 04:54:00,34.8,24.2,30.12,West,265,3.0,11.0,65,0.00,,---,0.00,0.00,VWS V14.01,2013-01-24 09:54:00,
2013-01-24 04:55:00,34.9,24.3,30.13,SW,223,10.0,13.0,65,0.00,,---,0.00,0.00,VWS V14.01,2013-01-24 09:55:00,
2013-01-24 04:56:00,35.0,25.2,30.13,WSW,256,5.0,14.0,67,0.00,,---,0.00,0.00,VWS V14.01,2013-01-24 09:56:00,
2013-01-24 04:57:00,34.8,24.6,30.13,SW,226,6.0,17.0,66,0.00,,---,0.00,0.00,VWS V14.01,2013-01-24 09:57:00,
2013-01-24 04:58:00,34.8,24.6,30.13,WSW,238,6.0,17.0,66,0.00,,---,0.00,0.00,VWS V14.01,2013-01-24 09:58:00,
2013-01-24 04:59:00,34.7,24.5,30.13,WSW,247,11.0,17.0,66,0.00,,---,0.00,0.00,VWS V14.01,2013-01-24 09:59:00,
2013-01-24 05:00:00,34.7,24.5,30.13,WSW,246,4.0,5.0,66,0.00,,---,0.00,0.00,VWS V14.01,2013-01-24 10:00:00,
2013-01-24 05:01:00,34.7,24.5,30.13,WSW,237,13.0,13.0,66,0.00,,---,0.00,0.00,VWS V14.01,2013-01-24 10:01:00,
2013-01-24 05:02:00,34.8,24.6,30.13,WSW,248,4.0,11.0,66,0.00,,---,0.00,0.00,VWS V14.01,2013-01-24 10:02:00,
2013-01-24 05:03:00,34.7,24.1,30.13,WSW,254,3.0,16.0,65,0.00,,---,0.00,0.00,VWS V14.01,2013-01-24 10:03:00,
2013-01-24 05:04:00,34.6,24.1,30.13,WSW,246,7.0,16.0,65,0.00,,---,0.00,0.00,VWS V14.01,2013-01-24 10:04:00,
2013-01-24 05:05:00,34.6,24.1,30.12,West,277,4.0,16.0,65,0.00,,---,0.00,0.00,VWS V14.01,2013-01-24 10:05:00,
2013-01-24 05:06:00,34.5,24.0,30.13,West,273,6.0,16.0,65,0.00,,---,0.00,0.00,VWS V14.01,2013-01-24 10:06:00,
2013-01-24 05:07:00,34.5,24.3,30.13,SW,222,11.0,16.0,66,0.00,,---,0.00,0.00,VWS V14.01,2013-01-24 10:07:00,
2013-01-24 05:08:00,34.8,24.6,30.13,WSW,254,4.0,17.0,66,0.00,,---,0.00,0.00,VWS V14.01,2013-01-24 10:08:00,
2013-01-24 05:09:00,34.4,23.9,30.13,West,259,3.0,19.0,65,0.00,,---,0.00,0.00,VWS V14.01,2013-01-24 10:09:00,
2013-01-24 05:10:00,34.4,23.9,30.13,SW,236,5.0,5.0,65,0.00,,---,0.00,0.00,VWS V14.01,2013-01-24 10:10:00,
2013-01-24 05:11:00,34.3,24.1,30.13,SW,235,4.0,5.0,66,0.00,,---,0.00,0.00,VWS V14.01,2013-01-24 10:11:00,
2013-01-24 05:12:00,34.3,24.1,30.13,SSW,201,7.0,10.0,66,0.00,,---,0.00,0.00,VWS V14.01,2013-01-24 10:12:00,
2013-01-24 05:13:00,34.6,24.1,30.13,West,267,10.0,16.0,65,0.00,,---,0.00,0.00,VWS V14.01,2013-01-24 10:13:00,
2013-01-24 05:14:00,34.2,24.0,30.13,SW,225,5.0,10.0,66,0.00,,---,0.00,0.00,VWS V14.01,2013-01-24 10:14:00,
2013-01-24 05:15:00,34.2,24.0,30.12,WSW,240,6.0,12.0,66,0.00,,---,0.00,0.00,VWS V14.01,2013-01-24 10:15:00,
2013-01-24 05:16:00,34.2,24.0,30.13,SW,220,5.0,12.0,66,0.00,,---,0.00,0.00,VWS V14.01,2013-01-24 10:16:00,
2013-01-24 05:17:00,34.2,24.0,30.13,SW,228,4.0,12.0,66,0.00,,---,0.00,0.00,VWS V14.01,2013-01-24 10:17:00,
2013-01-24 05:18:00,34.1,24.0,30.13,WSW,248,6.0,12.0,66,0.00,,---,0.00,0.00,VWS V14.01,2013-01-24 10:18:00,
2013-01-24 05:19:00,34.4,23.9,30.13,SW,223,3.0,19.0,65,0.00,,---,0.00,0.00,VWS V14.01,2013-01-24 10:19:00,
2013-01-24 05:20:00,34.1,24.0,30.13,West,269,7.0,10.0,66,0.00,,---,0.00,0.00,VWS V14.01,2013-01-24 10:20:00,
2013-01-24 05:21:00,34.1,24.0,30.13,WSW,245,5.0,11.0,66,0.00,,---,0.00,0.00,VWS V14.01,2013-01-24 10:21:00,
2013-01-24 05:22:00,34.0,23.9,30.13,WSW,241,5.0,11.0,66,0.00,,---,0.00,0.00,VWS V14.01,2013-01-24 10:22:00,
2013-01-24 05:23:00,34.0,24.2,30.14,WSW,239,7.0,11.0,67,0.00,,---,0.00,0.00,VWS V14.01,2013-01-24 10:23:00,
2013-01-24 05:24:00,34.2,24.0,30.12,SW,232,12.0,12.0,66,0.00,,---,0.00,0.00,VWS V14.01,2013-01-24 10:24:00,
2013-01-24 05:25:00,33.8,24.0,30.13,WSW,241,6.0,11.0,67,0.00,,---,0.00,0.00,VWS V14.01,2013-01-24 10:25:00,
2013-01-24 05:26:00,33.8,24.0,30.14,WSW,242,3.0,11.0,67,0.00,,---,0.00,0.00,VWS V14.01,2013-01-24 10:26:00,
2013-01-24 05:27:00,33.8,24.0,30.14,WSW,237,10.0,11.0,67,0.00,,---,0.00,0.00,VWS V14.01,2013-01-24 10:27:00,
2013-01-24 05:28:00,33.7,23.9,30.14,WSW,239,1.0,11.0,67,0.00,,---,0.00,0.00,VWS V14.01,2013-01-24 10:28:00,
2013-01-24 05:29:00,34.1,24.0,30.13,WSW,238,4.0,6.0,66,0.00,,---,0.00,0.00,VWS V14.01,2013-01-24 10:29:00,
2013-01-24 05:30:00,33.6,23.8,30.14,WSW,238,4.0,12.0,67,0.00,,---,0.00,0.00,VWS V14.01,2013-01-24 10:30:00,
2013-01-24 05:31:00,33.6,23.5,30.14,WSW,243,5.0,12.0,66,0.00,,---,0.00,0.00,VWS V14.01,2013-01-24 10:31:00,
2013-01-24 05:32:00,33.6,23.5,30.14,SSW,211,7.0,12.0,66,0.00,,---,0.00,0.00,VWS V14.01,2013-01-24 10:32:00,
2013-01-24 05:33:00,33.6,23.5,30.14,SW,232,2.0,12.0,66,0.00,,---,0.00,0.00,VWS V14.01,2013-01-24 10:33:00,
2013-01-24 05:34:00,33.9,24.1,30.13,SW,236,4.0,11.0,67,0.00,,---,0.00,0.00,VWS V14.01,2013-01-24 10:34:00,
2013-01-24 05:35:00,33.5,23.0,30.14,NW,321,6.0,17.0,65,0.00,,---,0.00,0.00,VWS V14.01,2013-01-24 10:35:00,
2013-01-24 05:36:00,33.5,23.0,30.14,SSW,213,7.0,17.0,65,0.00,,---,0.00,0.00,VWS V14.01,2013-01-24 10:36:00,
2013-01-24 05:37:00,33.6,23.1,30.14,SW,216,5.0,17.0,65,0.00,,---,0.00,0.00,VWS V14.01,2013-01-24 10:37:00,
2013-01-24 05:38:00,33.5,23.0,30.14,SSW,194,4.0,17.0,65,0.00,,---,0.00,0.00,VWS V14.01,2013-01-24 10:38:00,
2013-01-24 05:39:00,33.6,23.8,30.14,WSW,242,12.0,12.0,67,0.00,,---,0.00,0.00,VWS V14.01,2013-01-24 10:39:00,
2013-01-24 05:40:00,33.5,22.6,30.15,SSW,212,5.0,6.0,64,0.00,,---,0.00,0.00,VWS V14.01,2013-01-24 10:40:00,
2013-01-24 05:41:00,33.5,22.6,30.15,SW,232,7.0,7.0,64,0.00,,---,0.00,0.00,VWS V14.01,2013-01-24 10:41:00,
2013-01-24 05:42:00,33.5,22.6,30.15,West,281,4.0,15.0,64,0.00,,---,0.00,0.00,VWS V14.01,2013-01-24 10:42:00,
2013-01-24 05:43:00,33.5,22.6,30.15,WSW,238,1.0,15.0,64,0.00,,---,0.00,0.00,VWS V14.01,2013-01-24 10:43:00,
2013-01-24 05:44:00,33.6,23.1,30.14,SW,227,9.0,17.0,65,0.00,,---,0.00,0.00,VWS V14.01,2013-01-24 10:44:00,
2013-01-24 05:45:00,33.4,22.5,30.15,SW,236,4.0,15.0,64,0.00,,---,0.00,0.00,VWS V14.01,2013-01-24 10:45:00,
2013-01-24 05:46:00,33.4,22.9,30.15,SSW,204,6.0,15.0,65,0.00,,---,0.00,0.00,VWS V14.01,2013-01-24 10:46:00,
2013-01-24 05:47:00,33.4,22.9,30.15,SW,227,4.0,15.0,65,0.00,,---,0.00,0.00,VWS V14.01,2013-01-24 10:47:00,
2013-01-24 05:48:00,33.3,22.8,30.16,WSW,251,5.0,15.0,65,0.00,,---,0.00,0.00,VWS V14.01,2013-01-24 10:48:00,
2013-01-24 05:49:00,33.3,22.8,30.16,SW,236,2.0,15.0,65,0.00,,---,0.00,0.00,VWS V14.01,2013-01-24 10:49:00,
2013-01-24 05:50:00,33.5,22.6,30.15,WSW,250,5.0,6.0,64,0.00,,---,0.00,0.00,VWS V14.01,2013-01-24 10:50:00,
2013-01-24 05:51:00,33.2,22.7,30.16,SW,236,5.0,9.0,65,0.00,,---,0.00,0.00,VWS V14.01,2013-01-24 10:51:00,
2013-01-24 05:52:00,33.2,22.7,30.16,SSW,213,6.0,9.0,65,0.00,,---,0.00,0.00,VWS V14.01,2013-01-24 10:52:00,
2013-01-24 05:53:00,33.1,22.6,30.16,SW,225,0.0,9.0,65,0.00,,---,0.00,0.00,VWS V14.01,2013-01-24 10:53:00,
2013-01-24 05:54:00,33.1,22.6,30.16,SSW,206,6.0,10.0,65,0.00,,---,0.00,0.00,VWS V14.01,2013-01-24 10:54:00,
2013-01-24 05:55:00,33.4,22.9,30.15,SW,232,3.0,15.0,65,0.00,,---,0.00,0.00,VWS V14.01,2013-01-24 10:55:00,
2013-01-24 05:56:00,33.0,22.5,30.16,SW,234,5.0,10.0,65,0.00,,---,0.00,0.00,VWS V14.01,2013-01-24 10:56:00,
2013-01-24 05:57:00,33.0,22.5,30.16,SW,235,5.0,10.0,65,0.00,,---,0.00,0.00,VWS V14.01,2013-01-24 10:57:00,
2013-01-24 05:58:00,33.0,22.5,30.17,WSW,247,11.0,14.0,65,0.00,,---,0.00,0.00,VWS V14.01,2013-01-24 10:58:00,
2013-01-24 05:59:00,33.0,22.5,30.16,West,269,5.0,14.0,65,0.00,,---,0.00,0.00,VWS V14.01,2013-01-24 10:59:00,
2013-01-24 06:00:00,33.0,22.5,30.16,WSW,240,5.0,5.0,65,0.00,,---,0.00,0.00,VWS V14.01,2013-01-24 11:00:00,
2013-01-24 06:01:00,33.2,22.7,30.16,WSW,246,4.0,9.0,65,0.00,,---,0.00,0.00,VWS V14.01,2013-01-24 11:01:00,
2013-01-24 06:02:00,32.9,22.4,30.16,WNW,300,5.0,9.0,65,0.00,,---,0.00,0.00,VWS V14.01,2013-01-24 11:02:00,
2013-01-24 06:03:00,32.9,22.4,30.17,SW,232,6.0,10.0,65,0.00,,---,0.00,0.00,VWS V14.01,2013-01-24 11:03:00,
2013-01-24 06:04:00,32.8,22.3,30.17,SSW,208,0.0,10.0,65,0.00,,---,0.00,0.00,VWS V14.01,2013-01-24 11:04:00,
2013-01-24 06:05:00,32.8,22.3,30.17,WSW,246,3.0,10.0,65,0.00,,---,0.00,0.00,VWS V14.01,2013-01-24 11:05:00,
2013-01-24 06:06:00,32.8,22.3,30.17,SSW,199,1.0,11.0,65,0.00,,---,0.00,0.00,VWS V14.01,2013-01-24 11:06:00,
2013-01-24 06:07:00,33.0,22.5,30.17,WSW,248,11.0,11.0,65,0.00,,---,0.00,0.00,VWS V14.01,2013-01-24 11:07:00,
2013-01-24 06:08:00,32.7,22.2,30.18,WSW,248,1.0,11.0,65,0.00,,---,0.00,0.00,VWS V14.01,2013-01-24 11:08:00,
2013-01-24 06:09:00,32.7,22.2,30.18,SW,224,2.0,11.0,65,0.00,,---,0.00,0.00,VWS V14.01,2013-01-24 11:09:00,
2013-01-24 06:10:00,32.7,22.2,30.18,ENE,63,1.0,1.0,65,0.00,,---,0.00,0.00,VWS V14.01,2013-01-24 11:10:00,
2013-01-24 06:11:00,32.6,22.1,30.18,NW,318,0.0,5.0,65,0.00,,---,0.00,0.00,VWS V14.01,2013-01-24 11:11:00,
2013-01-24 06:12:00,32.9,22.4,30.17,SSW,213,5.0,9.0,65,0.00,,---,0.00,0.00,VWS V14.01,2013-01-24 11:12:00,
2013-01-24 06:13:00,32.5,22.1,30.18,North,11,0.0,5.0,65,0.00,,---,0.00,0.00,VWS V14.01,2013-01-24 11:13:00,
2013-01-24 06:14:00,32.4,22.3,30.18,North,11,0.0,5.0,66,0.00,,---,0.00,0.00,VWS V14.01,2013-01-24 11:14:00,
2013-01-24 06:15:00,32.3,22.2,30.18,NNE,28,2.0,5.0,66,0.00,,---,0.00,0.00,VWS V14.01,2013-01-24 11:15:00,
2013-01-24 06:16:00,32.2,22.1,30.18,NNE,33,0.0,5.0,66,0.00,,---,0.00,0.00,VWS V14.01,2013-01-24 11:16:00,
2013-01-24 06:17:00,32.1,22.0,30.18,ENE,70,2.0,5.0,66,0.00,,---,0.00,0.00,VWS V14.01,2013-01-24 11:17:00,
2013-01-24 06:18:00,32.7,22.2,30.18,SW,224,3.0,11.0,65,0.00,,---,0.00,0.00,VWS V14.01,2013-01-24 11:18:00,
2013-01-24 06:19:00,31.9,21.9,30.18,ENE,70,1.0,5.0,66,0.00,,---,0.00,0.00,VWS V14.01,2013-01-24 11:19:00,
2013-01-24 06:20:00,31.8,21.8,30.18,West,276,1.0,2.0,66,0.00,,---,0.00,0.00,VWS V14.01,2013-01-24 11:20:00,
2013-01-24 06:21:00,31.7,21.7,30.18,West,264,3.0,3.0,66,0.00,,---,0.00,0.00,VWS V14.01,2013-01-24 11:21:00,
2013-01-24 06:22:00,31.6,21.6,30.18,NNW,348,1.0,5.0,66,0.00,,---,0.00,0.00,VWS V14.01,2013-01-24 11:22:00,
2013-01-24 06:23:00,31.5,21.5,30.18,SSE,154,0.0,5.0,66,0.00,,---,0.00,0.00,VWS V14.01,2013-01-24 11:23:00,
2013-01-24 06:24:00,32.4,22.3,30.18,NNE,28,0.0,5.0,66,0.00,,---,0.00,0.00,VWS V14.01,2013-01-24 11:24:00,
2013-01-24 06:25:00,31.3,21.3,30.18,ENE,64,2.0,5.0,66,0.00,,---,0.00,0.00,VWS V14.01,2013-01-24 11:25:00,
2013-01-24 06:26:00,31.2,21.2,30.18,SSE,153,0.0,5.0,66,0.00,,---,0.00,0.00,VWS V14.01,2013-01-24 11:26:00,
2013-01-24 06:27:00,31.1,21.1,30.18,SW,228,0.0,5.0,66,0.00,,---,0.00,0.00,VWS V14.01,2013-01-24 11:27:00,
2013-01-24 06:28:00,31.0,21.0,30.18,SW,228,0.0,5.0,66,0.00,,---,0.00,0.00,VWS V14.01,2013-01-24 11:28:00,
2013-01-24 06:29:00,31.0,21.0,30.18,SW,229,0.0,5.0,66,0.00,,---,0.00,0.00,VWS V14.01,2013-01-24 11:29:00,
2013-01-24 06:30:00,31.7,21.7,30.18,West,277,0.0,2.0,66,0.00,,---,0.00,0.00,VWS V14.01,2013-01-24 11:30:00,
2013-01-24 06:31:00,30.8,21.1,30.18,SW,230,0.0,6.0,67,0.00,,---,0.00,0.00,VWS V14.01,2013-01-24 11:31:00,
2013-01-24 06:32:00,30.7,21.1,30.18,SW,229,0.0,6.0,67,0.00,,---,0.00,0.00,VWS V14.01,2013-01-24 11:32:00,
2013-01-24 06:33:00,30.6,21.0,30.19,SW,228,0.0,6.0,67,0.00,,---,0.00,0.00,VWS V14.01,2013-01-24 11:33:00,
2013-01-24 06:34:00,30.5,20.9,30.19,SW,228,0.0,6.0,67,0.00,,---,0.00,0.00,VWS V14.01,2013-01-24 11:34:00,
2013-01-24 06:35:00,30.5,20.9,30.19,SW,228,0.0,6.0,67,0.00,,---,0.00,0.00,VWS V14.01,2013-01-24 11:35:00,
2013-01-24 06:36:00,30.4,20.8,30.19,SW,228,0.0,6.0,67,0.00,,---,0.00,0.00,VWS V14.01,2013-01-24 11:36:00,
2013-01-24 06:37:00,31.0,21.0,30.18,SW,228,0.0,5.0,66,0.00,,---,0.00,0.00,VWS V14.01,2013-01-24 11:37:00,
2013-01-24 06:38:00,30.2,20.6,30.19,SW,228,1.0,6.0,67,0.00,,---,0.00,0.00,VWS V14.01,2013-01-24 11:38:00,
2013-01-24 06:39:00,30.2,20.6,30.19,SW,228,0.0,6.0,67,0.00,,---,0.00,0.00,VWS V14.01,2013-01-24 11:39:00,
2013-01-24 06:40:00,30.1,20.5,30.19,SW,228,0.0,1.0,67,0.00,,---,0.00,0.00,VWS V14.01,2013-01-24 11:40:00,
2013-01-24 06:41:00,30.0,20.4,30.19,SW,228,0.0,3.0,67,0.00,,---,0.00,0.00,VWS V14.01,2013-01-24 11:41:00,
2013-01-24 06:42:00,30.0,20.4,30.19,South,179,1.0,3.0,67,0.00,,---,0.00,0.00,VWS V14.01,2013-01-24 11:42:00,
2013-01-24 06:43:00,30.6,21.0,30.19,SW,228,0.0,6.0,67,0.00,,---,0.00,0.00,VWS V14.01,2013-01-24 11:43:00,
2013-01-24 06:44:00,29.9,20.3,30.19,WNW,292,1.0,6.0,67,0.00,,---,0.00,0.00,VWS V14.01,2013-01-24 11:44:00,
2013-01-24 06:45:00,29.9,20.3,30.19,WNW,292,0.0,6.0,67,0.00,,---,0.00,0.00,VWS V14.01,2013-01-24 11:45:00,
2013-01-24 06:46:00,29.9,20.3,30.19,South,184,2.0,6.0,67,0.00,,---,0.00,0.00,VWS V14.01,2013-01-24 11:46:00,
2013-01-24 06:47:00,30.3,20.7,30.19,SW,228,1.0,6.0,67,0.00,,---,0.00,0.00,VWS V14.01,2013-01-24 11:47:00,
2013-01-24 06:48:00,29.8,20.5,30.19,ESE,121,0.0,6.0,68,0.00,,---,0.00,0.00,VWS V14.01,2013-01-24 11:48:00,
2013-01-24 06:49:00,29.8,20.2,30.19,South,172,3.0,6.0,67,0.00,,---,0.00,0.00,VWS V14.01,2013-01-24 11:49:00,
2013-01-24 06:50:00,29.7,20.1,30.19,South,187,0.0,2.0,67,0.00,,---,0.00,0.00,VWS V14.01,2013-01-24 11:50:00,
2013-01-24 06:51:00,29.7,20.1,30.20,SSW,197,0.0,2.0,67,0.00,,---,0.00,0.00,VWS V14.01,2013-01-24 11:51:00,
2013-01-24 06:52:00,29.9,20.3,30.19,West,264,4.0,6.0,67,0.00,,---,0.00,0.00,VWS V14.01,2013-01-24 11:52:00,
2013-01-24 06:53:00,29.7,20.1,30.20,SW,215,4.0,6.0,67,0.00,,---,0.00,0.00,VWS V14.01,2013-01-24 11:53:00,
2013-01-24 06:54:00,29.6,20.0,30.20,SSW,204,0.0,6.0,67,0.00,,---,0.00,0.00,VWS V14.01,2013-01-24 11:54:00,
2013-01-24 06:55:00,29.6,20.0,30.20,SSW,213,7.0,7.0,67,0.00,,---,0.00,0.00,VWS V14.01,2013-01-24 11:55:00,
2013-01-24 06:56:00,29.6,20.0,30.20,SSW,211,3.0,7.0,67,0.00,,---,0.00,0.00,VWS V14.01,2013-01-24 11:56:00,
2013-01-24 06:57:00,29.6,19.6,30.20,West,267,0.0,7.0,66,0.00,,---,0.00,0.00,VWS V14.01,2013-01-24 11:57:00,
2013-01-24 06:58:00,29.8,20.2,30.19,SE,138,2.0,6.0,67,0.00,,---,0.00,0.00,VWS V14.01,2013-01-24 11:58:00,
2013-01-24 06:59:00,29.6,20.0,30.20,SW,227,0.0,7.0,67,0.00,,---,0.00,0.00,VWS V14.01,2013-01-24 11:59:00,
2013-01-24 07:00:00,29.6,20.0,30.20,SW,228,0.0,0.0,67,0.00,,---,0.00,0.00,VWS V14.01,2013-01-24 12:00:00,
2013-01-24 07:01:00,29.5,19.9,30.20,SW,228,0.0,1.0,67,0.00,,---,0.00,0.00,VWS V14.01,2013-01-24 12:01:00,
2013-01-24 07:02:00,29.5,19.6,30.20,SW,228,0.0,1.0,66,0.00,,---,0.00,0.00,VWS V14.01,2013-01-24 12:02:00,
2013-01-24 07:03:00,29.6,20.0,30.20,WSW,253,2.0,6.0,67,0.00,,---,0.00,0.00,VWS V14.01,2013-01-24 12:03:00,
2013-01-24 07:04:00,29.4,19.8,30.20,SSW,209,3.0,6.0,67,0.00,,---,0.00,0.00,VWS V14.01,2013-01-24 12:04:00,
2013-01-24 07:05:00,29.4,19.5,30.20,NNW,346,0.0,6.0,66,0.00,,---,0.00,0.00,VWS V14.01,2013-01-24 12:05:00,
2013-01-24 07:06:00,29.4,19.5,30.20,WSW,240,1.0,6.0,66,0.00,,---,0.00,0.00,VWS V14.01,2013-01-24 12:06:00,
2013-01-24 07:07:00,29.4,19.5,30.21,SE,138,0.0,6.0,66,0.00,,---,0.00,0.00,VWS V14.01,2013-01-24 12:07:00,
2013-01-24 07:08:00,29.4,19.5,30.21,SSW,206,3.0,6.0,66,0.00,,---,0.00,0.00,VWS V14.01,2013-01-24 12:08:00,
2013-01-24 07:09:00,29.6,20.0,30.20,SW,228,0.0,7.0,67,0.00,,---,0.00,0.00,VWS V14.01,2013-01-24 12:09:00,
2013-01-24 07:10:00,29.4,19.5,30.21,SW,232,6.0,6.0,66,0.00,,---,0.00,0.00,VWS V14.01,2013-01-24 12:10:00,
2013-01-24 07:11:00,29.4,19.5,30.21,South,169,1.0,7.0,66,0.00,,---,0.00,0.00,VWS V14.01,2013-01-24 12:11:00,
2013-01-24 07:12:00,29.4,19.5,30.21,SW,224,5.0,7.0,66,0.00,,---,0.00,0.00,VWS V14.01,2013-01-24 12:12:00,
2013-01-24 07:13:00,29.4,19.5,30.21,SW,230,2.0,7.0,66,0.00,,---,0.00,0.00,VWS V14.01,2013-01-24 12:13:00,
2013-01-24 07:14:00,29.4,19.5,30.20,NNW,343,0.0,6.0,66,0.00,,---,0.00,0.00,VWS V14.01,2013-01-24 12:14:00,
2013-01-24 07:15:00,29.4,19.5,30.22,WSW,241,5.0,7.0,66,0.00,,---,0.00,0.00,VWS V14.01,2013-01-24 12:15:00,
2013-01-24 07:16:00,29.4,19.5,30.22,SSE,165,5.0,7.0,66,0.00,,---,0.00,0.00,VWS V14.01,2013-01-24 12:16:00,
2013-01-24 07:17:00,29.4,19.5,30.22,WSW,242,5.0,7.0,66,0.00,,---,0.00,0.00,VWS V14.01,2013-01-24 12:17:00,
2013-01-24 07:18:00,29.4,19.5,30.22,NE,52,2.0,10.0,66,0.00,,---,0.00,0.00,VWS V14.01,2013-01-24 12:18:00,
2013-01-24 07:19:00,29.4,19.5,30.22,SW,218,5.0,10.0,66,0.00,,---,0.00,0.00,VWS V14.01,2013-01-24 12:19:00,
2013-01-24 07:20:00,29.4,19.5,30.21,South,170,3.0,7.0,66,0.00,,---,0.00,0.00,VWS V14.01,2013-01-24 12:20:00,
2013-01-24 07:21:00,29.4,19.5,30.22,West,278,4.0,13.0,66,0.00,,---,0.00,0.00,VWS V14.01,2013-01-24 12:21:00,
2013-01-24 07:22:00,29.5,19.6,30.22,WSW,240,1.0,13.0,66,0.00,,---,0.00,0.00,VWS V14.01,2013-01-24 12:22:00,
2013-01-24 07:23:00,29.5,19.6,30.22,SSW,205,5.0,13.0,66,0.00,,---,0.00,0.00,VWS V14.01,2013-01-24 12:23:00,
2013-01-24 07:24:00,29.5,19.6,30.22,SW,234,0.0,13.0,66,0.00,,---,0.00,0.00,VWS V14.01,2013-01-24 12:24:00,
2013-01-24 07:25:00,29.4,19.5,30.22,SSW,205,4.0,7.0,66,0.00,,---,0.00,0.00,VWS V14.01,2013-01-24 12:25:00,
2013-01-24 07:26:00,29.4,19.5,30.22,SW,225,3.0,13.0,66,0.00,,---,0.00,0.00,VWS V14.01,2013-01-24 12:26:00,
2013-01-24 07:27:00,29.4,19.5,30.22,SW,229,3.0,13.0,66,0.00,,---,0.00,0.00,VWS V14.01,2013-01-24 12:27:00,
2013-01-24 07:28:00,29.4,19.5,30.22,SW,224,7.0,13.0,66,0.00,,---,0.00,0.00,VWS V14.01,2013-01-24 12:28:00,
2013-01-24 07:29:00,29.4,19.5,30.22,WSW,238,7.0,13.0,66,0.00,,---,0.00,0.00,VWS V14.01,2013-01-24 12:29:00,
2013-01-24 07:30:00,29.4,19.5,30.22,SW,217,4.0,10.0,66,0.00,,---,0.00,5.00,VWS V14.01,2013-01-24 12:30:00,
2013-01-24 07:31:00,29.4,19.5,30.22,West,259,0.0,13.0,66,0.00,,---,0.00,0.00,VWS V14.01,2013-01-24 12:31:00,
2013-01-24 07:32:00,29.4,19.5,30.23,WSW,247,0.0,10.0,66,0.00,,---,0.00,5.00,VWS V14.01,2013-01-24 12:32:00,
2013-01-24 07:33:00,29.3,19.4,30.23,WSW,238,0.0,10.0,66,0.00,,---,0.00,5.00,VWS V14.01,2013-01-24 12:33:00,
2013-01-24 07:34:00,29.3,19.7,30.23,WSW,244,2.0,10.0,67,0.00,,---,0.00,7.00,VWS V14.01,2013-01-24 12:34:00,
2013-01-24 07:35:00,29.3,19.7,30.23,SW,227,0.0,10.0,67,0.00,,---,0.00,7.00,VWS V14.01,2013-01-24 12:35:00,
2013-01-24 07:36:00,29.4,19.5,30.22,SW,229,5.0,13.0,66,0.00,,---,0.00,0.00,VWS V14.01,2013-01-24 12:36:00,
2013-01-24 07:37:00,29.2,19.6,30.23,SW,217,4.0,10.0,67,0.00,,---,0.00,11.00,VWS V14.01,2013-01-24 12:37:00,
2013-01-24 07:38:00,29.2,19.6,30.23,SW,216,5.0,10.0,67,0.00,,---,0.00,12.00,VWS V14.01,2013-01-24 12:38:00,
2013-01-24 07:39:00,29.2,19.6,30.23,WSW,239,4.0,10.0,67,0.00,,---,0.00,12.00,VWS V14.01,2013-01-24 12:39:00,
2013-01-24 07:40:00,29.2,19.3,30.23,WNW,300,3.0,4.0,66,0.00,,---,0.00,14.00,VWS V14.01,2013-01-24 12:40:00,
2013-01-24 07:41:00,29.2,19.3,30.23,SSW,213,4.0,7.0,66,0.00,,---,0.00,14.00,VWS V14.01,2013-01-24 12:41:00,
2013-01-24 07:42:00,29.4,19.5,30.23,WSW,238,1.0,10.0,66,0.00,,---,0.00,5.00,VWS V14.01,2013-01-24 12:42:00,
2013-01-24 07:43:00,29.1,19.5,30.23,SW,223,5.0,7.0,67,0.00,,---,0.00,14.00,VWS V14.01,2013-01-24 12:43:00,
2013-01-24 07:44:00,29.1,19.2,30.23,WSW,239,2.0,7.0,66,0.00,,---,0.00,16.00,VWS V14.01,2013-01-24 12:44:00,
2013-01-24 07:45:00,29.1,19.2,30.23,SW,229,3.0,12.0,66,0.00,,---,0.00,16.00,VWS V14.01,2013-01-24 12:45:00,
2013-01-24 07:46:00,29.1,19.2,30.23,SW,218,3.0,12.0,66,0.00,,---,0.00,18.00,VWS V14.01,2013-01-24 12:46:00,
2013-01-24 07:47:00,29.1,19.2,30.23,SW,218,4.0,12.0,66,0.00,,---,0.00,16.00,VWS V14.01,2013-01-24 12:47:00,
2013-01-24 07:48:00,29.1,19.2,30.23,South,169,6.0,12.0,66,0.00,,---,0.00,16.00,VWS V14.01,2013-01-24 12:48:00,
2013-01-24 07:49:00,29.2,19.3,30.23,WSW,239,4.0,10.0,66,0.00,,---,0.00,14.00,VWS V14.01,2013-01-24 12:49:00,
2013-01-24 07:50:00,29.2,19.3,30.23,SW,227,4.0,5.0,66,0.00,,---,0.00,21.00,VWS V14.01,2013-01-24 12:50:00,
2013-01-24 07:51:00,29.2,19.3,30.23,SSW,201,4.0,7.0,66,0.00,,---,0.00,21.00,VWS V14.01,2013-01-24 12:51:00,
2013-01-24 07:52:00,29.1,19.2,30.23,WSW,241,5.0,10.0,66,0.00,,---,0.00,21.00,VWS V14.01,2013-01-24 12:52:00,
2013-01-24 07:53:00,29.1,19.2,30.24,SW,218,4.0,10.0,66,0.00,,---,0.00,19.00,VWS V14.01,2013-01-24 12:53:00,
2013-01-24 07:54:00,29.1,19.2,30.23,SW,220,10.0,12.0,66,0.00,,---,0.00,16.00,VWS V14.01,2013-01-24 12:54:00,
2013-01-24 07:55:00,29.1,19.2,30.23,SW,228,2.0,10.0,66,0.00,,---,0.00,19.00,VWS V14.01,2013-01-24 12:55:00,
2013-01-24 07:56:00,29.1,19.2,30.24,SSW,213,3.0,10.0,66,0.00,,---,0.00,18.00,VWS V14.01,2013-01-24 12:56:00,
2013-01-24 07:57:00,29.0,19.1,30.24,SW,217,0.0,10.0,66,0.00,,---,0.00,19.00,VWS V14.01,2013-01-24 12:57:00,
2013-01-24 07:58:00,29.0,19.1,30.24,SW,217,1.0,10.0,66,0.00,,---,0.00,19.00,VWS V14.01,2013-01-24 12:58:00,
2013-01-24 07:59:00,29.0,19.1,30.24,SW,217,2.0,10.0,66,0.00,,---,0.00,19.00,VWS V14.01,2013-01-24 12:59:00,
2013-01-24 08:00:00,29.2,19.3,30.23,SW,236,3.0,7.0,66,0.00,,---,0.00,21.00,VWS V14.01,2013-01-24 13:00:00,
2013-01-24 08:01:00,29.0,19.4,30.24,SW,234,6.0,6.0,67,0.00,,---,0.00,19.00,VWS V14.01,2013-01-24 13:01:00,
2013-01-24 08:02:00,28.9,19.3,30.24,SW,233,6.0,9.0,67,0.00,,---,0.00,19.00,VWS V14.01,2013-01-24 13:02:00,
2013-01-24 08:03:00,28.9,19.3,30.24,SW,221,3.0,9.0,67,0.00,,---,0.00,21.00,VWS V14.01,2013-01-24 13:03:00,
2013-01-24 08:04:00,28.9,19.3,30.24,SW,234,3.0,9.0,67,0.00,,---,0.00,21.00,VWS V14.01,2013-01-24 13:04:00,
2013-01-24 08:05:00,28.9,19.3,30.24,SW,224,3.0,9.0,67,0.00,,---,0.00,21.00,VWS V14.01,2013-01-24 13:05:00,
2013-01-24 08:06:00,29.1,19.2,30.24,SW,217,2.0,10.0,66,0.00,,---,0.00,18.00,VWS V14.01,2013-01-24 13:06:00,
2013-01-24 08:07:00,28.9,19.3,30.24,SW,222,3.0,9.0,67,0.00,,---,0.00,19.00,VWS V14.01,2013-01-24 13:07:00,
2013-01-24 08:08:00,28.9,19.3,30.24,SW,229,1.0,9.0,67,0.00,,---,0.00,19.00,VWS V14.01,2013-01-24 13:08:00,
2013-01-24 08:09:00,28.9,19.3,30.24,SW,229,3.0,9.0,67,0.00,,---,0.00,19.00,VWS V14.01,2013-01-24 13:09:00,
2013-01-24 08:10:00,28.8,19.2,30.24,SW,229,2.0,2.0,67,0.00,,---,0.00,18.00,VWS V14.01,2013-01-24 13:10:00,
2013-01-24 08:11:00,28.9,19.3,30.24,SSW,212,5.0,6.0,67,0.00,,---,0.00,19.00,VWS V14.01,2013-01-24 13:11:00,
2013-01-24 08:12:00,28.8,19.6,30.25,SW,229,4.0,5.0,68,0.00,,---,0.00,19.00,VWS V14.01,2013-01-24 13:12:00,
2013-01-24 08:13:00,28.9,19.7,30.25,WSW,238,2.0,5.0,68,0.00,,---,0.00,21.00,VWS V14.01,2013-01-24 13:13:00,
2013-01-24 08:14:00,28.8,19.6,30.25,WSW,237,4.0,5.0,68,0.00,,---,0.00,21.00,VWS V14.01,2013-01-24 13:14:00,
2013-01-24 08:15:00,28.8,19.6,30.25,SW,234,4.0,5.0,68,0.00,,---,0.00,21.00,VWS V14.01,2013-01-24 13:15:00,
2013-01-24 08:16:00,28.9,19.7,30.25,WSW,254,1.0,7.0,68,0.00,,---,0.00,23.00,VWS V14.01,2013-01-24 13:16:00,
2013-01-24 08:17:00,28.9,19.3,30.24,SW,229,3.0,9.0,67,0.00,,---,0.00,19.00,VWS V14.01,2013-01-24 13:17:00,
2013-01-24 08:18:00,28.9,19.3,30.25,SW,221,1.0,7.0,67,0.00,,---,0.00,25.00,VWS V14.01,2013-01-24 13:18:00,
2013-01-24 08:19:00,29.0,19.4,30.26,SW,223,2.0,7.0,67,0.00,,---,0.00,25.00,VWS V14.01,2013-01-24 13:19:00,
2013-01-24 08:20:00,29.0,19.4,30.26,SW,235,5.0,7.0,67,0.00,,---,0.00,25.00,VWS V14.01,2013-01-24 13:20:00,
2013-01-24 08:21:00,29.0,19.4,30.26,SW,232,1.0,8.0,67,0.00,,---,0.00,25.00,VWS V14.01,2013-01-24 13:21:00,
2013-01-24 08:22:00,28.8,19.6,30.25,WNW,290,1.0,5.0,68,0.00,,---,0.00,21.00,VWS V14.01,2013-01-24 13:22:00,
2013-01-24 08:23:00,29.1,19.5,30.27,SW,232,5.0,9.0,67,0.00,,---,0.00,21.00,VWS V14.01,2013-01-24 13:23:00,
2013-01-24 08:24:00,29.1,19.5,30.27,SW,227,5.0,9.0,67,0.00,,---,0.00,21.00,VWS V14.01,2013-01-24 13:24:00,
2013-01-24 08:25:00,29.1,19.5,30.27,SW,217,4.0,9.0,67,0.00,,---,0.00,23.00,VWS V14.01,2013-01-24 13:25:00,
2013-01-24 08:26:00,29.1,19.5,30.27,SSE,159,2.0,10.0,67,0.00,,---,0.00,25.00,VWS V14.01,2013-01-24 13:26:00,
2013-01-24 08:27:00,29.1,19.5,30.27,SW,234,5.0,10.0,67,0.00,,---,0.00,26.00,VWS V14.01,2013-01-24 13:27:00,
2013-01-24 08:28:00,28.9,19.3,30.26,SW,223,4.0,7.0,67,0.00,,---,0.00,25.00,VWS V14.01,2013-01-24 13:28:00,
2013-01-24 08:29:00,29.1,19.5,30.27,SSW,209,3.0,10.0,67,0.00,,---,0.00,33.00,VWS V14.01,2013-01-24 13:29:00,
2013-01-24 08:30:00,29.2,19.6,30.27,SSW,211,4.0,6.0,67,0.00,,---,0.00,35.00,VWS V14.01,2013-01-24 13:30:00,
2013-01-24 08:31:00,29.2,19.6,30.27,South,183,0.0,6.0,67,0.00,,---,0.00,40.00,VWS V14.01,2013-01-24 13:31:00,
2013-01-24 08:32:00,29.2,20.0,30.27,South,184,0.0,6.0,68,0.00,,---,0.00,44.00,VWS V14.01,2013-01-24 13:32:00,
2013-01-24 08:33:00,29.2,20.0,30.27,North,9,1.0,6.0,68,0.00,,---,0.00,49.00,VWS V14.01,2013-01-24 13:33:00,
2013-01-24 08:34:00,29.1,19.5,30.27,SW,216,5.0,9.0,67,0.00,,---,0.00,23.00,VWS V14.01,2013-01-24 13:34:00,
2013-01-24 08:35:00,29.2,19.6,30.28,North,9,0.0,6.0,67,0.00,,---,0.00,63.00,VWS V14.01,2013-01-24 13:35:00,
2013-01-24 08:36:00,29.2,19.6,30.28,West,275,1.0,6.0,67,0.00,,---,0.00,77.00,VWS V14.01,2013-01-24 13:36:00,
2013-01-24 08:37:00,29.2,19.6,30.28,SW,236,0.0,6.0,67,0.00,,---,0.00,81.00,VWS V14.01,2013-01-24 13:37:00,
2013-01-24 08:38:00,29.2,19.6,30.28,SW,236,0.0,6.0,67,0.00,,---,0.00,69.00,VWS V14.01,2013-01-24 13:38:00,
2013-01-24 08:39:00,29.1,19.5,30.27,SSW,210,3.0,10.0,67,0.00,,---,0.00,35.00,VWS V14.01,2013-01-24 13:39:00,
2013-01-24 08:40:00,29.3,19.7,30.27,NNE,33,0.0,0.0,67,0.00,,---,0.00,76.00,VWS V14.01,2013-01-24 13:40:00,
2013-01-24 08:41:00,29.3,19.4,30.27,NNE,33,0.0,0.0,66,0.00,,---,0.00,77.00,VWS V14.01,2013-01-24 13:41:00,
2013-01-24 08:42:00,29.3,19.4,30.27,NE,34,1.0,2.0,66,0.00,,---,0.00,77.00,VWS V14.01,2013-01-24 13:42:00,
2013-01-24 08:43:00,29.3,19.4,30.28,West,265,0.0,6.0,66,0.00,,---,0.00,77.00,VWS V14.01,2013-01-24 13:43:00,
2013-01-24 08:44:00,29.2,19.6,30.28,North,9,1.0,6.0,67,0.00,,---,0.00,63.00,VWS V14.01,2013-01-24 13:44:00,
2013-01-24 08:45:00,29.2,17.8,30.27,NE,54,0.0,6.0,62,0.00,,---,0.00,81.00,VWS V14.01,2013-01-24 13:45:00,
2013-01-24 08:46:00,29.2,17.8,30.28,NE,54,0.0,6.0,62,0.00,,---,0.00,81.00,VWS V14.01,2013-01-24 13:46:00,
2013-01-24 08:47:00,29.2,18.2,30.28,NE,54,0.0,6.0,63,0.00,,---,0.00,83.00,VWS V14.01,2013-01-24 13:47:00,
2013-01-24 08:48:00,29.2,18.2,30.28,NE,54,1.0,6.0,63,0.00,,---,0.00,83.00,VWS V14.01,2013-01-24 13:48:00,
2013-01-24 08:49:00,29.1,18.1,30.28,NNE,15,2.0,6.0,63,0.00,,---,0.00,86.00,VWS V14.01,2013-01-24 13:49:00,
2013-01-24 08:50:00,29.3,19.7,30.27,NNE,33,0.0,0.0,67,0.00,,---,0.00,77.00,VWS V14.01,2013-01-24 13:50:00,
2013-01-24 08:51:00,29.0,18.0,30.28,ESE,107,0.0,4.0,63,0.00,,---,0.00,86.00,VWS V14.01,2013-01-24 13:51:00,
2013-01-24 08:52:00,28.9,17.9,30.28,NE,52,6.0,6.0,63,0.00,,---,0.00,88.00,VWS V14.01,2013-01-24 13:52:00,
2013-01-24 08:53:00,28.9,17.9,30.28,NNE,15,1.0,6.0,63,0.00,,---,0.00,86.00,VWS V14.01,2013-01-24 13:53:00,
2013-01-24 08:54:00,28.9,17.9,30.28,NW,323,2.0,7.0,63,0.00,,---,0.00,84.00,VWS V14.01,2013-01-24 13:54:00,
2013-01-24 08:55:00,28.8,17.8,30.28,NNE,30,0.0,7.0,63,0.00,,---,0.00,88.00,VWS V14.01,2013-01-24 13:55:00,
2013-01-24 08:56:00,28.8,17.8,30.28,ENE,59,2.0,7.0,63,0.00,,---,0.00,90.00,VWS V14.01,2013-01-24 13:56:00,
2013-01-24 08:57:00,29.2,18.2,30.28,NE,54,0.0,6.0,63,0.00,,---,0.00,83.00,VWS V14.01,2013-01-24 13:57:00,
2013-01-24 08:58:00,28.7,17.7,30.28,East,95,5.0,7.0,63,0.00,,---,0.00,98.00,VWS V14.01,2013-01-24 13:58:00,
2013-01-24 08:59:00,28.7,17.7,30.29,North,11,4.0,10.0,63,0.00,,---,0.00,104.00,VWS V14.01,2013-01-24 13:59:00,
2013-01-24 09:00:00,28.7,17.7,30.29,NE,53,1.0,3.0,63,0.00,,---,0.00,107.00,VWS V14.01,2013-01-24 14:00:00,
2013-01-24 09:01:00,28.6,17.6,30.29,NE,44,2.0,4.0,63,0.00,,---,0.00,105.00,VWS V14.01,2013-01-24 14:01:00,
2013-01-24 09:02:00,28.9,17.9,30.28,NE,42,1.0,6.0,63,0.00,,---,0.00,86.00,VWS V14.01,2013-01-24 14:02:00,
2013-01-24 09:03:00,28.5,17.1,30.29,ENE,59,1.0,4.0,62,0.00,,---,0.00,102.00,VWS V14.01,2013-01-24 14:03:00,
2013-01-24 09:04:00,28.5,17.1,30.29,ESE,115,1.0,5.0,62,0.00,,---,0.00,97.00,VWS V14.01,2013-01-24 14:04:00,
2013-01-24 09:05:00,28.5,17.5,30.29,East,99,3.0,5.0,63,0.00,,---,0.00,93.00,VWS V14.01,2013-01-24 14:05:00,
2013-01-24 09:06:00,28.5,17.5,30.29,NNE,12,3.0,6.0,63,0.00,,---,0.00,91.00,VWS V14.01,2013-01-24 14:06:00,
2013-01-24 09:07:00,28.5,17.1,30.29,WNW,290,0.0,6.0,62,0.00,,---,0.00,95.00,VWS V14.01,2013-01-24 14:07:00,
2013-01-24 09:08:00,28.7,17.7,30.28,East,92,3.0,10.0,63,0.00,,---,0.00,104.00,VWS V14.01,2013-01-24 14:08:00,
2013-01-24 09:09:00,28.5,17.5,30.30,East,80,1.0,6.0,63,0.00,,---,0.00,100.00,VWS V14.01,2013-01-24 14:09:00,
2013-01-24 09:10:00,28.5,17.5,30.30,ESE,122,1.0,2.0,63,0.00,,---,0.00,102.00,VWS V14.01,2013-01-24 14:10:00,
2013-01-24 09:11:00,28.4,17.1,30.30,NNE,33,0.0,2.0,62,0.00,,---,0.00,104.00,VWS V14.01,2013-01-24 14:11:00,
2013-01-24 09:12:00,28.5,17.1,30.30,ESE,102,2.0,7.0,62,0.00,,---,0.00,107.00,VWS V14.01,2013-01-24 14:12:00,
2013-01-24 09:13:00,28.5,17.1,30.29,ESE,115,1.0,5.0,62,0.00,,---,0.00,97.00,VWS V14.01,2013-01-24 14:13:00,
2013-01-24 09:14:00,28.4,16.7,30.30,ESE,113,4.0,9.0,61,0.00,,---,0.00,97.00,VWS V14.01,2013-01-24 14:14:00,
2013-01-24 09:15:00,28.4,16.7,30.31,NE,47,0.0,10.0,61,0.00,,---,0.00,98.00,VWS V14.01,2013-01-24 14:15:00,
2013-01-24 09:16:00,28.4,16.7,30.31,ENE,64,1.0,10.0,61,0.00,,---,0.00,91.00,VWS V14.01,2013-01-24 14:16:00,
2013-01-24 09:17:00,28.4,16.3,30.31,NE,39,2.0,10.0,60,0.00,,---,0.00,90.00,VWS V14.01,2013-01-24 14:17:00,
2013-01-24 09:18:00,28.4,16.3,30.31,East,86,2.0,10.0,60,0.00,,---,0.00,76.00,VWS V14.01,2013-01-24 14:18:00,
2013-01-24 09:19:00,28.5,17.5,30.30,East,82,0.0,6.0,63,0.00,,---,0.00,100.00,VWS V14.01,2013-01-24 14:19:00,
2013-01-24 09:20:00,28.3,16.6,30.31,NNW,341,2.0,5.0,61,0.00,,---,0.00,76.00,VWS V14.01,2013-01-24 14:20:00,
2013-01-24 09:21:00,28.3,16.6,30.31,ENE,63,1.0,6.0,61,0.00,,---,0.00,76.00,VWS V14.01,2013-01-24 14:21:00,
2013-01-24 09:22:00,28.3,16.6,30.31,ENE,69,0.0,6.0,61,0.00,,---,0.00,74.00,VWS V14.01,2013-01-24 14:22:00,
2013-01-24 09:23:00,28.3,16.6,30.31,SW,229,7.0,7.0,61,0.00,,---,0.00,77.00,VWS V14.01,2013-01-24 14:23:00,
2013-01-24 09:24:00,28.4,16.7,30.31,NW,323,3.0,10.0,61,0.00,,---,0.00,98.00,VWS V14.01,2013-01-24 14:24:00,
2013-01-24 09:25:00,28.2,16.5,30.31,WSW,257,0.0,7.0,61,0.00,,---,0.00,104.00,VWS V14.01,2013-01-24 14:25:00,
2013-01-24 09:26:00,28.1,16.8,30.31,NE,51,1.0,7.0,62,0.00,,---,0.00,102.00,VWS V14.01,2013-01-24 14:26:00,
2013-01-24 09:27:00,28.1,16.8,30.31,NE,55,0.0,7.0,62,0.00,,---,0.00,98.00,VWS V14.01,2013-01-24 14:27:00,
2013-01-24 09:28:00,28.1,16.4,30.31,NE,55,0.0,7.0,61,0.00,,---,0.00,97.00,VWS V14.01,2013-01-24 14:28:00,
2013-01-24 09:29:00,28.1,16.4,30.31,NNW,340,3.0,7.0,61,0.00,,---,0.00,97.00,VWS V14.01,2013-01-24 14:29:00,
2013-01-24 09:30:00,28.3,16.6,30.31,SSW,200,4.0,5.0,61,0.00,,---,0.00,76.00,VWS V14.01,2013-01-24 14:30:00,
2013-01-24 09:31:00,28.1,16.0,30.31,ENE,59,0.0,1.0,60,0.00,,---,0.00,104.00,VWS V14.01,2013-01-24 14:31:00,
2013-01-24 09:32:00,28.1,16.4,30.32,East,98,3.0,3.0,61,0.00,,---,0.00,107.00,VWS V14.01,2013-01-24 14:32:00,
2013-01-24 09:33:00,28.1,16.4,30.32,ENE,78,0.0,3.0,61,0.00,,---,0.00,109.00,VWS V14.01,2013-01-24 14:33:00,
2013-01-24 09:34:00,28.1,16.4,30.32,NE,53,0.0,3.0,61,0.00,,---,0.00,104.00,VWS V14.01,2013-01-24 14:34:00,
2013-01-24 09:35:00,28.0,16.7,30.32,SSW,212,1.0,3.0,62,0.00,,---,0.00,93.00,VWS V14.01,2013-01-24 14:35:00,
2013-01-24 09:36:00,28.2,16.9,30.31,ESE,115,0.0,7.0,62,0.00,,---,0.00,102.00,VWS V14.01,2013-01-24 14:36:00,
2013-01-24 09:37:00,28.1,16.4,30.32,NNE,30,0.0,3.0,61,0.00,,---,0.00,88.00,VWS V14.01,2013-01-24 14:37:00,
2013-01-24 09:38:00,28.1,16.4,30.33,ESE,119,0.0,3.0,61,0.00,,---,0.00,86.00,VWS V14.01,2013-01-24 14:38:00,
2013-01-24 09:39:00,28.0,16.3,30.33,ESE,120,0.0,3.0,61,0.00,,---,0.00,86.00,VWS V14.01,2013-01-24 14:39:00,
2013-01-24 09:40:00,28.0,16.3,30.33,ENE,63,1.0,1.0,61,0.00,,---,0.00,88.00,VWS V14.01,2013-01-24 14:40:00,
2013-01-24 09:41:00,28.1,16.4,30.32,ENE,64,1.0,2.0,61,0.00,,---,0.00,107.00,VWS V14.01,2013-01-24 14:41:00,
2013-01-24 09:42:00,28.1,16.4,30.33,South,188,0.0,3.0,61,0.00,,---,0.00,97.00,VWS V14.01,2013-01-24 14:42:00,
2013-01-24 09:43:00,28.0,16.3,30.33,NNE,26,1.0,3.0,61,0.00,,---,0.00,102.00,VWS V14.01,2013-01-24 14:43:00,
2013-01-24 09:44:00,28.1,16.4,30.33,ENE,65,2.0,3.0,61,0.00,,---,0.00,104.00,VWS V14.01,2013-01-24 14:44:00,
2013-01-24 09:45:00,28.1,16.8,30.33,SW,215,1.0,3.0,62,0.00,,---,0.00,107.00,VWS V14.01,2013-01-24 14:45:00,
2013-01-24 09:46:00,28.0,16.3,30.32,NNE,30,0.0,3.0,61,0.00,,---,0.00,88.00,VWS V14.01,2013-01-24 14:46:00,
2013-01-24 09:47:00,28.1,16.4,30.33,West,275,3.0,7.0,61,0.00,,---,0.00,104.00,VWS V14.01,2013-01-24 14:47:00,
2013-01-24 09:48:00,28.1,16.8,30.33,WNW,302,0.0,8.0,62,0.00,,---,0.00,107.00,VWS V14.01,2013-01-24 14:48:00,
2013-01-24 09:49:00,28.0,16.7,30.33,NW,304,1.0,8.0,62,0.00,,---,0.00,107.00,VWS V14.01,2013-01-24 14:49:00,
2013-01-24 09:50:00,28.0,16.7,30.33,WNW,300,0.0,0.0,62,0.00,,---,0.00,107.00,VWS V14.01,2013-01-24 14:50:00,
2013-01-24 09:51:00,28.0,16.7,30.33,WNW,300,0.0,1.0,62,0.00,,---,0.00,107.00,VWS V14.01,2013-01-24 14:51:00,
2013-01-24 09:52:00,28.0,16.3,30.33,NNE,26,0.0,3.0,61,0.00,,---,0.00,97.00,VWS V14.01,2013-01-24 14:52:00,
2013-01-24 09:53:00,28.0,16.7,30.32,ENE,58,2.0,5.0,62,0.00,,---,0.00,121.00,VWS V14.01,2013-01-24 14:53:00,
2013-01-24 09:54:00,28.1,16.8,30.33,NE,36,3.0,8.0,62,0.00,,---,0.00,118.00,VWS V14.01,2013-01-24 14:54:00,
2013-01-24 09:55:00,28.1,17.1,30.32,ENE,58,1.0,8.0,63,0.00,,---,0.00,120.00,VWS V14.01,2013-01-24 14:55:00,
2013-01-24 09:56:00,28.1,17.1,30.33,North,360,4.0,8.0,63,0.00,,---,0.00,128.00,VWS V14.01,2013-01-24 14:56:00,
2013-01-24 09:57:00,28.1,17.1,30.33,NW,305,0.0,8.0,63,0.00,,---,0.00,139.00,VWS V14.01,2013-01-24 14:57:00,
2013-01-24 09:58:00,28.0,16.7,30.33,NW,304,1.0,8.0,62,0.00,,---,0.00,107.00,VWS V14.01,2013-01-24 14:58:00,
2013-01-24 09:59:00,28.2,17.6,30.33,North,5,0.0,8.0,64,0.00,,---,0.00,148.00,VWS V14.01,2013-01-24 14:59:00,
2013-01-24 10:00:00,28.2,17.2,30.33,ENE,59,0.0,1.0,63,0.00,,---,0.00,146.00,VWS V14.01,2013-01-24 15:00:00,
2013-01-24 10:01:00,28.2,17.6,30.32,ENE,61,0.0,5.0,64,0.00,,---,0.00,141.00,VWS V14.01,2013-01-24 15:01:00,
2013-01-24 10:02:00,28.3,17.7,30.32,NE,46,4.0,5.0,64,0.00,,---,0.00,137.00,VWS V14.01,2013-01-24 15:02:00,
2013-01-24 10:03:00,28.1,16.8,30.33,NE,37,1.0,8.0,62,0.00,,---,0.00,121.00,VWS V14.01,2013-01-24 15:03:00,
2013-01-24 10:04:00,28.2,17.6,30.33,ENE,61,4.0,6.0,64,0.00,,---,0.00,95.00,VWS V14.01,2013-01-24 15:04:00,
2013-01-24 10:05:00,28.2,17.6,30.32,NE,54,0.0,6.0,64,0.00,,---,0.00,79.00,VWS V14.01,2013-01-24 15:05:00,
2013-01-24 10:06:00,28.2,17.2,30.33,NNW,338,4.0,10.0,63,0.00,,---,0.00,83.00,VWS V14.01,2013-01-24 15:06:00,
2013-01-24 10:07:00,28.1,16.8,30.33,ENE,62,5.0,10.0,62,0.00,,---,0.00,88.00,VWS V14.01,2013-01-24 15:07:00,
2013-01-24 10:08:00,28.0,17.0,30.33,NE,52,0.0,10.0,63,0.00,,---,0.00,132.00,VWS V14.01,2013-01-24 15:08:00,
2013-01-24 10:09:00,28.2,17.2,30.33,NE,49,2.0,8.0,63,0.00,,---,0.00,171.00,VWS V14.01,2013-01-24 15:09:00,
2013-01-24 10:10:00,27.8,16.5,30.33,NE,48,1.0,9.0,62,0.00,,---,0.00,137.00,VWS V14.01,2013-01-24 15:10:00,
2013-01-24 10:11:00,27.7,16.4,30.33,NW,313,1.0,9.0,62,0.00,,---,0.00,130.00,VWS V14.01,2013-01-24 15:11:00,
2013-01-24 10:12:00,27.7,16.0,30.33,East,80,3.0,9.0,61,0.00,,---,0.00,144.00,VWS V14.01,2013-01-24 15:12:00,
2013-01-24 10:13:00,27.6,16.3,30.33,NE,54,3.0,9.0,62,0.00,,---,0.00,156.00,VWS V14.01,2013-01-24 15:13:00,
2013-01-24 10:14:00,28.2,17.6,30.32,NE,40,0.0,6.0,64,0.00,,---,0.00,118.00,VWS V14.01,2013-01-24 15:14:00,
2013-01-24 10:15:00,27.6,16.3,30.33,ENE,66,2.0,9.0,62,0.00,,---,0.00,156.00,VWS V14.01,2013-01-24 15:15:00,
2013-01-24 10:16:00,27.5,16.2,30.34,NE,55,0.0,9.0,62,0.00,,---,0.00,90.00,VWS V14.01,2013-01-24 15:16:00,
2013-01-24 10:17:00,27.6,16.7,30.33,ENE,64,3.0,9.0,63,0.00,,---,0.00,79.00,VWS V14.01,2013-01-24 15:17:00,
2013-01-24 10:18:00,27.6,16.7,30.34,ENE,57,4.0,9.0,63,0.00,,---,0.00,83.00,VWS V14.01,2013-01-24 15:18:00,
2013-01-24 10:19:00,27.9,17.0,30.33,NE,38,0.0,10.0,63,0.00,,---,0.00,165.00,VWS V14.01,2013-01-24 15:19:00,
2013-01-24 10:20:00,27.5,16.2,30.34,NE,42,1.0,3.0,62,0.00,,---,0.00,83.00,VWS V14.01,2013-01-24 15:20:00,
2013-01-24 10:21:00,27.5,16.2,30.35,NNE,32,3.0,9.0,62,0.00,,---,0.00,84.00,VWS V14.01,2013-01-24 15:21:00,
2013-01-24 10:22:00,27.5,15.8,30.35,SE,142,0.0,9.0,61,0.00,,---,0.00,113.00,VWS V14.01,2013-01-24 15:22:00,
2013-01-24 10:23:00,27.5,15.8,30.35,NE,47,2.0,9.0,61,0.00,,---,0.00,151.00,VWS V14.01,2013-01-24 15:23:00,
2013-01-24 10:24:00,27.6,16.7,30.33,ENE,67,2.0,9.0,63,0.00,,---,0.00,156.00,VWS V14.01,2013-01-24 15:24:00,
2013-01-24 10:25:00,27.4,15.7,30.35,NE,56,2.0,9.0,61,0.00,,---,0.00,146.00,VWS V14.01,2013-01-24 15:25:00,
2013-01-24 10:26:00,27.4,15.7,30.35,ENE,60,2.0,9.0,61,0.00,,---,0.00,127.00,VWS V14.01,2013-01-24 15:26:00,
2013-01-24 10:27:00,27.4,15.7,30.34,NE,46,6.0,9.0,61,0.00,,---,0.00,109.00,VWS V14.01,2013-01-24 15:27:00,
2013-01-24 10:28:00,27.3,15.6,30.34,NE,55,3.0,9.0,61,0.00,,---,0.00,121.00,VWS V14.01,2013-01-24 15:28:00,
2013-01-24 10:29:00,27.4,15.7,30.34,NE,56,3.0,9.0,61,0.00,,---,0.00,102.00,VWS V14.01,2013-01-24 15:29:00,
2013-01-24 10:30:00,27.5,16.2,30.34,NE,46,1.0,3.0,62,0.00,,---,0.00,84.00,VWS V14.01,2013-01-24 15:30:00,
2013-01-24 10:31:00,27.4,15.7,30.35,NE,51,1.0,7.0,61,0.00,,---,0.00,98.00,VWS V14.01,2013-01-24 15:31:00,
2013-01-24 10:32:00,27.4,15.7,30.35,NNE,31,0.0,7.0,61,0.00,,---,0.00,102.00,VWS V14.01,2013-01-24 15:32:00,
2013-01-24 10:33:00,27.4,15.7,30.35,NE,51,1.0,8.0,61,0.00,,---,0.00,104.00,VWS V14.01,2013-01-24 15:33:00,
2013-01-24 10:34:00,27.4,15.4,30.34,ENE,63,5.0,8.0,60,0.00,,---,0.00,144.00,VWS V14.01,2013-01-24 15:34:00,
2013-01-24 10:35:00,27.4,15.7,30.35,NE,56,3.0,9.0,61,0.00,,---,0.00,127.00,VWS V14.01,2013-01-24 15:35:00,
2013-01-24 10:36:00,27.4,15.4,30.34,ENE,61,4.0,10.0,60,0.00,,---,0.00,165.00,VWS V14.01,2013-01-24 15:36:00,
2013-01-24 10:37:00,27.3,15.3,30.35,East,90,0.0,10.0,60,0.00,,---,0.00,178.00,VWS V14.01,2013-01-24 15:37:00,
2013-01-24 10:38:00,27.3,14.9,30.35,WNW,297,1.0,10.0,59,0.00,,---,0.00,188.00,VWS V14.01,2013-01-24 15:38:00,
2013-01-24 10:39:00,27.3,14.9,30.34,NE,55,1.0,10.0,59,0.00,,---,0.00,211.00,VWS V14.01,2013-01-24 15:39:00,
2013-01-24 10:40:00,27.3,14.9,30.35,NE,54,0.0,3.0,59,0.00,,---,0.00,295.00,VWS V14.01,2013-01-24 15:40:00,
2013-01-24 10:41:00,27.4,15.7,30.35,NE,45,3.0,7.0,61,0.00,,---,0.00,102.00,VWS V14.01,2013-01-24 15:41:00,
2013-01-24 10:42:00,27.3,14.5,30.35,North,350,0.0,6.0,58,0.00,,---,0.00,260.00,VWS V14.01,2013-01-24 15:42:00,
2013-01-24 10:43:00,27.3,14.5,30.35,NW,309,0.0,6.0,58,0.00,,---,0.00,269.00,VWS V14.01,2013-01-24 15:43:00,
2013-01-24 10:44:00,27.3,15.3,30.35,ENE,61,3.0,7.0,60,0.00,,---,0.00,269.00,VWS V14.01,2013-01-24 15:44:00,
2013-01-24 10:45:00,27.4,15.0,30.35,ENE,57,3.0,7.0,59,0.00,,---,0.00,246.00,VWS V14.01,2013-01-24 15:45:00,
2013-01-24 10:46:00,27.3,15.3,30.35,NE,44,2.0,10.0,60,0.00,,---,0.00,178.00,VWS V14.01,2013-01-24 15:46:00,
2013-01-24 10:47:00,27.4,15.0,30.35,ENE,58,6.0,7.0,59,0.00,,---,0.00,294.00,VWS V14.01,2013-01-24 15:47:00,
2013-01-24 10:48:00,27.5,15.1,30.35,NE,37,3.0,9.0,59,0.00,,---,0.00,239.00,VWS V14.01,2013-01-24 15:48:00,
2013-01-24 10:49:00,27.4,14.2,30.35,NNE,20,5.0,9.0,57,0.00,,---,0.00,200.00,VWS V14.01,2013-01-24 15:49:00,
2013-01-24 10:50:00,27.4,14.2,30.35,NE,54,1.0,2.0,57,0.00,,---,0.00,188.00,VWS V14.01,2013-01-24 15:50:00,
2013-01-24 10:51:00,27.4,14.2,30.35,NNE,32,0.0,4.0,57,0.00,,---,0.00,232.00,VWS V14.01,2013-01-24 15:51:00,
2013-01-24 10:52:00,27.3,14.5,30.35,WNW,301,0.0,6.0,58,0.00,,---,0.00,269.00,VWS V14.01,2013-01-24 15:52:00,
2013-01-24 10:53:00,27.4,14.6,30.35,ENE,71,2.0,6.0,58,0.00,,---,0.00,204.00,VWS V14.01,2013-01-24 15:53:00,
2013-01-24 10:54:00,27.4,14.6,30.36,NW,326,4.0,7.0,58,0.00,,---,0.00,213.00,VWS V14.01,2013-01-24 15:54:00,
2013-01-24 10:55:00,27.5,14.7,30.35,ENE,59,6.0,7.0,58,0.00,,---,0.00,216.00,VWS V14.01,2013-01-24 15:55:00,
2013-01-24 10:56:00,27.5,14.3,30.36,East,86,4.0,7.0,57,0.00,,---,0.00,241.00,VWS V14.01,2013-01-24 15:56:00,
2013-01-24 10:57:00,27.4,15.0,30.35,NNE,22,2.0,9.0,59,0.00,,---,0.00,239.00,VWS V14.01,2013-01-24 15:57:00,
2013-01-24 10:58:00,27.6,14.4,30.36,NW,325,0.0,7.0,57,0.00,,---,0.00,350.00,VWS V14.01,2013-01-24 15:58:00,
2013-01-24 10:59:00,27.7,14.5,30.36,ENE,61,1.0,7.0,57,0.00,,---,0.00,366.00,VWS V14.01,2013-01-24 15:59:00,
2013-01-24 11:00:00,27.8,14.6,30.36,ENE,61,6.0,6.0,57,0.00,,---,0.00,410.00,VWS V14.01,2013-01-24 16:00:00,
2013-01-24 11:01:00,27.8,14.6,30.36,NE,38,1.0,6.0,57,0.00,,---,0.00,475.00,VWS V14.01,2013-01-24 16:01:00,
2013-01-24 11:02:00,27.9,14.2,30.36,NE,50,1.0,6.0,56,0.00,,---,0.00,517.00,VWS V14.01,2013-01-24 16:02:00,
2013-01-24 11:03:00,27.4,14.6,30.35,ENE,65,4.0,6.0,58,0.00,,---,0.00,204.00,VWS V14.01,2013-01-24 16:03:00,
2013-01-24 11:04:00,28.1,14.8,30.36,NNE,32,1.0,7.0,57,0.00,,---,0.00,483.00,VWS V14.01,2013-01-24 16:04:00,
2013-01-24 11:05:00,28.2,14.1,30.36,NW,313,5.0,7.0,55,0.00,,---,0.00,478.00,VWS V14.01,2013-01-24 16:05:00,
2013-01-24 11:06:00,28.2,13.3,30.36,SSW,203,2.0,7.0,53,0.00,,---,0.00,459.00,VWS V14.01,2013-01-24 16:06:00,
2013-01-24 11:07:00,28.2,13.3,30.36,NE,41,2.0,7.0,53,0.00,,---,0.00,482.00,VWS V14.01,2013-01-24 16:07:00,
2013-01-24 11:08:00,27.7,14.5,30.36,North,355,0.0,7.0,57,0.00,,---,0.00,350.00,VWS V14.01,2013-01-24 16:08:00,
2013-01-24 11:09:00,28.3,13.8,30.36,ENE,67,3.0,10.0,54,0.00,,---,0.00,457.00,VWS V14.01,2013-01-24 16:09:00,
2013-01-24 11:10:00,28.4,13.9,30.36,ENE,65,2.0,3.0,54,0.00,,---,0.00,380.00,VWS V14.01,2013-01-24 16:10:00,
2013-01-24 11:11:00,28.4,13.9,30.36,NE,40,6.0,6.0,54,0.00,,---,0.00,399.00,VWS V14.01,2013-01-24 16:11:00,
2013-01-24 11:12:00,28.5,14.0,30.37,ENE,76,4.0,6.0,54,0.00,,---,0.00,434.00,VWS V14.01,2013-01-24 16:12:00,
2013-01-24 11:13:00,28.1,14.8,30.36,NNE,30,4.0,7.0,57,0.00,,---,0.00,503.00,VWS V14.01,2013-01-24 16:13:00,
2013-01-24 11:14:00,28.5,13.1,30.37,North,11,2.0,6.0,52,0.00,,---,0.00,520.00,VWS V14.01,2013-01-24 16:14:00,
2013-01-24 11:15:00,28.5,13.1,30.36,NE,38,7.0,7.0,52,0.00,,---,0.00,522.00,VWS V14.01,2013-01-24 16:15:00,
2013-01-24 11:16:00,28.6,13.2,30.37,ENE,68,2.0,7.0,52,0.00,,---,0.00,475.00,VWS V14.01,2013-01-24 16:16:00,
2013-01-24 11:17:00,28.5,13.1,30.37,NE,37,0.0,7.0,52,0.00,,---,0.00,457.00,VWS V14.01,2013-01-24 16:17:00,
2013-01-24 11:18:00,28.5,12.7,30.37,NW,320,3.0,7.0,51,0.00,,---,0.00,497.00,VWS V14.01,2013-01-24 16:18:00,
2013-01-24 11:19:00,28.4,13.9,30.36,ENE,62,3.0,10.0,54,0.00,,---,0.00,380.00,VWS V14.01,2013-01-24 16:19:00,
2013-01-24 11:20:00,28.5,13.1,30.36,NE,40,1.0,3.0,52,0.00,,---,0.00,452.00,VWS V14.01,2013-01-24 16:20:00,
2013-01-24 11:21:00,28.6,13.2,30.37,NE,34,0.0,5.0,52,0.00,,---,0.00,294.00,VWS V14.01,2013-01-24 16:21:00,
2013-01-24 11:22:00,28.6,13.2,30.37,NNW,328,4.0,5.0,52,0.00,,---,0.00,341.00,VWS V14.01,2013-01-24 16:22:00,
2013-01-24 11:23:00,28.6,13.2,30.36,WNW,300,0.0,6.0,52,0.00,,---,0.00,410.00,VWS V14.01,2013-01-24 16:23:00,
2013-01-24 11:24:00,28.5,13.1,30.36,ENE,66,1.0,6.0,52,0.00,,---,0.00,534.00,VWS V14.01,2013-01-24 16:24:00,
2013-01-24 11:25:00,28.6,13.2,30.37,NE,34,2.0,6.0,52,0.00,,---,0.00,446.00,VWS V14.01,2013-01-24 16:25:00,
2013-01-24 11:26:00,28.6,12.8,30.37,NE,43,4.0,6.0,51,0.00,,---,0.00,468.00,VWS V14.01,2013-01-24 16:26:00,
2013-01-24 11:27:00,28.6,12.8,30.37,ENE,69,2.0,6.0,51,0.00,,---,0.00,457.00,VWS V14.01,2013-01-24 16:27:00,
2013-01-24 11:28:00,28.7,13.3,30.37,NNE,29,2.0,6.0,52,0.00,,---,0.00,457.00,VWS V14.01,2013-01-24 16:28:00,
2013-01-24 11:29:00,28.7,12.9,30.37,NNW,333,2.0,6.0,51,0.00,,---,0.00,369.00,VWS V14.01,2013-01-24 16:29:00,
2013-01-24 11:30:00,28.5,13.1,30.36,NW,326,3.0,5.0,52,0.00,,---,0.00,295.00,VWS V14.01,2013-01-24 16:30:00,
2013-01-24 11:31:00,28.5,12.2,30.36,East,94,1.0,3.0,50,0.00,,---,0.00,573.00,VWS V14.01,2013-01-24 16:31:00,
2013-01-24 11:32:00,28.5,12.2,30.36,ENE,62,3.0,4.0,50,0.00,,---,0.00,480.00,VWS V14.01,2013-01-24 16:32:00,
2013-01-24 11:33:00,28.4,12.6,30.37,NNW,340,2.0,4.0,51,0.00,,---,0.00,362.00,VWS V14.01,2013-01-24 16:33:00,
2013-01-24 11:34:00,28.4,12.1,30.37,ENE,60,0.0,5.0,50,0.00,,---,0.00,425.00,VWS V14.01,2013-01-24 16:34:00,
2013-01-24 11:35:00,28.6,12.8,30.37,NE,34,0.0,6.0,51,0.00,,---,0.00,468.00,VWS V14.01,2013-01-24 16:35:00,
2013-01-24 11:36:00,28.5,12.2,30.36,NE,38,0.0,5.0,50,0.00,,---,0.00,452.00,VWS V14.01,2013-01-24 16:36:00,
2013-01-24 11:37:00,28.5,12.2,30.37,NNE,25,0.0,5.0,50,0.00,,---,0.00,550.00,VWS V14.01,2013-01-24 16:37:00,
2013-01-24 11:38:00,28.6,12.3,30.37,SSW,198,1.0,6.0,50,0.00,,---,0.00,554.00,VWS V14.01,2013-01-24 16:38:00,
2013-01-24 11:39:00,28.6,12.3,30.37,SW,234,0.0,6.0,50,0.00,,---,0.00,561.00,VWS V14.01,2013-01-24 16:39:00,
2013-01-24 11:40:00,28.5,11.8,30.37,ENE,59,1.0,3.0,49,0.00,,---,0.00,561.00,VWS V14.01,2013-01-24 16:40:00,
2013-01-24 11:41:00,28.5,12.2,30.36,ENE,63,2.0,3.0,50,0.00,,---,0.00,480.00,VWS V14.01,2013-01-24 16:41:00,
2013-01-24 11:42:00,28.7,12.0,30.36,NE,49,0.0,5.0,49,0.00,,---,0.00,612.00,VWS V14.01,2013-01-24 16:42:00,
2013-01-24 11:43:00,28.7,12.4,30.36,NNE,28,0.0,6.0,50,0.00,,---,0.00,610.00,VWS V14.01,2013-01-24 16:43:00,
2013-01-24 11:44:00,28.9,13.1,30.36,NNE,18,0.0,6.0,51,0.00,,---,0.00,605.00,VWS V14.01,2013-01-24 16:44:00,
2013-01-24 11:45:00,29.0,13.1,30.36,NE,40,3.0,6.0,51,0.00,,---,0.00,613.00,VWS V14.01,2013-01-24 16:45:00,
2013-01-24 11:46:00,28.5,12.2,30.37,NE,38,0.0,5.0,50,0.00,,---,0.00,550.00,VWS V14.01,2013-01-24 16:46:00,
2013-01-24 11:47:00,29.4,12.6,30.36,ENE,61,3.0,7.0,49,0.00,,---,0.00,603.00,VWS V14.01,2013-01-24 16:47:00,
2013-01-24 11:48:00,29.5,12.7,30.36,NE,44,7.0,7.0,49,0.00,,---,0.00,619.00,VWS V14.01,2013-01-24 16:48:00,
2013-01-24 11:49:00,29.6,11.9,30.36,NE,43,2.0,7.0,47,0.00,,---,0.00,621.00,VWS V14.01,2013-01-24 16:49:00,
2013-01-24 11:50:00,29.7,11.9,30.36,NE,42,3.0,4.0,47,0.00,,---,0.00,624.00,VWS V14.01,2013-01-24 16:50:00,
2013-01-24 11:51:00,29.7,11.9,30.36,NE,37,1.0,5.0,47,0.00,,---,0.00,626.00,VWS V14.01,2013-01-24 16:51:00,
2013-01-24 11:52:00,28.7,12.0,30.36,NNE,26,5.0,6.0,49,0.00,,---,0.00,610.00,VWS V14.01,2013-01-24 16:52:00,
2013-01-24 11:53:00,29.7,12.4,30.37,NE,49,3.0,6.0,48,0.00,,---,0.00,608.00,VWS V14.01,2013-01-24 16:53:00,
2013-01-24 11:54:00,29.8,12.5,30.37,NE,47,2.0,6.0,48,0.00,,---,0.00,585.00,VWS V14.01,2013-01-24 16:54:00,
2013-01-24 11:55:00,29.8,13.0,30.37,NE,46,1.0,6.0,49,0.00,,---,0.00,606.00,VWS V14.01,2013-01-24 16:55:00,
2013-01-24 11:56:00,29.8,13.0,30.37,ENE,57,2.0,6.0,49,0.00,,---,0.00,626.00,VWS V14.01,2013-01-24 16:56:00,
2013-01-24 11:57:00,29.5,12.2,30.36,ENE,59,3.0,7.0,48,0.00,,---,0.00,619.00,VWS V14.01,2013-01-24 16:57:00,
2013-01-24 11:58:00,29.8,12.5,30.37,ENE,71,0.0,6.0,48,0.00,,---,0.00,629.00,VWS V14.01,2013-01-24 16:58:00,
2013-01-24 11:59:00,29.8,12.5,30.37,ENE,69,0.0,6.0,48,0.00,,---,0.00,629.00,VWS V14.01,2013-01-24 16:59:00,
2013-01-24 12:00:00,29.8,12.5,30.37,NE,48,4.0,4.0,48,0.00,,---,0.00,628.00,VWS V14.01,2013-01-24 17:00:00,
2013-01-24 12:01:00,29.8,12.0,30.37,NE,39,3.0,4.0,47,0.00,,---,0.00,633.00,VWS V14.01,2013-01-24 17:01:00,
2013-01-24 12:02:00,29.8,12.0,30.37,SSW,210,1.0,5.0,47,0.00,,---,0.00,633.00,VWS V14.01,2013-01-24 17:02:00,
2013-01-24 12:03:00,29.8,12.5,30.37,NE,53,2.0,6.0,48,0.00,,---,0.00,585.00,VWS V14.01,2013-01-24 17:03:00,
2013-01-24 12:04:00,29.7,11.9,30.36,East,96,3.0,5.0,47,0.00,,---,0.00,635.00,VWS V14.01,2013-01-24 17:04:00,
2013-01-24 12:05:00,29.7,11.9,30.37,NNW,327,4.0,5.0,47,0.00,,---,0.00,631.00,VWS V14.01,2013-01-24 17:05:00,
2013-01-24 12:06:00,29.8,12.0,30.37,WNW,298,0.0,5.0,47,0.00,,---,0.00,636.00,VWS V14.01,2013-01-24 17:06:00,
2013-01-24 12:07:00,29.8,12.5,30.37,WSW,246,2.0,5.0,48,0.00,,---,0.00,636.00,VWS V14.01,2013-01-24 17:07:00,
2013-01-24 12:08:00,29.8,12.5,30.37,ENE,69,1.0,6.0,48,0.00,,---,0.00,629.00,VWS V14.01,2013-01-24 17:08:00,
2013-01-24 12:09:00,29.6,11.4,30.37,NNE,19,0.0,6.0,46,0.00,,---,0.00,642.00,VWS V14.01,2013-01-24 17:09:00,
2013-01-24 12:10:00,29.6,11.4,30.37,West,272,1.0,3.0,46,0.00,,---,0.00,642.00,VWS V14.01,2013-01-24 17:10:00,
2013-01-24 12:11:00,29.5,11.3,30.37,ENE,63,0.0,3.0,46,0.00,,---,0.00,642.00,VWS V14.01,2013-01-24 17:11:00,
2013-01-24 12:12:00,29.5,11.8,30.37,NE,54,3.0,3.0,47,0.00,,---,0.00,638.00,VWS V14.01,2013-01-24 17:12:00,
2013-01-24 12:13:00,29.6,12.3,30.37,NE,41,0.0,4.0,48,0.00,,---,0.00,636.00,VWS V14.01,2013-01-24 17:13:00,
2013-01-24 12:14:00,29.7,11.9,30.36,ENE,71,1.0,5.0,47,0.00,,---,0.00,631.00,VWS V14.01,2013-01-24 17:14:00,
2013-01-24 12:15:00,29.7,12.4,30.36,West,261,2.0,6.0,48,0.00,,---,0.00,638.00,VWS V14.01,2013-01-24 17:15:00,
2013-01-24 12:16:00,29.7,11.9,30.36,NE,55,1.0,6.0,47,0.00,,---,0.00,635.00,VWS V14.01,2013-01-24 17:16:00,
2013-01-24 12:17:00,29.7,11.9,30.36,West,276,2.0,6.0,47,0.00,,---,0.00,635.00,VWS V14.01,2013-01-24 17:17:00,
2013-01-24 12:18:00,29.7,12.4,30.37,SSW,210,0.0,6.0,48,0.00,,---,0.00,635.00,VWS V14.01,2013-01-24 17:18:00,
2013-01-24 12:19:00,29.6,11.4,30.37,North,355,0.0,6.0,46,0.00,,---,0.00,642.00,VWS V14.01,2013-01-24 17:19:00,
2013-01-24 12:20:00,29.7,11.0,30.37,ENE,64,2.0,2.0,45,0.00,,---,0.00,645.00,VWS V14.01,2013-01-24 17:20:00,
2013-01-24 12:21:00,29.7,11.5,30.37,NE,55,0.0,2.0,46,0.00,,---,0.00,642.00,VWS V14.01,2013-01-24 17:21:00,
2013-01-24 12:22:00,29.7,11.5,30.37,South,174,0.0,5.0,46,0.00,,---,0.00,647.00,VWS V14.01,2013-01-24 17:22:00,
2013-01-24 12:23:00,29.7,11.5,30.37,West,270,5.0,9.0,46,0.00,,---,0.00,649.00,VWS V14.01,2013-01-24 17:23:00,
2013-01-24 12:24:00,29.7,12.4,30.36,West,265,3.0,6.0,48,0.00,,---,0.00,638.00,VWS V14.01,2013-01-24 17:24:00,
2013-01-24 12:25:00,29.5,11.3,30.37,NE,36,3.0,9.0,46,0.00,,---,0.00,652.00,VWS V14.01,2013-01-24 17:25:00,
2013-01-24 12:26:00,29.4,12.1,30.37,North,11,0.0,9.0,48,0.00,,---,0.00,656.00,VWS V14.01,2013-01-24 17:26:00,
2013-01-24 12:27:00,29.4,11.7,30.37,WSW,257,1.0,9.0,47,0.00,,---,0.00,659.00,VWS V14.01,2013-01-24 17:27:00,
2013-01-24 12:28:00,29.4,12.1,30.36,SE,138,6.0,9.0,48,0.00,,---,0.00,664.00,VWS V14.01,2013-01-24 17:28:00,
2013-01-24 12:29:00,29.8,11.1,30.37,ENE,66,1.0,6.0,45,0.00,,---,0.00,645.00,VWS V14.01,2013-01-24 17:29:00,
2013-01-24 12:30:00,29.3,10.6,30.36,SSW,196,3.0,4.0,45,0.00,,---,0.00,610.00,VWS V14.01,2013-01-24 17:30:00,
2013-01-24 12:31:00,29.2,10.5,30.36,North,355,1.0,4.0,45,0.00,,---,0.00,531.00,VWS V14.01,2013-01-24 17:31:00,
2013-01-24 12:32:00,29.1,10.9,30.36,ESE,116,3.0,9.0,46,0.00,,---,0.00,645.00,VWS V14.01,2013-01-24 17:32:00,
2013-01-24 12:33:00,29.0,10.8,30.36,NE,49,1.0,9.0,46,0.00,,---,0.00,638.00,VWS V14.01,2013-01-24 17:33:00,
2013-01-24 12:34:00,29.5,11.3,30.37,WSW,238,4.0,9.0,46,0.00,,---,0.00,650.00,VWS V14.01,2013-01-24 17:34:00,
2013-01-24 12:35:00,29.1,10.9,30.36,NW,315,3.0,9.0,46,0.00,,---,0.00,666.00,VWS V14.01,2013-01-24 17:35:00,
2013-01-24 12:36:00,29.1,10.4,30.36,ENE,58,3.0,9.0,45,0.00,,---,0.00,652.00,VWS V14.01,2013-01-24 17:36:00,
2013-01-24 12:37:00,29.1,10.9,30.36,ENE,61,2.0,9.0,46,0.00,,---,0.00,659.00,VWS V14.01,2013-01-24 17:37:00,
2013-01-24 12:38:00,29.2,12.0,30.36,NE,38,0.0,9.0,48,0.00,,---,0.00,631.00,VWS V14.01,2013-01-24 17:38:00,
2013-01-24 12:39:00,29.2,11.5,30.36,NE,50,4.0,9.0,47,0.00,,---,0.00,656.00,VWS V14.01,2013-01-24 17:39:00,
2013-01-24 12:40:00,29.2,10.5,30.36,NNW,333,2.0,4.0,45,0.00,,---,0.00,531.00,VWS V14.01,2013-01-24 17:40:00,
2013-01-24 12:41:00,29.5,12.2,30.36,ENE,59,2.0,5.0,48,0.00,,---,0.00,650.00,VWS V14.01,2013-01-24 17:41:00,
2013-01-24 12:42:00,29.6,12.8,30.36,ENE,59,0.0,6.0,49,0.00,,---,0.00,659.00,VWS V14.01,2013-01-24 17:42:00,
2013-01-24 12:43:00,29.8,13.4,30.37,ENE,57,0.0,7.0,50,0.00,,---,0.00,605.00,VWS V14.01,2013-01-24 17:43:00,
2013-01-24 12:44:00,29.9,12.6,30.37,WSW,250,0.0,7.0,48,0.00,,---,0.00,596.00,VWS V14.01,2013-01-24 17:44:00,
2013-01-24 12:45:00,29.1,10.9,30.36,ENE,61,3.0,9.0,46,0.00,,---,0.00,652.00,VWS V14.01,2013-01-24 17:45:00,
2013-01-24 12:46:00,29.8,10.6,30.37,NW,324,1.0,7.0,44,0.00,,---,0.00,580.00,VWS V14.01,2013-01-24 17:46:00,
2013-01-24 12:47:00,29.8,11.6,30.37,NE,54,6.0,7.0,46,0.00,,---,0.00,580.00,VWS V14.01,2013-01-24 17:47:00,
2013-01-24 12:48:00,29.8,12.0,30.37,ENE,59,0.0,7.0,47,0.00,,---,0.00,642.00,VWS V14.01,2013-01-24 17:48:00,
2013-01-24 12:49:00,29.9,11.6,30.37,NW,309,4.0,7.0,46,0.00,,---,0.00,663.00,VWS V14.01,2013-01-24 17:49:00,
2013-01-24 12:50:00,29.9,10.6,30.37,North,360,0.0,1.0,44,0.00,,---,0.00,617.00,VWS V14.01,2013-01-24 17:50:00,
2013-01-24 12:51:00,29.6,12.3,30.36,ENE,59,3.0,6.0,48,0.00,,---,0.00,659.00,VWS V14.01,2013-01-24 17:51:00,
2013-01-24 12:52:00,29.9,10.6,30.37,West,264,5.0,5.0,44,0.00,,---,0.00,663.00,VWS V14.01,2013-01-24 17:52:00,
2013-01-24 12:53:00,29.9,10.6,30.37,North,355,0.0,5.0,44,0.00,,---,0.00,635.00,VWS V14.01,2013-01-24 17:53:00,
2013-01-24 12:54:00,29.9,11.2,30.37,WNW,283,0.0,5.0,45,0.00,,---,0.00,657.00,VWS V14.01,2013-01-24 17:54:00,
2013-01-24 12:55:00,29.8,10.1,30.37,SW,232,0.0,5.0,43,0.00,,---,0.00,661.00,VWS V14.01,2013-01-24 17:55:00,
2013-01-24 12:56:00,29.8,10.1,30.37,SW,236,1.0,5.0,43,0.00,,---,0.00,654.00,VWS V14.01,2013-01-24 17:56:00,
2013-01-24 12:57:00,29.8,10.6,30.37,ENE,59,3.0,7.0,44,0.00,,---,0.00,580.00,VWS V14.01,2013-01-24 17:57:00,
2013-01-24 12:58:00,29.8,10.6,30.37,WNW,301,4.0,7.0,44,0.00,,---,0.00,656.00,VWS V14.01,2013-01-24 17:58:00,
2013-01-24 12:59:00,29.8,11.6,30.37,NNW,331,1.0,7.0,46,0.00,,---,0.00,652.00,VWS V14.01,2013-01-24 17:59:00,
2013-01-24 13:00:00,29.8,11.6,30.37,NNE,21,1.0,3.0,46,0.00,,---,0.00,656.00,VWS V14.01,2013-01-24 18:00:00,
2013-01-24 13:01:00,29.8,10.6,30.37,NNW,332,6.0,9.0,44,0.00,,---,0.00,664.00,VWS V14.01,2013-01-24 18:01:00,
2013-01-24 13:02:00,29.9,10.6,30.37,North,355,1.0,5.0,44,0.00,,---,0.00,635.00,VWS V14.01,2013-01-24 18:02:00,
2013-01-24 13:03:00,29.8,10.6,30.37,NE,40,0.0,9.0,44,0.00,,---,0.00,642.00,VWS V14.01,2013-01-24 18:03:00,
2013-01-24 13:04:00,29.9,12.1,30.36,East,84,2.0,9.0,47,0.00,,---,0.00,606.00,VWS V14.01,2013-01-24 18:04:00,
2013-01-24 13:05:00,29.9,12.1,30.37,NE,55,3.0,9.0,47,0.00,,---,0.00,643.00,VWS V14.01,2013-01-24 18:05:00,
2013-01-24 13:06:00,30.0,12.2,30.37,WNW,287,3.0,9.0,47,0.00,,---,0.00,668.00,VWS V14.01,2013-01-24 18:06:00,
2013-01-24 13:07:00,30.0,10.7,30.37,NE,51,2.0,9.0,44,0.00,,---,0.00,663.00,VWS V14.01,2013-01-24 18:07:00,
2013-01-24 13:08:00,29.7,10.5,30.37,NNW,331,0.0,7.0,44,0.00,,---,0.00,652.00,VWS V14.01,2013-01-24 18:08:00,
2013-01-24 13:09:00,30.0,10.7,30.37,SE,129,0.0,9.0,44,0.00,,---,0.00,668.00,VWS V14.01,2013-01-24 18:09:00,
2013-01-24 13:10:00,30.0,10.7,30.37,NE,49,1.0,1.0,44,0.00,,---,0.00,663.00,VWS V14.01,2013-01-24 18:10:00,
2013-01-24 13:11:00,30.0,10.2,30.37,NE,39,1.0,5.0,43,0.00,,---,0.00,677.00,VWS V14.01,2013-01-24 18:11:00,
2013-01-24 13:12:00,30.0,10.7,30.36,NE,55,2.0,5.0,44,0.00,,---,0.00,668.00,VWS V14.01,2013-01-24 18:12:00,
2013-01-24 13:13:00,29.8,11.1,30.36,ENE,58,5.0,9.0,45,0.00,,---,0.00,606.00,VWS V14.01,2013-01-24 18:13:00,
2013-01-24 13:14:00,29.9,9.6,30.37,NW,309,4.0,10.0,42,0.00,,---,0.00,628.00,VWS V14.01,2013-01-24 18:14:00,
2013-01-24 13:15:00,29.8,9.5,30.37,SW,217,2.0,10.0,42,0.00,,---,0.00,635.00,VWS V14.01,2013-01-24 18:15:00,
2013-01-24 13:16:00,29.7,9.4,30.37,SW,227,0.0,10.0,42,0.00,,---,0.00,548.00,VWS V14.01,2013-01-24 18:16:00,
2013-01-24 13:17:00,29.7,9.4,30.36,NE,46,3.0,10.0,42,0.00,,---,0.00,548.00,VWS V14.01,2013-01-24 18:17:00,
2013-01-24 13:18:00,30.0,10.7,30.37,SE,129,0.0,9.0,44,0.00,,---,0.00,668.00,VWS V14.01,2013-01-24 18:18:00,
2013-01-24 13:19:00,29.6,8.8,30.36,West,273,1.0,10.0,41,0.00,,---,0.00,603.00,VWS V14.01,2013-01-24 18:19:00,
2013-01-24 13:20:00,29.6,8.8,30.36,NE,45,0.0,1.0,41,0.00,,---,0.00,512.00,VWS V14.01,2013-01-24 18:20:00,
2013-01-24 13:21:00,29.6,9.3,30.37,NE,45,0.0,1.0,42,0.00,,---,0.00,478.00,VWS V14.01,2013-01-24 18:21:00,
2013-01-24 13:22:00,29.7,10.5,30.37,WNW,302,2.0,6.0,44,0.00,,---,0.00,478.00,VWS V14.01,2013-01-24 18:22:00,
2013-01-24 13:23:00,29.7,9.4,30.37,WNW,300,2.0,6.0,42,0.00,,---,0.00,631.00,VWS V14.01,2013-01-24 18:23:00,
2013-01-24 13:24:00,29.9,9.6,30.37,ESE,113,0.0,10.0,42,0.00,,---,0.00,635.00,VWS V14.01,2013-01-24 18:24:00,
2013-01-24 13:25:00,29.7,10.0,30.36,West,279,1.0,9.0,43,0.00,,---,0.00,689.00,VWS V14.01,2013-01-24 18:25:00,
2013-01-24 13:26:00,29.8,10.1,30.36,West,269,1.0,9.0,43,0.00,,---,0.00,670.00,VWS V14.01,2013-01-24 18:26:00,
2013-01-24 13:27:00,29.8,10.1,30.36,West,272,1.0,9.0,43,0.00,,---,0.00,650.00,VWS V14.01,2013-01-24 18:27:00,
2013-01-24 13:28:00,29.9,10.6,30.36,ENE,59,4.0,9.0,44,0.00,,---,0.00,621.00,VWS V14.01,2013-01-24 18:28:00,
2013-01-24 13:29:00,30.0,10.7,30.36,ENE,60,4.0,10.0,44,0.00,,---,0.00,519.00,VWS V14.01,2013-01-24 18:29:00,
2013-01-24 13:30:00,29.6,8.8,30.36,NE,45,0.0,1.0,41,0.00,,---,0.00,512.00,VWS V14.01,2013-01-24 18:30:00,
2013-01-24 13:31:00,30.2,10.4,30.37,North,360,3.0,9.0,43,0.00,,---,0.00,633.00,VWS V14.01,2013-01-24 18:31:00,
2013-01-24 13:32:00,30.2,9.9,30.36,WSW,244,5.0,9.0,42,0.00,,---,0.00,640.00,VWS V14.01,2013-01-24 18:32:00,
2013-01-24 13:33:00,30.1,9.3,30.36,NE,43,0.0,9.0,41,0.00,,---,0.00,612.00,VWS V14.01,2013-01-24 18:33:00,
2013-01-24 13:34:00,30.1,9.8,30.36,East,94,2.0,9.0,42,0.00,,---,0.00,638.00,VWS V14.01,2013-01-24 18:34:00,
2013-01-24 13:35:00,29.7,10.0,30.36,West,263,1.0,9.0,43,0.00,,---,0.00,670.00,VWS V14.01,2013-01-24 18:35:00,
2013-01-24 13:36:00,29.9,9.1,30.36,West,274,5.0,9.0,41,0.00,,---,0.00,596.00,VWS V14.01,2013-01-24 18:36:00,
2013-01-24 13:37:00,29.8,9.0,30.36,WSW,250,1.0,9.0,41,0.00,,---,0.00,596.00,VWS V14.01,2013-01-24 18:37:00,
2013-01-24 13:38:00,29.7,9.4,30.36,WNW,285,2.0,9.0,42,0.00,,---,0.00,596.00,VWS V14.01,2013-01-24 18:38:00,
2013-01-24 13:39:00,29.7,9.4,30.36,WNW,285,0.0,9.0,42,0.00,,---,0.00,566.00,VWS V14.01,2013-01-24 18:39:00,
2013-01-24 13:40:00,29.7,9.4,30.36,NNE,23,0.0,2.0,42,0.00,,---,0.00,580.00,VWS V14.01,2013-01-24 18:40:00,
2013-01-24 13:41:00,29.7,9.4,30.36,WSW,257,3.0,3.0,42,0.00,,---,0.00,587.00,VWS V14.01,2013-01-24 18:41:00,
2013-01-24 13:42:00,30.1,9.3,30.36,NE,49,2.0,9.0,41,0.00,,---,0.00,612.00,VWS V14.01,2013-01-24 18:42:00,
2013-01-24 13:43:00,29.8,10.6,30.36,ENE,67,1.0,5.0,44,0.00,,---,0.00,663.00,VWS V14.01,2013-01-24 18:43:00,
2013-01-24 13:44:00,29.9,10.1,30.36,NE,35,1.0,5.0,43,0.00,,---,0.00,663.00,VWS V14.01,2013-01-24 18:44:00,
2013-01-24 13:45:00,30.0,10.2,30.36,NE,55,1.0,7.0,43,0.00,,---,0.00,654.00,VWS V14.01,2013-01-24 18:45:00,
2013-01-24 13:46:00,30.1,10.8,30.36,NE,52,1.0,7.0,44,0.00,,---,0.00,647.00,VWS V14.01,2013-01-24 18:46:00,
2013-01-24 13:47:00,29.7,9.4,30.36,WNW,284,0.0,9.0,42,0.00,,---,0.00,596.00,VWS V14.01,2013-01-24 18:47:00,
2013-01-24 13:48:00,30.3,10.5,30.36,West,261,0.0,7.0,43,0.00,,---,0.00,568.00,VWS V14.01,2013-01-24 18:48:00,
2013-01-24 13:49:00,30.3,10.0,30.36,South,189,1.0,7.0,42,0.00,,---,0.00,598.00,VWS V14.01,2013-01-24 18:49:00,
2013-01-24 13:50:00,30.3,9.4,30.36,East,88,1.0,2.0,41,0.00,,---,0.00,573.00,VWS V14.01,2013-01-24 18:50:00,
2013-01-24 13:51:00,30.2,9.4,30.36,ENE,74,3.0,9.0,41,0.00,,---,0.00,482.00,VWS V14.01,2013-01-24 18:51:00,
2013-01-24 13:52:00,30.2,10.4,30.36,NE,49,2.0,9.0,43,0.00,,---,0.00,489.00,VWS V14.01,2013-01-24 18:52:00,
2013-01-24 13:53:00,29.9,10.1,30.36,NE,45,3.0,5.0,43,0.00,,---,0.00,663.00,VWS V14.01,2013-01-24 18:53:00,
2013-01-24 13:54:00,30.1,9.3,30.36,SSE,156,2.0,9.0,41,0.00,,---,0.00,612.00,VWS V14.01,2013-01-24 18:54:00,
2013-01-24 13:55:00,30.0,9.2,30.36,WNW,282,2.0,9.0,41,0.00,,---,0.00,612.00,VWS V14.01,2013-01-24 18:55:00,
2013-01-24 13:56:00,29.9,9.1,30.36,WNW,293,0.0,9.0,41,0.00,,---,0.00,573.00,VWS V14.01,2013-01-24 18:56:00,
2013-01-24 13:57:00,29.9,9.1,30.36,West,259,4.0,9.0,41,0.00,,---,0.00,564.00,VWS V14.01,2013-01-24 18:57:00,
2013-01-24 13:58:00,30.3,10.0,30.36,West,261,2.0,7.0,42,0.00,,---,0.00,598.00,VWS V14.01,2013-01-24 18:58:00,
2013-01-24 13:59:00,29.8,9.0,30.36,NW,325,0.0,9.0,41,0.00,,---,0.00,599.00,VWS V14.01,2013-01-24 18:59:00,
2013-01-24 14:00:00,29.8,8.4,30.36,NW,326,0.0,0.0,40,0.00,,---,0.00,617.00,VWS V14.01,2013-01-24 19:00:00,
2013-01-24 14:01:00,29.8,8.4,30.35,NW,319,4.0,4.0,40,0.00,,---,0.00,575.00,VWS V14.01,2013-01-24 19:01:00,
2013-01-24 14:02:00,29.8,9.0,30.35,North,351,1.0,4.0,41,0.00,,---,0.00,624.00,VWS V14.01,2013-01-24 19:02:00,
2013-01-24 14:03:00,29.9,10.1,30.35,NE,49,0.0,7.0,43,0.00,,---,0.00,547.00,VWS V14.01,2013-01-24 19:03:00,
2013-01-24 14:04:00,30.0,9.2,30.36,West,281,3.0,9.0,41,0.00,,---,0.00,612.00,VWS V14.01,2013-01-24 19:04:00,
2013-01-24 14:05:00,30.2,10.9,30.35,NE,42,1.0,7.0,44,0.00,,---,0.00,587.00,VWS V14.01,2013-01-24 19:05:00,
2013-01-24 14:06:00,30.3,11.0,30.35,NE,41,0.0,7.0,44,0.00,,---,0.00,545.00,VWS V14.01,2013-01-24 19:06:00,
2013-01-24 14:07:00,30.5,11.7,30.35,NE,42,0.0,7.0,45,0.00,,---,0.00,605.00,VWS V14.01,2013-01-24 19:07:00,
2013-01-24 14:08:00,30.7,11.9,30.35,NE,42,0.0,7.0,45,0.00,,---,0.00,608.00,VWS V14.01,2013-01-24 19:08:00,
2013-01-24 14:09:00,29.8,8.4,30.36,NW,326,0.0,9.0,40,0.00,,---,0.00,599.00,VWS V14.01,2013-01-24 19:09:00,
2013-01-24 14:10:00,30.9,11.6,30.35,NNE,32,2.0,5.0,44,0.00,,---,0.00,610.00,VWS V14.01,2013-01-24 19:10:00,
2013-01-24 14:11:00,31.0,10.6,30.35,North,360,1.0,5.0,42,0.00,,---,0.00,610.00,VWS V14.01,2013-01-24 19:11:00,
2013-01-24 14:12:00,31.1,11.2,30.35,NNW,342,1.0,5.0,43,0.00,,---,0.00,591.00,VWS V14.01,2013-01-24 19:12:00,
2013-01-24 14:13:00,31.1,11.2,30.35,SW,223,3.0,5.0,43,0.00,,---,0.00,578.00,VWS V14.01,2013-01-24 19:13:00,
2013-01-24 14:14:00,31.1,9.6,30.36,SW,233,3.0,5.0,40,0.00,,---,0.00,561.00,VWS V14.01,2013-01-24 19:14:00,
2013-01-24 14:15:00,30.3,11.0,30.35,NE,41,2.0,7.0,44,0.00,,---,0.00,626.00,VWS V14.01,2013-01-24 19:15:00,
2013-01-24 14:16:00,31.0,9.5,30.36,NNW,330,1.0,5.0,40,0.00,,---,0.00,480.00,VWS V14.01,2013-01-24 19:16:00,
2013-01-24 14:17:00,30.8,8.8,30.36,NNW,336,0.0,5.0,39,0.00,,---,0.00,441.00,VWS V14.01,2013-01-24 19:17:00,
2013-01-24 14:18:00,30.7,9.2,30.36,West,280,6.0,8.0,40,0.00,,---,0.00,410.00,VWS V14.01,2013-01-24 19:18:00,
2013-01-24 14:19:00,30.6,9.2,30.36,NW,306,1.0,8.0,40,0.00,,---,0.00,385.00,VWS V14.01,2013-01-24 19:19:00,
2013-01-24 14:20:00,31.0,10.6,30.35,North,351,1.0,5.0,42,0.00,,---,0.00,575.00,VWS V14.01,2013-01-24 19:20:00,
2013-01-24 14:21:00,30.4,9.5,30.36,North,355,2.0,3.0,41,0.00,,---,0.00,517.00,VWS V14.01,2013-01-24 19:21:00,
2013-01-24 14:22:00,30.3,8.9,30.36,ENE,61,4.0,4.0,40,0.00,,---,0.00,508.00,VWS V14.01,2013-01-24 19:22:00,
2013-01-24 14:23:00,30.3,10.0,30.36,ENE,61,2.0,5.0,42,0.00,,---,0.00,434.00,VWS V14.01,2013-01-24 19:23:00,
2013-01-24 14:24:00,30.3,10.5,30.36,NE,56,1.0,5.0,43,0.00,,---,0.00,452.00,VWS V14.01,2013-01-24 19:24:00,
2013-01-24 14:25:00,30.4,11.1,30.36,ENE,57,5.0,5.0,44,0.00,,---,0.00,466.00,VWS V14.01,2013-01-24 19:25:00,
2013-01-24 14:26:00,30.5,10.7,30.36,ENE,65,4.0,6.0,43,0.00,,---,0.00,443.00,VWS V14.01,2013-01-24 19:26:00,
2013-01-24 14:27:00,30.7,9.2,30.36,West,278,5.0,8.0,40,0.00,,---,0.00,441.00,VWS V14.01,2013-01-24 19:27:00,
2013-01-24 14:28:00,30.5,10.7,30.36,ENE,68,5.0,6.0,43,0.00,,---,0.00,383.00,VWS V14.01,2013-01-24 19:28:00,
2013-01-24 14:29:00,30.5,11.2,30.36,ENE,57,4.0,6.0,44,0.00,,---,0.00,360.00,VWS V14.01,2013-01-24 19:29:00,
2013-01-24 14:30:00,30.5,11.2,30.36,NE,44,2.0,2.0,44,0.00,,---,0.00,360.00,VWS V14.01,2013-01-24 19:30:00,
2013-01-24 14:31:00,30.5,11.2,30.36,ENE,75,3.0,4.0,44,0.00,,---,0.00,399.00,VWS V14.01,2013-01-24 19:31:00,
2013-01-24 14:32:00,30.3,10.0,30.36,ENE,60,4.0,5.0,42,0.00,,---,0.00,480.00,VWS V14.01,2013-01-24 19:32:00,
2013-01-24 14:33:00,30.5,10.2,30.36,NE,55,3.0,5.0,42,0.00,,---,0.00,383.00,VWS V14.01,2013-01-24 19:33:00,
2013-01-24 14:34:00,30.5,11.2,30.36,NE,56,1.0,5.0,44,0.00,,---,0.00,373.00,VWS V14.01,2013-01-24 19:34:00,
2013-01-24 14:35:00,30.5,11.2,30.36,NE,56,0.0,5.0,44,0.00,,---,0.00,336.00,VWS V14.01,2013-01-24 19:35:00,
2013-01-24 14:36:00,30.5,10.2,30.36,ENE,62,1.0,5.0,42,0.00,,---,0.00,336.00,VWS V14.01,2013-01-24 19:36:00,
2013-01-24 14:37:00,30.5,10.7,30.36,ENE,63,0.0,5.0,43,0.00,,---,0.00,411.00,VWS V14.01,2013-01-24 19:37:00,
2013-01-24 14:38:00,30.5,10.7,30.36,NNE,28,4.0,5.0,43,0.00,,---,0.00,376.00,VWS V14.01,2013-01-24 19:38:00,
2013-01-24 14:39:00,30.5,11.2,30.36,ENE,61,2.0,6.0,44,0.00,,---,0.00,345.00,VWS V14.01,2013-01-24 19:39:00,
2013-01-24 14:40:00,30.6,10.8,30.36,ENE,65,4.0,4.0,43,0.00,,---,0.00,355.00,VWS V14.01,2013-01-24 19:40:00,
2013-01-24 14:41:00,30.6,11.3,30.36,NE,38,0.0,4.0,44,0.00,,---,0.00,441.00,VWS V14.01,2013-01-24 19:41:00,
2013-01-24 14:42:00,30.7,10.9,30.36,ENE,65,3.0,4.0,43,0.00,,---,0.00,394.00,VWS V14.01,2013-01-24 19:42:00,
2013-01-24 14:43:00,30.7,10.9,30.37,ENE,59,1.0,4.0,43,0.00,,---,0.00,394.00,VWS V14.01,2013-01-24 19:43:00,
2013-01-24 14:44:00,30.5,11.2,30.36,NE,56,1.0,5.0,44,0.00,,---,0.00,322.00,VWS V14.01,2013-01-24 19:44:00,
2013-01-24 14:45:00,30.8,11.5,30.37,ENE,74,4.0,6.0,44,0.00,,---,0.00,315.00,VWS V14.01,2013-01-24 19:45:00,
2013-01-24 14:46:00,30.8,11.5,30.37,ENE,61,3.0,6.0,44,0.00,,---,0.00,445.00,VWS V14.01,2013-01-24 19:46:00,
2013-01-24 14:47:00,30.8,11.0,30.37,ENE,64,3.0,6.0,43,0.00,,---,0.00,462.00,VWS V14.01,2013-01-24 19:47:00,
2013-01-24 14:48:00,30.8,11.0,30.38,ENE,59,1.0,6.0,43,0.00,,---,0.00,506.00,VWS V14.01,2013-01-24 19:48:00,
2013-01-24 14:49:00,30.6,10.8,30.36,ENE,66,3.0,5.0,43,0.00,,---,0.00,355.00,VWS V14.01,2013-01-24 19:49:00,
2013-01-24 14:50:00,30.8,11.0,30.37,NNE,22,1.0,3.0,43,0.00,,---,0.00,552.00,VWS V14.01,2013-01-24 19:50:00,
2013-01-24 14:51:00,30.9,10.5,30.37,NE,55,2.0,4.0,42,0.00,,---,0.00,476.00,VWS V14.01,2013-01-24 19:51:00,
2013-01-24 14:52:00,31.0,11.1,30.37,NE,53,2.0,4.0,43,0.00,,---,0.00,403.00,VWS V14.01,2013-01-24 19:52:00,
2013-01-24 14:53:00,31.0,11.7,30.37,ENE,66,0.0,4.0,44,0.00,,---,0.00,478.00,VWS V14.01,2013-01-24 19:53:00,
2013-01-24 14:54:00,31.1,11.2,30.37,ENE,65,2.0,4.0,43,0.00,,---,0.00,394.00,VWS V14.01,2013-01-24 19:54:00,
2013-01-24 14:55:00,30.8,11.5,30.37,ENE,61,4.0,6.0,44,0.00,,---,0.00,429.00,VWS V14.01,2013-01-24 19:55:00,
2013-01-24 14:56:00,31.1,11.2,30.37,ENE,60,3.0,4.0,43,0.00,,---,0.00,411.00,VWS V14.01,2013-01-24 19:56:00,
2013-01-24 14:57:00,31.2,10.8,30.37,ENE,63,3.0,5.0,42,0.00,,---,0.00,394.00,VWS V14.01,2013-01-24 19:57:00,
2013-01-24 14:58:00,31.2,11.3,30.37,NNE,29,2.0,5.0,43,0.00,,---,0.00,399.00,VWS V14.01,2013-01-24 19:58:00,
2013-01-24 14:59:00,31.1,10.7,30.37,NE,40,1.0,5.0,42,0.00,,---,0.00,438.00,VWS V14.01,2013-01-24 19:59:00,
2013-01-24 15:00:00,30.9,10.5,30.37,NE,55,3.0,4.0,42,0.00,,---,0.00,513.00,VWS V14.01,2013-01-24 20:00:00,
2013-01-24 15:01:00,31.1,10.7,30.37,ENE,72,1.0,6.0,42,0.00,,---,0.00,322.00,VWS V14.01,2013-01-24 20:01:00,
2013-01-24 15:02:00,31.1,10.2,30.37,ENE,68,3.0,6.0,41,0.00,,---,0.00,378.00,VWS V14.01,2013-01-24 20:02:00,
2013-01-24 15:03:00,31.1,10.2,30.37,ENE,68,1.0,6.0,41,0.00,,---,0.00,545.00,VWS V14.01,2013-01-24 20:03:00,
2013-01-24 15:04:00,31.1,10.2,30.37,ENE,68,0.0,6.0,41,0.00,,---,0.00,545.00,VWS V14.01,2013-01-24 20:04:00,
2013-01-24 15:05:00,31.1,10.7,30.37,ENE,65,0.0,6.0,42,0.00,,---,0.00,378.00,VWS V14.01,2013-01-24 20:05:00,
2013-01-24 15:06:00,31.2,10.8,30.37,NE,55,4.0,5.0,42,0.00,,---,0.00,394.00,VWS V14.01,2013-01-24 20:06:00,
2013-01-24 15:07:00,31.1,10.2,30.37,SE,127,1.0,6.0,41,0.00,,---,0.00,373.00,VWS V14.01,2013-01-24 20:07:00,
2013-01-24 15:08:00,31.1,10.2,30.38,ENE,69,2.0,6.0,41,0.00,,---,0.00,304.00,VWS V14.01,2013-01-24 20:08:00,
2013-01-24 15:09:00,31.0,10.1,30.37,ENE,64,1.0,6.0,41,0.00,,---,0.00,304.00,VWS V14.01,2013-01-24 20:09:00,
2013-01-24 15:10:00,31.0,10.1,30.37,ENE,58,0.0,3.0,41,0.00,,---,0.00,403.00,VWS V14.01,2013-01-24 20:10:00,
2013-01-24 15:11:00,31.1,10.2,30.37,ENE,68,0.0,6.0,41,0.00,,---,0.00,378.00,VWS V14.01,2013-01-24 20:11:00,
2013-01-24 15:12:00,31.0,10.6,30.37,NE,56,3.0,3.0,42,0.00,,---,0.00,508.00,VWS V14.01,2013-01-24 20:12:00,
2013-01-24 15:13:00,31.1,10.2,30.37,ENE,67,0.0,5.0,41,0.00,,---,0.00,420.00,VWS V14.01,2013-01-24 20:13:00,
2013-01-24 15:14:00,31.1,10.7,30.37,ENE,62,5.0,5.0,42,0.00,,---,0.00,357.00,VWS V14.01,2013-01-24 20:14:00,
2013-01-24 15:15:00,31.1,10.7,30.38,ENE,65,2.0,5.0,42,0.00,,---,0.00,308.00,VWS V14.01,2013-01-24 20:15:00,
2013-01-24 15:16:00,31.0,11.1,30.38,ENE,70,1.0,5.0,43,0.00,,---,0.00,320.00,VWS V14.01,2013-01-24 20:16:00,
2013-01-24 15:17:00,31.1,9.6,30.37,ENE,71,1.0,6.0,40,0.00,,---,0.00,304.00,VWS V14.01,2013-01-24 20:17:00,
2013-01-24 15:18:00,31.0,10.1,30.38,NNE,30,0.0,5.0,41,0.00,,---,0.00,404.00,VWS V14.01,2013-01-24 20:18:00,
2013-01-24 15:19:00,31.0,10.1,30.38,NNE,30,4.0,5.0,41,0.00,,---,0.00,339.00,VWS V14.01,2013-01-24 20:19:00,
2013-01-24 15:20:00,31.0,10.1,30.38,NE,54,2.0,2.0,41,0.00,,---,0.00,304.00,VWS V14.01,2013-01-24 20:20:00,
2013-01-24 15:21:00,31.0,9.5,30.37,NE,53,2.0,3.0,40,0.00,,---,0.00,264.00,VWS V14.01,2013-01-24 20:21:00,
2013-01-24 15:22:00,31.1,10.7,30.37,ENE,63,1.0,5.0,42,0.00,,---,0.00,420.00,VWS V14.01,2013-01-24 20:22:00,
2013-01-24 15:23:00,30.9,8.9,30.38,NE,37,0.0,4.0,39,0.00,,---,0.00,394.00,VWS V14.01,2013-01-24 20:23:00,
2013-01-24 15:24:00,30.8,8.8,30.38,NE,37,0.0,4.0,39,0.00,,---,0.00,374.00,VWS V14.01,2013-01-24 20:24:00,
2013-01-24 15:25:00,30.8,9.9,30.38,ENE,63,2.0,5.0,41,0.00,,---,0.00,366.00,VWS V14.01,2013-01-24 20:25:00,
2013-01-24 15:26:00,30.8,9.9,30.38,ENE,60,1.0,5.0,41,0.00,,---,0.00,366.00,VWS V14.01,2013-01-24 20:26:00,
2013-01-24 15:27:00,30.8,9.3,30.38,ENE,63,3.0,5.0,40,0.00,,---,0.00,366.00,VWS V14.01,2013-01-24 20:27:00,
2013-01-24 15:28:00,30.8,9.3,30.38,ENE,64,0.0,5.0,40,0.00,,---,0.00,316.00,VWS V14.01,2013-01-24 20:28:00,
2013-01-24 15:29:00,31.0,10.1,30.38,NNE,22,1.0,5.0,41,0.00,,---,0.00,304.00,VWS V14.01,2013-01-24 20:29:00,
2013-01-24 15:30:00,30.8,9.9,30.38,NE,41,3.0,3.0,41,0.00,,---,0.00,343.00,VWS V14.01,2013-01-24 20:30:00,
2013-01-24 15:31:00,30.8,8.8,30.38,NE,40,0.0,5.0,39,0.00,,---,0.00,397.00,VWS V14.01,2013-01-24 20:31:00,
2013-01-24 15:32:00,30.8,8.8,30.38,NE,40,0.0,5.0,39,0.00,,---,0.00,369.00,VWS V14.01,2013-01-24 20:32:00,
2013-01-24 15:33:00,30.8,8.8,30.38,ENE,61,0.0,5.0,39,0.00,,---,0.00,292.00,VWS V14.01,2013-01-24 20:33:00,
2013-01-24 15:34:00,30.8,9.3,30.38,ENE,63,4.0,5.0,40,0.00,,---,0.00,366.00,VWS V14.01,2013-01-24 20:34:00,
2013-01-24 15:35:00,30.8,9.9,30.38,ENE,63,1.0,5.0,41,0.00,,---,0.00,360.00,VWS V14.01,2013-01-24 20:35:00,
2013-01-24 15:36:00,30.8,8.8,30.38,NE,53,0.0,5.0,39,0.00,,---,0.00,336.00,VWS V14.01,2013-01-24 20:36:00,
2013-01-24 15:37:00,30.8,8.8,30.38,ENE,63,1.0,5.0,39,0.00,,---,0.00,311.00,VWS V14.01,2013-01-24 20:37:00,
2013-01-24 15:38:00,30.8,9.3,30.38,ENE,64,0.0,5.0,40,0.00,,---,0.00,341.00,VWS V14.01,2013-01-24 20:38:00,
2013-01-24 15:39:00,30.9,9.4,30.38,ENE,64,0.0,5.0,40,0.00,,---,0.00,341.00,VWS V14.01,2013-01-24 20:39:00,
2013-01-24 15:40:00,30.8,9.3,30.38,NE,40,1.0,5.0,40,0.00,,---,0.00,397.00,VWS V14.01,2013-01-24 20:40:00,
2013-01-24 15:41:00,30.9,8.9,30.38,ENE,64,0.0,1.0,39,0.00,,---,0.00,388.00,VWS V14.01,2013-01-24 20:41:00,
2013-01-24 15:42:00,30.9,8.3,30.38,ENE,64,0.0,1.0,38,0.00,,---,0.00,309.00,VWS V14.01,2013-01-24 20:42:00,
2013-01-24 15:43:00,30.9,8.3,30.38,NE,40,3.0,4.0,38,0.00,,---,0.00,396.00,VWS V14.01,2013-01-24 20:43:00,
2013-01-24 15:44:00,30.9,9.4,30.38,NE,34,1.0,4.0,40,0.00,,---,0.00,330.00,VWS V14.01,2013-01-24 20:44:00,
2013-01-24 15:45:00,30.8,9.9,30.38,NE,53,0.0,5.0,41,0.00,,---,0.00,336.00,VWS V14.01,2013-01-24 20:45:00,
2013-01-24 15:46:00,31.0,10.1,30.38,NE,35,0.0,4.0,41,0.00,,---,0.00,476.00,VWS V14.01,2013-01-24 20:46:00,
2013-01-24 15:47:00,31.0,9.5,30.38,NE,35,2.0,4.0,40,0.00,,---,0.00,476.00,VWS V14.01,2013-01-24 20:47:00,
2013-01-24 15:48:00,30.9,7.7,30.38,NE,35,0.0,4.0,37,0.00,,---,0.00,309.00,VWS V14.01,2013-01-24 20:48:00,
2013-01-24 15:49:00,30.9,8.3,30.38,NE,35,1.0,4.0,38,0.00,,---,0.00,267.00,VWS V14.01,2013-01-24 20:49:00,
2013-01-24 15:50:00,30.8,8.8,30.38,NE,35,0.0,1.0,39,0.00,,---,0.00,373.00,VWS V14.01,2013-01-24 20:50:00,
2013-01-24 15:51:00,30.9,8.3,30.38,ENE,64,0.0,1.0,38,0.00,,---,0.00,309.00,VWS V14.01,2013-01-24 20:51:00,
2013-01-24 15:52:00,30.8,10.4,30.38,NE,36,1.0,2.0,42,0.00,,---,0.00,315.00,VWS V14.01,2013-01-24 20:52:00,
2013-01-24 15:53:00,30.8,10.4,30.38,NE,34,1.0,3.0,42,0.00,,---,0.00,376.00,VWS V14.01,2013-01-24 20:53:00,
2013-01-24 15:54:00,30.9,10.5,30.39,ENE,67,2.0,4.0,42,0.00,,---,0.00,287.00,VWS V14.01,2013-01-24 20:54:00,
2013-01-24 15:55:00,31.0,10.1,30.39,NNE,31,2.0,4.0,41,0.00,,---,0.00,381.00,VWS V14.01,2013-01-24 20:55:00,
2013-01-24 15:56:00,31.0,9.5,30.38,NE,35,2.0,4.0,40,0.00,,---,0.00,476.00,VWS V14.01,2013-01-24 20:56:00,
2013-01-24 15:57:00,31.0,9.5,30.39,ENE,58,4.0,5.0,40,0.00,,---,0.00,309.00,VWS V14.01,2013-01-24 20:57:00,
2013-01-24 15:58:00,31.0,9.0,30.38,ENE,59,1.0,5.0,39,0.00,,---,0.00,323.00,VWS V14.01,2013-01-24 20:58:00,
2013-01-24 15:59:00,31.0,10.1,30.38,ENE,61,2.0,5.0,41,0.00,,---,0.00,380.00,VWS V14.01,2013-01-24 20:59:00,
2013-01-24 16:00:00,31.0,9.5,30.38,ENE,61,1.0,2.0,40,0.00,,---,0.00,357.00,VWS V14.01,2013-01-24 21:00:00,
2013-01-24 16:01:00,30.8,10.4,30.38,NE,36,0.0,2.0,42,0.00,,---,0.00,315.00,VWS V14.01,2013-01-24 21:01:00,
2013-01-24 16:02:00,31.0,10.1,30.39,ENE,61,0.0,3.0,41,0.00,,---,0.00,241.00,VWS V14.01,2013-01-24 21:02:00,
2013-01-24 16:03:00,31.0,10.6,30.39,NE,54,0.0,3.0,42,0.00,,---,0.00,297.00,VWS V14.01,2013-01-24 21:03:00,
2013-01-24 16:04:00,31.0,10.1,30.39,NE,44,4.0,5.0,41,0.00,,---,0.00,338.00,VWS V14.01,2013-01-24 21:04:00,
2013-01-24 16:05:00,31.1,10.2,30.38,NE,46,0.0,5.0,41,0.00,,---,0.00,309.00,VWS V14.01,2013-01-24 21:05:00,
2013-01-24 16:06:00,31.1,11.2,30.39,ENE,57,3.0,5.0,43,0.00,,---,0.00,332.00,VWS V14.01,2013-01-24 21:06:00,
2013-01-24 16:07:00,31.0,9.0,30.38,ENE,59,2.0,5.0,39,0.00,,---,0.00,323.00,VWS V14.01,2013-01-24 21:07:00,
2013-01-24 16:08:00,31.2,10.8,30.39,NNE,32,2.0,5.0,42,0.00,,---,0.00,279.00,VWS V14.01,2013-01-24 21:08:00,
2013-01-24 16:09:00,31.2,10.2,30.39,NE,36,2.0,5.0,41,0.00,,---,0.00,318.00,VWS V14.01,2013-01-24 21:09:00,
2013-01-24 16:10:00,31.2,10.2,30.39,ENE,59,1.0,3.0,41,0.00,,---,0.00,346.00,VWS V14.01,2013-01-24 21:10:00,
2013-01-24 16:11:00,31.3,10.9,30.39,ENE,59,5.0,5.0,42,0.00,,---,0.00,343.00,VWS V14.01,2013-01-24 21:11:00,
2013-01-24 16:12:00,31.2,10.2,30.39,ENE,63,4.0,7.0,41,0.00,,---,0.00,276.00,VWS V14.01,2013-01-24 21:12:00,
2013-01-24 16:13:00,31.0,10.1,30.39,NE,54,2.0,5.0,41,0.00,,---,0.00,297.00,VWS V14.01,2013-01-24 21:13:00,
2013-01-24 16:14:00,31.2,9.7,30.38,ENE,64,1.0,7.0,40,0.00,,---,0.00,230.00,VWS V14.01,2013-01-24 21:14:00,
2013-01-24 16:15:00,31.2,10.2,30.39,ENE,65,1.0,7.0,41,0.00,,---,0.00,264.00,VWS V14.01,2013-01-24 21:15:00,
2013-01-24 16:16:00,31.1,10.2,30.39,ENE,65,1.0,7.0,41,0.00,,---,0.00,295.00,VWS V14.01,2013-01-24 21:16:00,
2013-01-24 16:17:00,31.1,10.2,30.39,NE,41,0.0,7.0,41,0.00,,---,0.00,272.00,VWS V14.01,2013-01-24 21:17:00,
2013-01-24 16:18:00,31.2,10.2,30.39,NNE,32,0.0,5.0,41,0.00,,---,0.00,279.00,VWS V14.01,2013-01-24 21:18:00,
2013-01-24 16:19:00,31.0,9.0,30.38,NE,49,0.0,7.0,39,0.00,,---,0.00,195.00,VWS V14.01,2013-01-24 21:19:00,
2013-01-24 16:20:00,30.9,7.7,30.38,NE,38,0.0,3.0,37,0.00,,---,0.00,211.00,VWS V14.01,2013-01-24 21:20:00,
2013-01-24 16:21:00,30.8,7.6,30.38,NE,40,0.0,3.0,37,0.00,,---,0.00,183.00,VWS V14.01,2013-01-24 21:21:00,
2013-01-24 16:22:00,30.7,7.5,30.39,NE,40,0.0,3.0,37,0.00,,---,0.00,158.00,VWS V14.01,2013-01-24 21:22:00,
2013-01-24 16:23:00,30.7,8.1,30.39,NE,40,0.0,3.0,38,0.00,,---,0.00,155.00,VWS V14.01,2013-01-24 21:23:00,
2013-01-24 16:24:00,31.2,10.2,30.38,ENE,65,1.0,7.0,41,0.00,,---,0.00,230.00,VWS V14.01,2013-01-24 21:24:00,
2013-01-24 16:25:00,30.5,9.6,30.39,ENE,60,5.0,5.0,41,0.00,,---,0.00,127.00,VWS V14.01,2013-01-24 21:25:00,
2013-01-24 16:26:00,30.4,9.0,30.39,ENE,65,2.0,5.0,40,0.00,,---,0.00,156.00,VWS V14.01,2013-01-24 21:26:00,
2013-01-24 16:27:00,30.3,8.9,30.39,ENE,63,2.0,5.0,40,0.00,,---,0.00,123.00,VWS V14.01,2013-01-24 21:27:00,
2013-01-24 16:28:00,30.1,8.7,30.39,ENE,64,0.0,5.0,40,0.00,,---,0.00,116.00,VWS V14.01,2013-01-24 21:28:00,
2013-01-24 16:29:00,31.0,7.8,30.38,NE,38,3.0,7.0,37,0.00,,---,0.00,195.00,VWS V14.01,2013-01-24 21:29:00,
2013-01-24 16:30:00,29.8,8.4,30.39,ENE,63,2.0,5.0,40,0.00,,---,0.00,98.00,VWS V14.01,2013-01-24 21:30:00,
2013-01-24 16:31:00,29.7,7.8,30.39,ENE,63,0.0,5.0,39,0.00,,---,0.00,98.00,VWS V14.01,2013-01-24 21:31:00,
2013-01-24 16:32:00,29.6,7.7,30.39,ENE,67,2.0,5.0,39,0.00,,---,0.00,104.00,VWS V14.01,2013-01-24 21:32:00,
2013-01-24 16:33:00,29.4,7.5,30.39,ENE,68,0.0,5.0,39,0.00,,---,0.00,118.00,VWS V14.01,2013-01-24 21:33:00,
2013-01-24 16:34:00,30.5,9.6,30.39,ENE,67,2.0,4.0,41,0.00,,---,0.00,162.00,VWS V14.01,2013-01-24 21:34:00,
2013-01-24 16:35:00,29.2,7.9,30.39,ENE,66,0.0,5.0,40,0.00,,---,0.00,118.00,VWS V14.01,2013-01-24 21:35:00,
2013-01-24 16:36:00,29.2,8.4,30.39,ENE,66,0.0,5.0,41,0.00,,---,0.00,114.00,VWS V14.01,2013-01-24 21:36:00,
2013-01-24 16:37:00,29.1,8.4,30.38,ENE,63,3.0,5.0,41,0.00,,---,0.00,100.00,VWS V14.01,2013-01-24 21:37:00,
2013-01-24 16:38:00,29.0,8.3,30.39,ENE,63,0.0,5.0,41,0.00,,---,0.00,118.00,VWS V14.01,2013-01-24 21:38:00,
2013-01-24 16:39:00,28.9,8.7,30.39,ENE,63,1.0,5.0,42,0.00,,---,0.00,127.00,VWS V14.01,2013-01-24 21:39:00,
2013-01-24 16:40:00,29.7,7.8,30.39,ENE,63,0.0,5.0,39,0.00,,---,0.00,105.00,VWS V14.01,2013-01-24 21:40:00,
2013-01-24 16:41:00,28.8,8.1,30.38,ENE,69,0.0,4.0,41,0.00,,---,0.00,121.00,VWS V14.01,2013-01-24 21:41:00,
2013-01-24 16:42:00,28.8,7.5,30.38,NE,50,0.0,4.0,40,0.00,,---,0.00,120.00,VWS V14.01,2013-01-24 21:42:00,
2013-01-24 16:43:00,28.8,7.0,30.39,NE,53,1.0,4.0,39,0.00,,---,0.00,123.00,VWS V14.01,2013-01-24 21:43:00,
2013-01-24 16:44:00,28.8,7.0,30.39,NE,53,2.0,4.0,39,0.00,,---,0.00,105.00,VWS V14.01,2013-01-24 21:44:00,
2013-01-24 16:45:00,28.7,8.0,30.39,NE,53,0.0,4.0,41,0.00,,---,0.00,107.00,VWS V14.01,2013-01-24 21:45:00,
2013-01-24 16:46:00,29.1,8.4,30.39,ENE,66,1.0,5.0,41,0.00,,---,0.00,91.00,VWS V14.01,2013-01-24 21:46:00,
2013-01-24 16:47:00,28.7,9.1,30.39,NE,53,0.0,4.0,43,0.00,,---,0.00,125.00,VWS V14.01,2013-01-24 21:47:00,
2013-01-24 16:48:00,28.7,9.1,30.39,NE,53,0.0,4.0,43,0.00,,---,0.00,144.00,VWS V14.01,2013-01-24 21:48:00,
2013-01-24 16:49:00,28.7,8.5,30.39,NE,53,2.0,4.0,42,0.00,,---,0.00,156.00,VWS V14.01,2013-01-24 21:49:00,
2013-01-24 16:50:00,28.7,8.5,30.40,NE,55,0.0,2.0,42,0.00,,---,0.00,181.00,VWS V14.01,2013-01-24 21:50:00,
2013-01-24 16:51:00,28.7,8.5,30.39,ENE,57,3.0,3.0,42,0.00,,---,0.00,167.00,VWS V14.01,2013-01-24 21:51:00,
2013-01-24 16:52:00,28.8,8.6,30.39,ENE,57,0.0,3.0,42,0.00,,---,0.00,146.00,VWS V14.01,2013-01-24 21:52:00,
2013-01-24 16:53:00,28.8,7.0,30.39,NE,52,1.0,4.0,39,0.00,,---,0.00,116.00,VWS V14.01,2013-01-24 21:53:00,
2013-01-24 16:54:00,28.8,8.6,30.39,ENE,57,1.0,3.0,42,0.00,,---,0.00,109.00,VWS V14.01,2013-01-24 21:54:00,
2013-01-24 16:55:00,28.8,8.6,30.39,ENE,57,0.0,3.0,42,0.00,,---,0.00,93.00,VWS V14.01,2013-01-24 21:55:00,
2013-01-24 16:56:00,28.8,8.6,30.39,ENE,57,0.0,3.0,42,0.00,,---,0.00,98.00,VWS V14.01,2013-01-24 21:56:00,
2013-01-24 16:57:00,28.8,8.6,30.39,ENE,57,0.0,3.0,42,0.00,,---,0.00,90.00,VWS V14.01,2013-01-24 21:57:00,
2013-01-24 16:58:00,28.7,8.5,30.39,NE,53,0.0,4.0,42,0.00,,---,0.00,149.00,VWS V14.01,2013-01-24 21:58:00,
2013-01-24 16:59:00,28.8,8.6,30.39,ENE,57,0.0,3.0,42,0.00,,---,0.00,69.00,VWS V14.01,2013-01-24 21:59:00,
2013-01-24 17:00:00,28.8,9.1,30.39,ENE,57,1.0,1.0,43,0.00,,---,0.00,65.00,VWS V14.01,2013-01-24 22:00:00,
2013-01-24 17:01:00,28.8,9.6,30.39,ENE,57,1.0,1.0,44,0.00,,---,0.00,62.00,VWS V14.01,2013-01-24 22:01:00,
2013-01-24 17:02:00,28.7,9.6,30.39,ENE,59,0.0,2.0,44,0.00,,---,0.00,58.00,VWS V14.01,2013-01-24 22:02:00,
2013-01-24 17:03:00,28.6,9.5,30.40,ENE,59,0.0,2.0,44,0.00,,---,0.00,54.00,VWS V14.01,2013-01-24 22:03:00,
2013-01-24 17:04:00,28.9,8.7,30.39,ENE,57,0.0,3.0,42,0.00,,---,0.00,107.00,VWS V14.01,2013-01-24 22:04:00,
2013-01-24 17:05:00,28.5,9.4,30.40,ENE,59,0.0,2.0,44,0.00,,---,0.00,49.00,VWS V14.01,2013-01-24 22:05:00,
2013-01-24 17:06:00,28.4,9.3,30.40,ENE,59,2.0,3.0,44,0.00,,---,0.00,47.00,VWS V14.01,2013-01-24 22:06:00,
2013-01-24 17:07:00,28.3,8.7,30.40,ENE,59,2.0,3.0,43,0.00,,---,0.00,49.00,VWS V14.01,2013-01-24 22:07:00,
2013-01-24 17:08:00,28.3,8.7,30.40,ENE,59,0.0,3.0,43,0.00,,---,0.00,49.00,VWS V14.01,2013-01-24 22:08:00,
2013-01-24 17:09:00,28.8,8.6,30.39,ENE,57,1.0,3.0,42,0.00,,---,0.00,65.00,VWS V14.01,2013-01-24 22:09:00,
2013-01-24 17:10:00,28.1,9.0,30.40,ENE,59,1.0,1.0,44,0.00,,---,0.00,49.00,VWS V14.01,2013-01-24 22:10:00,
2013-01-24 17:11:00,28.0,9.4,30.40,ENE,59,0.0,1.0,45,0.00,,---,0.00,47.00,VWS V14.01,2013-01-24 22:11:00,
2013-01-24 17:12:00,27.9,8.8,30.40,ENE,59,3.0,3.0,44,0.00,,---,0.00,46.00,VWS V14.01,2013-01-24 22:12:00,
2013-01-24 17:13:00,27.9,8.8,30.40,ENE,59,0.0,3.0,44,0.00,,---,0.00,40.00,VWS V14.01,2013-01-24 22:13:00,
2013-01-24 17:14:00,28.5,9.4,30.40,ENE,59,0.0,2.0,44,0.00,,---,0.00,49.00,VWS V14.01,2013-01-24 22:14:00,
2013-01-24 17:15:00,27.7,8.6,30.40,ENE,59,3.0,3.0,44,0.00,,---,0.00,35.00,VWS V14.01,2013-01-24 22:15:00,
2013-01-24 17:16:00,27.6,8.6,30.40,ENE,60,2.0,3.0,44,0.00,,---,0.00,32.00,VWS V14.01,2013-01-24 22:16:00,
2013-01-24 17:17:00,27.6,8.6,30.40,ENE,60,1.0,3.0,44,0.00,,---,0.00,30.00,VWS V14.01,2013-01-24 22:17:00,
2013-01-24 17:18:00,27.5,9.0,30.40,ENE,60,0.0,3.0,45,0.00,,---,0.00,30.00,VWS V14.01,2013-01-24 22:18:00,
2013-01-24 17:19:00,27.4,8.4,30.41,ENE,60,0.0,3.0,44,0.00,,---,0.00,28.00,VWS V14.01,2013-01-24 22:19:00,
2013-01-24 17:20:00,28.1,9.5,30.40,ENE,59,0.0,1.0,45,0.00,,---,0.00,47.00,VWS V14.01,2013-01-24 22:20:00,
2013-01-24 17:21:00,27.3,8.8,30.40,ENE,60,1.0,1.0,45,0.00,,---,0.00,25.00,VWS V14.01,2013-01-24 22:21:00,
2013-01-24 17:22:00,27.2,8.2,30.40,ENE,60,0.0,2.0,44,0.00,,---,0.00,23.00,VWS V14.01,2013-01-24 22:22:00,
2013-01-24 17:23:00,27.1,8.1,30.40,ENE,59,0.0,2.0,44,0.00,,---,0.00,23.00,VWS V14.01,2013-01-24 22:23:00,
2013-01-24 17:24:00,27.0,8.0,30.40,ENE,60,0.0,2.0,44,0.00,,---,0.00,19.00,VWS V14.01,2013-01-24 22:24:00,
2013-01-24 17:25:00,27.7,8.6,30.40,ENE,60,1.0,3.0,44,0.00,,---,0.00,32.00,VWS V14.01,2013-01-24 22:25:00,
2013-01-24 17:26:00,26.9,7.9,30.40,ENE,60,0.0,2.0,44,0.00,,---,0.00,18.00,VWS V14.01,2013-01-24 22:26:00,
2013-01-24 17:27:00,26.8,8.8,30.40,ENE,60,0.0,2.0,46,0.00,,---,0.00,16.00,VWS V14.01,2013-01-24 22:27:00,
2013-01-24 17:28:00,26.8,8.8,30.40,ENE,60,0.0,2.0,46,0.00,,---,0.00,14.00,VWS V14.01,2013-01-24 22:28:00,
2013-01-24 17:29:00,26.7,8.2,30.40,ENE,60,0.0,3.0,45,0.00,,---,0.00,14.00,VWS V14.01,2013-01-24 22:29:00,
2013-01-24 17:30:00,26.6,8.1,30.40,ENE,60,1.0,2.0,45,0.00,,---,0.00,11.00,VWS V14.01,2013-01-24 22:30:00,
2013-01-24 17:31:00,27.2,8.2,30.40,ENE,60,0.0,2.0,44,0.00,,---,0.00,23.00,VWS V14.01,2013-01-24 22:31:00,
2013-01-24 17:32:00,26.4,7.9,30.40,ENE,60,0.0,2.0,45,0.00,,---,0.00,9.00,VWS V14.01,2013-01-24 22:32:00,
2013-01-24 17:33:00,26.3,8.4,30.40,ENE,60,0.0,2.0,46,0.00,,---,0.00,7.00,VWS V14.01,2013-01-24 22:33:00,
2013-01-24 17:34:00,26.3,8.4,30.40,ENE,60,0.0,2.0,46,0.00,,---,0.00,7.00,VWS V14.01,2013-01-24 22:34:00,
2013-01-24 17:35:00,26.2,8.3,30.40,ENE,60,0.0,2.0,46,0.00,,---,0.00,5.00,VWS V14.01,2013-01-24 22:35:00,
2013-01-24 17:36:00,26.1,8.2,30.39,ENE,60,0.0,2.0,46,0.00,,---,0.00,5.00,VWS V14.01,2013-01-24 22:36:00,
2013-01-24 17:37:00,26.9,8.4,30.40,ENE,60,0.0,2.0,45,0.00,,---,0.00,16.00,VWS V14.01,2013-01-24 22:37:00,
2013-01-24 17:38:00,26.0,7.1,30.39,ENE,60,0.0,3.0,44,0.00,,---,0.00,0.00,VWS V14.01,2013-01-24 22:38:00,
2013-01-24 17:39:00,25.9,7.0,30.40,ENE,60,0.0,3.0,44,0.00,,---,0.00,0.00,VWS V14.01,2013-01-24 22:39:00,
2013-01-24 17:40:00,25.8,6.9,30.40,ENE,60,0.0,0.0,44,0.00,,---,0.00,0.00,VWS V14.01,2013-01-24 22:40:00,
2013-01-24 17:41:00,25.8,7.4,30.40,ENE,60,0.0,2.0,45,0.00,,---,0.00,0.00,VWS V14.01,2013-01-24 22:41:00,
2013-01-24 17:42:00,26.3,7.9,30.40,ENE,60,2.0,2.0,45,0.00,,---,0.00,7.00,VWS V14.01,2013-01-24 22:42:00,
2013-01-24 17:43:00,25.7,7.3,30.40,ENE,60,2.0,2.0,45,0.00,,---,0.00,0.00,VWS V14.01,2013-01-24 22:43:00,
2013-01-24 17:44:00,25.7,7.3,30.40,ENE,60,0.0,2.0,45,0.00,,---,0.00,0.00,VWS V14.01,2013-01-24 22:44:00,
2013-01-24 17:45:00,25.6,7.2,30.40,ENE,60,0.0,2.0,45,0.00,,---,0.00,0.00,VWS V14.01,2013-01-24 22:45:00,
2013-01-24 17:46:00,25.6,7.2,30.40,ENE,60,0.0,2.0,45,0.00,,---,0.00,0.00,VWS V14.01,2013-01-24 22:46:00,
2013-01-24 17:47:00,25.5,7.1,30.40,ENE,60,0.0,2.0,45,0.00,,---,0.00,0.00,VWS V14.01,2013-01-24 22:47:00,
2013-01-24 17:48:00,26.0,7.1,30.39,ENE,60,1.0,3.0,44,0.00,,---,0.00,0.00,VWS V14.01,2013-01-24 22:48:00,
2013-01-24 17:49:00,25.4,7.5,30.40,ENE,60,0.0,2.0,46,0.00,,---,0.00,0.00,VWS V14.01,2013-01-24 22:49:00,
2013-01-24 17:50:00,25.3,7.9,30.40,ENE,60,0.0,2.0,47,0.00,,---,0.00,0.00,VWS V14.01,2013-01-24 22:50:00,
2013-01-24 17:51:00,25.3,7.9,30.40,ENE,60,0.0,2.0,47,0.00,,---,0.00,0.00,VWS V14.01,2013-01-24 22:51:00,
2013-01-24 17:52:00,25.2,7.8,30.41,ENE,60,1.0,2.0,47,0.00,,---,0.00,0.00,VWS V14.01,2013-01-24 22:52:00,
2013-01-24 17:53:00,25.1,7.7,30.41,ENE,60,0.0,2.0,47,0.00,,---,0.00,0.00,VWS V14.01,2013-01-24 22:53:00,
2013-01-24 17:54:00,25.6,7.2,30.40,ENE,60,0.0,2.0,45,0.00,,---,0.00,0.00,VWS V14.01,2013-01-24 22:54:00,
2013-01-24 17:55:00,25.0,7.6,30.41,ENE,60,0.0,2.0,47,0.00,,---,0.00,0.00,VWS V14.01,2013-01-24 22:55:00,
2013-01-24 17:56:00,25.0,7.6,30.41,ENE,60,0.0,2.0,47,0.00,,---,0.00,0.00,VWS V14.01,2013-01-24 22:56:00,
2013-01-24 17:57:00,24.9,7.5,30.41,ENE,60,0.0,2.0,47,0.00,,---,0.00,0.00,VWS V14.01,2013-01-24 22:57:00,
2013-01-24 17:58:00,24.8,7.9,30.41,ENE,60,0.0,2.0,48,0.00,,---,0.00,0.00,VWS V14.01,2013-01-24 22:58:00,
2013-01-24 17:59:00,25.4,8.0,30.40,ENE,60,2.0,2.0,47,0.00,,---,0.00,0.00,VWS V14.01,2013-01-24 22:59:00,
2013-01-24 18:00:00,24.7,7.3,30.41,ENE,60,0.0,0.0,47,0.00,,---,0.00,0.00,VWS V14.01,2013-01-24 23:00:00,
2013-01-24 18:01:00,24.7,7.8,30.41,ENE,60,0.0,1.0,48,0.00,,---,0.00,0.00,VWS V14.01,2013-01-24 23:01:00,
2013-01-24 18:02:00,24.6,7.7,30.41,ENE,60,1.0,2.0,48,0.00,,---,0.00,0.00,VWS V14.01,2013-01-24 23:02:00,
2013-01-24 18:03:00,24.6,7.3,30.41,ENE,60,0.0,2.0,47,0.00,,---,0.00,0.00,VWS V14.01,2013-01-24 23:03:00,
2013-01-24 18:04:00,25.1,7.7,30.41,ENE,60,0.0,2.0,47,0.00,,---,0.00,0.00,VWS V14.01,2013-01-24 23:04:00,
2013-01-24 18:05:00,24.5,7.2,30.41,ENE,60,0.0,2.0,47,0.00,,---,0.00,0.00,VWS V14.01,2013-01-24 23:05:00,
2013-01-24 18:06:00,24.4,7.1,30.41,ENE,60,1.0,2.0,47,0.00,,---,0.00,0.00,VWS V14.01,2013-01-24 23:06:00,
2013-01-24 18:07:00,24.4,7.1,30.41,ENE,60,1.0,2.0,47,0.00,,---,0.00,0.00,VWS V14.01,2013-01-24 23:07:00,
2013-01-24 18:08:00,24.4,6.6,30.41,ENE,60,0.0,2.0,46,0.00,,---,0.00,0.00,VWS V14.01,2013-01-24 23:08:00,
2013-01-24 18:09:00,24.8,7.4,30.41,ENE,60,0.0,2.0,47,0.00,,---,0.00,0.00,VWS V14.01,2013-01-24 23:09:00,
2013-01-24 18:10:00,24.3,7.0,30.42,ENE,60,0.0,0.0,47,0.00,,---,0.00,0.00,VWS V14.01,2013-01-24 23:10:00,
2013-01-24 18:11:00,24.3,6.5,30.42,ENE,60,0.0,0.0,46,0.00,,---,0.00,0.00,VWS V14.01,2013-01-24 23:11:00,
2013-01-24 18:12:00,24.3,6.5,30.42,ENE,60,0.0,0.0,46,0.00,,---,0.00,0.00,VWS V14.01,2013-01-24 23:12:00,
2013-01-24 18:13:00,24.3,6.0,30.42,ENE,60,0.0,2.0,45,0.00,,---,0.00,0.00,VWS V14.01,2013-01-24 23:13:00,
2013-01-24 18:14:00,24.5,7.2,30.41,ENE,60,0.0,2.0,47,0.00,,---,0.00,0.00,VWS V14.01,2013-01-24 23:14:00,
2013-01-24 18:15:00,24.2,6.4,30.42,ENE,60,1.0,2.0,46,0.00,,---,0.00,0.00,VWS V14.01,2013-01-24 23:15:00,
2013-01-24 18:16:00,24.2,6.4,30.42,ENE,60,0.0,2.0,46,0.00,,---,0.00,0.00,VWS V14.01,2013-01-24 23:16:00,
2013-01-24 18:17:00,24.2,5.9,30.42,ENE,60,1.0,2.0,45,0.00,,---,0.00,0.00,VWS V14.01,2013-01-24 23:17:00,
2013-01-24 18:18:00,24.2,5.9,30.42,ENE,60,0.0,2.0,45,0.00,,---,0.00,0.00,VWS V14.01,2013-01-24 23:18:00,
2013-01-24 18:19:00,24.4,6.6,30.42,ENE,60,0.0,2.0,46,0.00,,---,0.00,0.00,VWS V14.01,2013-01-24 23:19:00,
2013-01-24 18:20:00,24.1,5.8,30.42,ENE,60,0.0,0.0,45,0.00,,---,0.00,0.00,VWS V14.01,2013-01-24 23:20:00,
2013-01-24 18:21:00,24.1,5.8,30.42,ENE,60,0.0,0.0,45,0.00,,---,0.00,0.00,VWS V14.01,2013-01-24 23:21:00,
2013-01-24 18:22:00,24.1,6.3,30.42,ENE,60,0.0,0.0,46,0.00,,---,0.00,0.00,VWS V14.01,2013-01-24 23:22:00,
2013-01-24 18:23:00,24.0,6.2,30.42,ENE,60,0.0,0.0,46,0.00,,---,0.00,0.00,VWS V14.01,2013-01-24 23:23:00,
2013-01-24 18:24:00,24.2,6.4,30.42,ENE,60,1.0,2.0,46,0.00,,---,0.00,0.00,VWS V14.01,2013-01-24 23:24:00,
2013-01-24 18:25:00,24.0,6.7,30.42,ENE,60,0.0,0.0,47,0.00,,---,0.00,0.00,VWS V14.01,2013-01-24 23:25:00,
2013-01-24 18:26:00,23.9,6.6,30.42,ENE,60,0.0,0.0,47,0.00,,---,0.00,0.00,VWS V14.01,2013-01-24 23:26:00,
2013-01-24 18:27:00,23.9,6.6,30.42,ENE,60,0.0,1.0,47,0.00,,---,0.00,0.00,VWS V14.01,2013-01-24 23:27:00,
2013-01-24 18:28:00,23.9,6.1,30.42,ENE,60,0.0,1.0,46,0.00,,---,0.00,0.00,VWS V14.01,2013-01-24 23:28:00,
2013-01-24 18:29:00,24.1,6.3,30.42,ENE,60,0.0,2.0,46,0.00,,---,0.00,0.00,VWS V14.01,2013-01-24 23:29:00,
2013-01-24 18:30:00,23.8,6.5,30.42,ENE,60,0.0,0.0,47,0.00,,---,0.00,0.00,VWS V14.01,2013-01-24 23:30:00,
2013-01-24 18:31:00,23.8,6.5,30.42,ENE,60,0.0,0.0,47,0.00,,---,0.00,0.00,VWS V14.01,2013-01-24 23:31:00,
2013-01-24 18:32:00,23.7,6.4,30.42,ENE,60,0.0,0.0,47,0.00,,---,0.00,0.00,VWS V14.01,2013-01-24 23:32:00,
2013-01-24 18:33:00,23.7,6.0,30.42,ENE,60,0.0,1.0,46,0.00,,---,0.00,0.00,VWS V14.01,2013-01-24 23:33:00,
2013-01-24 18:34:00,24.0,6.7,30.42,ENE,60,0.0,0.0,47,0.00,,---,0.00,0.00,VWS V14.01,2013-01-24 23:34:00,
2013-01-24 18:35:00,23.6,5.9,30.42,ENE,60,0.0,1.0,46,0.00,,---,0.00,0.00,VWS V14.01,2013-01-24 23:35:00,
2013-01-24 18:36:00,23.7,5.5,30.42,ENE,60,0.0,1.0,45,0.00,,---,0.00,0.00,VWS V14.01,2013-01-24 23:36:00,
2013-01-24 18:37:00,23.7,5.5,30.43,ENE,60,0.0,1.0,45,0.00,,---,0.00,0.00,VWS V14.01,2013-01-24 23:37:00,
2013-01-24 18:38:00,23.7,6.4,30.43,ENE,60,0.0,1.0,47,0.00,,---,0.00,0.00,VWS V14.01,2013-01-24 23:38:00,
2013-01-24 18:39:00,23.8,6.5,30.42,ENE,60,0.0,1.0,47,0.00,,---,0.00,0.00,VWS V14.01,2013-01-24 23:39:00,
2013-01-24 18:40:00,23.6,6.8,30.43,ENE,60,0.0,0.0,48,0.00,,---,0.00,0.00,VWS V14.01,2013-01-24 23:40:00,
2013-01-24 18:41:00,23.6,6.8,30.43,ENE,60,0.0,0.0,48,0.00,,---,0.00,0.00,VWS V14.01,2013-01-24 23:41:00,
2013-01-24 18:42:00,23.6,6.8,30.43,ENE,60,0.0,0.0,48,0.00,,---,0.00,0.00,VWS V14.01,2013-01-24 23:42:00,
2013-01-24 18:43:00,23.6,7.3,30.43,ENE,60,0.0,0.0,49,0.00,,---,0.00,0.00,VWS V14.01,2013-01-24 23:43:00,
2013-01-24 18:44:00,23.6,5.9,30.42,ENE,60,0.0,1.0,46,0.00,,---,0.00,0.00,VWS V14.01,2013-01-24 23:44:00,
2013-01-24 18:45:00,23.5,6.2,30.43,ENE,60,0.0,1.0,47,0.00,,---,0.00,0.00,VWS V14.01,2013-01-24 23:45:00,
2013-01-24 18:46:00,23.5,6.2,30.43,ENE,60,0.0,1.0,47,0.00,,---,0.00,0.00,VWS V14.01,2013-01-24 23:46:00,
2013-01-24 18:47:00,23.5,5.8,30.43,ENE,60,0.0,1.0,46,0.00,,---,0.00,0.00,VWS V14.01,2013-01-24 23:47:00,
2013-01-24 18:48:00,23.5,5.8,30.43,ENE,60,0.0,1.0,46,0.00,,---,0.00,0.00,VWS V14.01,2013-01-24 23:48:00,
2013-01-24 18:49:00,23.5,5.8,30.43,ENE,60,0.0,1.0,46,0.00,,---,0.00,0.00,VWS V14.01,2013-01-24 23:49:00,
2013-01-24 18:50:00,23.6,6.8,30.43,ENE,60,0.0,0.0,48,0.00,,---,0.00,0.00,VWS V14.01,2013-01-24 23:50:00,
2013-01-24 18:51:00,23.5,6.2,30.43,ENE,60,0.0,0.0,47,0.00,,---,0.00,0.00,VWS V14.01,2013-01-24 23:51:00,
2013-01-24 18:52:00,23.5,5.8,30.43,ENE,60,0.0,1.0,46,0.00,,---,0.00,0.00,VWS V14.01,2013-01-24 23:52:00,
2013-01-24 18:53:00,23.5,5.8,30.43,ENE,60,0.0,1.0,46,0.00,,---,0.00,0.00,VWS V14.01,2013-01-24 23:53:00,
2013-01-24 18:54:00,23.6,5.9,30.43,ENE,60,0.0,1.0,46,0.00,,---,0.00,0.00,VWS V14.01,2013-01-24 23:54:00,
2013-01-24 18:55:00,23.5,6.2,30.43,ENE,60,0.0,1.0,47,0.00,,---,0.00,0.00,VWS V14.01,2013-01-24 23:55:00,
2013-01-24 18:56:00,23.6,5.9,30.43,ENE,60,0.0,1.0,46,0.00,,---,0.00,0.00,VWS V14.01,2013-01-24 23:56:00,
2013-01-24 18:57:00,23.6,5.9,30.43,ENE,60,4.0,5.0,46,0.00,,---,0.00,0.00,VWS V14.01,2013-01-24 23:57:00,
2013-01-24 18:58:00,23.5,6.2,30.43,ENE,60,0.0,5.0,47,0.00,,---,0.00,0.00,VWS V14.01,2013-01-24 23:58:00,
2013-01-24 18:59:00,23.5,6.2,30.43,ENE,60,0.0,5.0,47,0.00,,---,0.00,0.00,VWS V14.01,2013-01-24 23:59:00,
2013-01-24 19:00:00,23.5,6.2,30.43,ENE,60,0.0,0.0,47,0.00,,---,0.00,0.00,VWS V14.01,2013-01-25 00:00:00,
2013-01-24 19:01:00,23.5,5.8,30.43,ENE,60,0.0,1.0,46,0.00,,---,0.00,0.00,VWS V14.01,2013-01-25 00:01:00,
2013-01-24 19:02:00,23.5,6.7,30.43,ENE,60,0.0,1.0,48,0.00,,---,0.00,0.00,VWS V14.01,2013-01-25 00:02:00,
2013-01-24 19:03:00,23.5,6.7,30.43,ENE,60,1.0,1.0,48,0.00,,---,0.00,0.00,VWS V14.01,2013-01-25 00:03:00,
2013-01-24 19:04:00,23.5,6.7,30.43,ENE,70,0.0,2.0,48,0.00,,---,0.00,0.00,VWS V14.01,2013-01-25 00:04:00,
2013-01-24 19:05:00,23.4,6.2,30.43,ENE,70,0.0,2.0,47,0.00,,---,0.00,0.00,VWS V14.01,2013-01-25 00:05:00,
2013-01-24 19:06:00,23.5,5.8,30.43,ENE,60,0.0,1.0,46,0.00,,---,0.00,0.00,VWS V14.01,2013-01-25 00:06:00,
2013-01-24 19:07:00,23.4,6.2,30.43,ENE,75,0.0,3.0,47,0.00,,---,0.00,0.00,VWS V14.01,2013-01-25 00:07:00,
2013-01-24 19:08:00,23.4,6.2,30.43,ENE,75,0.0,3.0,47,0.00,,---,0.00,0.00,VWS V14.01,2013-01-25 00:08:00,
2013-01-24 19:09:00,23.4,6.6,30.43,ENE,75,1.0,3.0,48,0.00,,---,0.00,0.00,VWS V14.01,2013-01-25 00:09:00,
2013-01-24 19:10:00,23.4,6.6,30.43,ENE,75,0.0,0.0,48,0.00,,---,0.00,0.00,VWS V14.01,2013-01-25 00:10:00,
2013-01-24 19:11:00,23.4,6.6,30.43,ENE,75,0.0,0.0,48,0.00,,---,0.00,0.00,VWS V14.01,2013-01-25 00:11:00,
2013-01-24 19:12:00,23.5,6.7,30.43,ENE,60,0.0,1.0,48,0.00,,---,0.00,0.00,VWS V14.01,2013-01-25 00:12:00,
2013-01-24 19:13:00,23.4,6.6,30.43,ENE,75,0.0,1.0,48,0.00,,---,0.00,0.00,VWS V14.01,2013-01-25 00:13:00,
2013-01-24 19:14:00,23.3,6.5,30.43,ENE,75,0.0,1.0,48,0.00,,---,0.00,0.00,VWS V14.01,2013-01-25 00:14:00,
2013-01-24 19:15:00,23.3,6.1,30.43,ENE,75,0.0,1.0,47,0.00,,---,0.00,0.00,VWS V14.01,2013-01-25 00:15:00,
2013-01-24 19:16:00,23.3,6.1,30.43,ENE,75,0.0,1.0,47,0.00,,---,0.00,0.00,VWS V14.01,2013-01-25 00:16:00,
2013-01-24 19:17:00,23.4,6.2,30.43,ENE,75,0.0,3.0,47,0.00,,---,0.00,0.00,VWS V14.01,2013-01-25 00:17:00,
2013-01-24 19:18:00,23.3,6.1,30.43,ENE,75,1.0,1.0,47,0.00,,---,0.00,0.00,VWS V14.01,2013-01-25 00:18:00,
2013-01-24 19:19:00,23.3,6.1,30.43,ENE,75,0.0,1.0,47,0.00,,---,0.00,0.00,VWS V14.01,2013-01-25 00:19:00,
2013-01-24 19:20:00,23.3,6.5,30.43,ENE,75,0.0,0.0,48,0.00,,---,0.00,0.00,VWS V14.01,2013-01-25 00:20:00,
2013-01-24 19:21:00,23.3,6.5,30.43,ENE,75,0.0,0.0,48,0.00,,---,0.00,0.00,VWS V14.01,2013-01-25 00:21:00,
2013-01-24 19:22:00,23.3,7.0,30.43,ENE,75,0.0,0.0,49,0.00,,---,0.00,0.00,VWS V14.01,2013-01-25 00:22:00,
2013-01-24 19:23:00,23.3,6.5,30.43,ENE,75,0.0,1.0,48,0.00,,---,0.00,0.00,VWS V14.01,2013-01-25 00:23:00,
2013-01-24 19:24:00,23.2,7.3,30.43,ENE,75,0.0,0.0,50,0.00,,---,0.00,0.00,VWS V14.01,2013-01-25 00:24:00,
2013-01-24 19:25:00,23.1,6.8,30.43,ENE,75,0.0,1.0,49,0.00,,---,0.00,0.00,VWS V14.01,2013-01-25 00:25:00,
2013-01-24 19:26:00,23.0,6.2,30.43,ENE,75,0.0,1.0,48,0.00,,---,0.00,0.00,VWS V14.01,2013-01-25 00:26:00,
2013-01-24 19:27:00,23.1,6.3,30.43,ENE,75,1.0,1.0,48,0.00,,---,0.00,0.00,VWS V14.01,2013-01-25 00:27:00,
2013-01-24 19:28:00,23.3,6.1,30.43,ENE,75,0.0,1.0,47,0.00,,---,0.00,0.00,VWS V14.01,2013-01-25 00:28:00,
2013-01-24 19:29:00,23.0,6.7,30.43,East,79,0.0,3.0,49,0.00,,---,0.00,0.00,VWS V14.01,2013-01-25 00:29:00,
2013-01-24 19:30:00,23.0,6.7,30.43,East,79,0.0,0.0,49,0.00,,---,0.00,0.00,VWS V14.01,2013-01-25 00:30:00,
2013-01-24 19:31:00,23.0,7.1,30.43,East,79,0.0,0.0,50,0.00,,---,0.00,0.00,VWS V14.01,2013-01-25 00:31:00,
2013-01-24 19:32:00,23.0,7.1,30.42,East,79,0.0,0.0,50,0.00,,---,0.00,0.00,VWS V14.01,2013-01-25 00:32:00,
2013-01-24 19:33:00,23.0,7.1,30.43,East,79,0.0,0.0,50,0.00,,---,0.00,0.00,VWS V14.01,2013-01-25 00:33:00,
2013-01-24 19:34:00,23.1,7.2,30.43,ENE,75,0.0,1.0,50,0.00,,---,0.00,0.00,VWS V14.01,2013-01-25 00:34:00,
2013-01-24 19:35:00,22.9,7.1,30.43,ENE,78,0.0,1.0,50,0.00,,---,0.00,0.00,VWS V14.01,2013-01-25 00:35:00,
2013-01-24 19:36:00,22.8,7.4,30.43,ENE,78,0.0,1.0,51,0.00,,---,0.00,0.00,VWS V14.01,2013-01-25 00:36:00,
2013-01-24 19:37:00,22.8,7.4,30.43,ENE,78,0.0,1.0,51,0.00,,---,0.00,0.00,VWS V14.01,2013-01-25 00:37:00,
2013-01-24 19:38:00,22.7,7.3,30.43,ENE,78,0.0,1.0,51,0.00,,---,0.00,0.00,VWS V14.01,2013-01-25 00:38:00,
2013-01-24 19:39:00,22.7,7.3,30.43,ENE,78,0.0,1.0,51,0.00,,---,0.00,0.00,VWS V14.01,2013-01-25 00:39:00,
2013-01-24 19:40:00,23.0,7.1,30.43,East,79,0.0,0.0,50,0.00,,---,0.00,0.00,VWS V14.01,2013-01-25 00:40:00,
2013-01-24 19:41:00,22.6,7.2,30.43,ENE,77,0.0,2.0,51,0.00,,---,0.00,0.00,VWS V14.01,2013-01-25 00:41:00,
2013-01-24 19:42:00,22.6,7.2,30.43,ENE,77,0.0,2.0,51,0.00,,---,0.00,0.00,VWS V14.01,2013-01-25 00:42:00,
2013-01-24 19:43:00,22.5,7.5,30.43,ENE,77,0.0,2.0,52,0.00,,---,0.00,0.00,VWS V14.01,2013-01-25 00:43:00,
2013-01-24 19:44:00,22.5,7.5,30.43,ENE,77,0.0,2.0,52,0.00,,---,0.00,0.00,VWS V14.01,2013-01-25 00:44:00,
2013-01-24 19:45:00,22.9,7.5,30.43,ENE,78,0.0,1.0,51,0.00,,---,0.00,0.00,VWS V14.01,2013-01-25 00:45:00,
2013-01-24 19:46:00,22.4,7.0,30.43,ENE,77,0.0,2.0,51,0.00,,---,0.00,0.00,VWS V14.01,2013-01-25 00:46:00,
2013-01-24 19:47:00,22.4,7.0,30.43,ENE,77,0.0,2.0,51,0.00,,---,0.00,0.00,VWS V14.01,2013-01-25 00:47:00,
2013-01-24 19:48:00,22.4,7.0,30.43,ENE,77,0.0,2.0,51,0.00,,---,0.00,0.00,VWS V14.01,2013-01-25 00:48:00,
2013-01-24 19:49:00,22.4,7.0,30.43,ENE,77,0.0,2.0,51,0.00,,---,0.00,0.00,VWS V14.01,2013-01-25 00:49:00,
2013-01-24 19:50:00,22.4,7.4,30.43,ENE,77,0.0,1.0,52,0.00,,---,0.00,0.00,VWS V14.01,2013-01-25 00:50:00,
2013-01-24 19:51:00,22.6,7.2,30.43,ENE,77,0.0,2.0,51,0.00,,---,0.00,0.00,VWS V14.01,2013-01-25 00:51:00,
2013-01-24 19:52:00,22.3,7.4,30.42,ENE,77,0.0,1.0,52,0.00,,---,0.00,0.00,VWS V14.01,2013-01-25 00:52:00,
2013-01-24 19:53:00,22.2,7.3,30.43,ENE,77,0.0,1.0,52,0.00,,---,0.00,0.00,VWS V14.01,2013-01-25 00:53:00,
2013-01-24 19:54:00,22.2,7.7,30.43,ENE,77,0.0,1.0,53,0.00,,---,0.00,0.00,VWS V14.01,2013-01-25 00:54:00,
2013-01-24 19:55:00,22.2,7.7,30.43,ENE,77,1.0,1.0,53,0.00,,---,0.00,0.00,VWS V14.01,2013-01-25 00:55:00,
2013-01-24 19:56:00,22.2,7.3,30.43,ENE,78,1.0,1.0,52,0.00,,---,0.00,0.00,VWS V14.01,2013-01-25 00:56:00,
2013-01-24 19:57:00,22.4,7.0,30.43,ENE,77,0.0,2.0,51,0.00,,---,0.00,0.00,VWS V14.01,2013-01-25 00:57:00,
2013-01-24 19:58:00,22.2,7.3,30.43,ENE,78,0.0,1.0,52,0.00,,---,0.00,0.00,VWS V14.01,2013-01-25 00:58:00,
2013-01-24 19:59:00,22.2,7.3,30.43,ENE,76,0.0,2.0,52,0.00,,---,0.00,0.00,VWS V14.01,2013-01-25 00:59:00,
2013-01-24 20:00:00,22.2,7.3,30.43,ENE,76,0.0,0.0,52,0.00,,---,0.00,0.00,VWS V14.01,2013-01-25 01:00:00,
2013-01-24 20:01:00,22.2,7.3,30.43,ENE,76,1.0,1.0,52,0.00,,---,0.00,0.00,VWS V14.01,2013-01-25 01:01:00,
2013-01-24 20:02:00,22.3,7.4,30.43,ENE,77,0.0,1.0,52,0.00,,---,0.00,0.00,VWS V14.01,2013-01-25 01:02:00,
2013-01-24 20:03:00,22.2,7.3,30.43,ENE,69,1.0,3.0,52,0.00,,---,0.00,0.00,VWS V14.01,2013-01-25 01:03:00,
2013-01-24 20:04:00,22.2,7.3,30.43,ENE,69,1.0,3.0,52,0.00,,---,0.00,0.00,VWS V14.01,2013-01-25 01:04:00,
2013-01-24 20:05:00,22.2,7.3,30.43,ENE,69,0.0,3.0,52,0.00,,---,0.00,0.00,VWS V14.01,2013-01-25 01:05:00,
2013-01-24 20:06:00,22.2,7.3,30.43,ENE,66,3.0,4.0,52,0.00,,---,0.00,0.00,VWS V14.01,2013-01-25 01:06:00,
2013-01-24 20:07:00,22.3,7.4,30.43,ENE,66,0.0,4.0,52,0.00,,---,0.00,0.00,VWS V14.01,2013-01-25 01:07:00,
2013-01-24 20:08:00,22.2,7.3,30.43,ENE,76,0.0,2.0,52,0.00,,---,0.00,0.00,VWS V14.01,2013-01-25 01:08:00,
2013-01-24 20:09:00,22.2,7.7,30.43,ENE,66,0.0,4.0,53,0.00,,---,0.00,0.00,VWS V14.01,2013-01-25 01:09:00,
2013-01-24 20:10:00,22.2,7.7,30.43,ENE,66,0.0,1.0,53,0.00,,---,0.00,0.00,VWS V14.01,2013-01-25 01:10:00,
2013-01-24 20:11:00,22.2,8.1,30.42,ENE,66,0.0,1.0,54,0.00,,---,0.00,0.00,VWS V14.01,2013-01-25 01:11:00,
2013-01-24 20:12:00,22.2,8.1,30.42,ENE,66,1.0,1.0,54,0.00,,---,0.00,0.00,VWS V14.01,2013-01-25 01:12:00,
2013-01-24 20:13:00,22.2,7.7,30.42,ENE,67,0.0,1.0,53,0.00,,---,0.00,0.00,VWS V14.01,2013-01-25 01:13:00,
2013-01-24 20:14:00,22.2,7.7,30.42,ENE,67,0.0,2.0,53,0.00,,---,0.00,0.00,VWS V14.01,2013-01-25 01:14:00,
2013-01-24 20:15:00,22.2,7.3,30.43,ENE,67,2.0,4.0,52,0.00,,---,0.00,0.00,VWS V14.01,2013-01-25 01:15:00,
2013-01-24 20:16:00,22.2,7.7,30.42,ENE,67,2.0,2.0,53,0.00,,---,0.00,0.00,VWS V14.01,2013-01-25 01:16:00,
2013-01-24 20:17:00,22.2,7.3,30.42,ENE,67,0.0,3.0,52,0.00,,---,0.00,0.00,VWS V14.01,2013-01-25 01:17:00,
2013-01-24 20:18:00,22.2,7.3,30.42,ENE,67,0.0,3.0,52,0.00,,---,0.00,0.00,VWS V14.01,2013-01-25 01:18:00,
2013-01-24 20:19:00,22.2,7.3,30.42,ENE,67,1.0,3.0,52,0.00,,---,0.00,0.00,VWS V14.01,2013-01-25 01:19:00,
2013-01-24 20:20:00,22.2,8.1,30.42,ENE,66,0.0,1.0,54,0.00,,---,0.00,0.00,VWS V14.01,2013-01-25 01:20:00,
2013-01-24 20:21:00,22.2,6.8,30.42,ENE,58,1.0,4.0,51,0.00,,---,0.00,0.00,VWS V14.01,2013-01-25 01:21:00,
2013-01-24 20:22:00,22.2,6.8,30.42,ENE,60,0.0,4.0,51,0.00,,---,0.00,0.00,VWS V14.01,2013-01-25 01:22:00,
2013-01-24 20:23:00,22.3,7.4,30.42,ENE,67,2.0,4.0,52,0.00,,---,0.00,0.00,VWS V14.01,2013-01-25 01:23:00,
2013-01-24 20:24:00,22.3,7.4,30.42,ENE,67,1.0,4.0,52,0.00,,---,0.00,0.00,VWS V14.01,2013-01-25 01:24:00,
2013-01-24 20:25:00,22.3,7.4,30.42,ENE,67,2.0,4.0,52,0.00,,---,0.00,0.00,VWS V14.01,2013-01-25 01:25:00,
2013-01-24 20:26:00,22.1,7.2,30.42,ENE,67,2.0,3.0,52,0.00,,---,0.00,0.00,VWS V14.01,2013-01-25 01:26:00,
2013-01-24 20:27:00,22.2,7.3,30.42,ENE,71,2.0,4.0,52,0.00,,---,0.00,0.00,VWS V14.01,2013-01-25 01:27:00,
2013-01-24 20:28:00,22.3,7.4,30.41,ENE,65,3.0,4.0,52,0.00,,---,0.00,0.00,VWS V14.01,2013-01-25 01:28:00,
2013-01-24 20:29:00,22.3,7.4,30.41,ENE,66,1.0,4.0,52,0.00,,---,0.00,0.00,VWS V14.01,2013-01-25 01:29:00,
2013-01-24 20:30:00,22.3,7.4,30.41,ENE,66,1.0,1.0,52,0.00,,---,0.00,0.00,VWS V14.01,2013-01-25 01:30:00,
2013-01-24 20:31:00,22.2,6.8,30.42,ENE,60,3.0,4.0,51,0.00,,---,0.00,0.00,VWS V14.01,2013-01-25 01:31:00,
2013-01-24 20:32:00,22.2,7.7,30.41,ENE,66,0.0,2.0,53,0.00,,---,0.00,0.00,VWS V14.01,2013-01-25 01:32:00,
2013-01-24 20:33:00,22.2,7.7,30.41,ENE,57,3.0,3.0,53,0.00,,---,0.00,0.00,VWS V14.01,2013-01-25 01:33:00,
2013-01-24 20:34:00,22.2,8.1,30.41,ENE,65,1.0,3.0,54,0.00,,---,0.00,0.00,VWS V14.01,2013-01-25 01:34:00,
2013-01-24 20:35:00,22.1,7.6,30.41,ENE,72,2.0,4.0,53,0.00,,---,0.00,0.00,VWS V14.01,2013-01-25 01:35:00,
2013-01-24 20:36:00,22.1,7.6,30.41,ENE,64,2.0,5.0,53,0.00,,---,0.00,0.00,VWS V14.01,2013-01-25 01:36:00,
2013-01-24 20:37:00,22.2,7.3,30.41,ENE,65,2.0,4.0,52,0.00,,---,0.00,0.00,VWS V14.01,2013-01-25 01:37:00,
2013-01-24 20:38:00,22.1,7.6,30.41,ENE,74,2.0,5.0,53,0.00,,---,0.00,0.00,VWS V14.01,2013-01-25 01:38:00,
2013-01-24 20:39:00,22.1,7.2,30.41,ENE,68,2.0,5.0,52,0.00,,---,0.00,0.00,VWS V14.01,2013-01-25 01:39:00,
2013-01-24 20:40:00,22.1,7.2,30.40,ENE,74,0.0,0.0,52,0.00,,---,0.00,0.00,VWS V14.01,2013-01-25 01:40:00,
2013-01-24 20:41:00,22.1,7.2,30.40,ENE,74,0.0,0.0,52,0.00,,---,0.00,0.00,VWS V14.01,2013-01-25 01:41:00,
2013-01-24 20:42:00,22.2,7.7,30.41,ENE,76,2.0,2.0,53,0.00,,---,0.00,0.00,VWS V14.01,2013-01-25 01:42:00,
2013-01-24 20:43:00,22.1,7.6,30.40,ENE,74,0.0,1.0,53,0.00,,---,0.00,0.00,VWS V14.01,2013-01-25 01:43:00,
2013-01-24 20:44:00,22.0,7.9,30.40,East,84,1.0,1.0,54,0.00,,---,0.00,0.00,VWS V14.01,2013-01-25 01:44:00,
2013-01-24 20:45:00,22.0,7.5,30.40,ENE,77,0.0,1.0,53,0.00,,---,0.00,0.00,VWS V14.01,2013-01-25 01:45:00,
2013-01-24 20:46:00,22.0,7.5,30.40,ENE,76,0.0,1.0,53,0.00,,---,0.00,0.00,VWS V14.01,2013-01-25 01:46:00,
2013-01-24 20:47:00,22.0,7.5,30.40,ENE,61,3.0,3.0,53,0.00,,---,0.00,0.00,VWS V14.01,2013-01-25 01:47:00,
2013-01-24 20:48:00,22.1,7.2,30.41,ENE,74,1.0,5.0,52,0.00,,---,0.00,0.00,VWS V14.01,2013-01-25 01:48:00,
2013-01-24 20:49:00,22.0,7.5,30.40,NE,55,0.0,3.0,53,0.00,,---,0.00,0.00,VWS V14.01,2013-01-25 01:49:00,
2013-01-24 20:50:00,22.0,7.9,30.40,NE,55,0.0,3.0,54,0.00,,---,0.00,0.00,VWS V14.01,2013-01-25 01:50:00,
2013-01-24 20:51:00,21.9,7.8,30.40,NE,55,0.0,0.0,54,0.00,,---,0.00,0.00,VWS V14.01,2013-01-25 01:51:00,
2013-01-24 20:52:00,21.9,7.8,30.40,NE,55,0.0,0.0,54,0.00,,---,0.00,0.00,VWS V14.01,2013-01-25 01:52:00,
2013-01-24 20:53:00,21.9,7.8,30.40,NE,55,0.0,0.0,54,0.00,,---,0.00,0.00,VWS V14.01,2013-01-25 01:53:00,
2013-01-24 20:54:00,21.8,7.7,30.40,NE,55,0.0,0.0,54,0.00,,---,0.00,0.00,VWS V14.01,2013-01-25 01:54:00,
2013-01-24 20:55:00,21.8,8.1,30.40,NE,55,0.0,0.0,55,0.00,,---,0.00,0.00,VWS V14.01,2013-01-25 01:55:00,
2013-01-24 20:56:00,21.7,8.0,30.40,NE,55,0.0,2.0,55,0.00,,---,0.00,0.00,VWS V14.01,2013-01-25 01:56:00,
2013-01-24 20:57:00,21.7,7.6,30.40,NE,55,0.0,2.0,54,0.00,,---,0.00,0.00,VWS V14.01,2013-01-25 01:57:00,
2013-01-24 20:58:00,21.7,8.0,30.40,NE,55,0.0,2.0,55,0.00,,---,0.00,0.00,VWS V14.01,2013-01-25 01:58:00,
2013-01-24 20:59:00,21.7,8.0,30.40,NE,56,0.0,2.0,55,0.00,,---,0.00,0.00,VWS V14.01,2013-01-25 01:59:00,
2013-01-24 21:00:00,21.6,7.9,30.40,NE,56,0.0,2.0,55,0.00,,---,0.00,0.00,VWS V14.01,2013-01-25 02:00:00,
2013-01-24 21:01:00,21.6,7.9,30.40,NE,56,0.0,0.0,55,0.00,,---,0.00,0.00,VWS V14.01,2013-01-25 02:01:00,
2013-01-24 21:02:00,21.6,7.9,30.40,NE,56,0.0,0.0,55,0.00,,---,0.00,0.00,VWS V14.01,2013-01-25 02:02:00,
2013-01-24 21:03:00,21.6,7.9,30.41,NE,51,2.0,2.0,55,0.00,,---,0.00,0.00,VWS V14.01,2013-01-25 02:03:00,
2013-01-24 21:04:00,21.5,7.4,30.40,NE,51,0.0,2.0,54,0.00,,---,0.00,0.00,VWS V14.01,2013-01-25 02:04:00,
2013-01-24 21:05:00,21.5,7.8,30.40,NE,55,0.0,2.0,55,0.00,,---,0.00,0.00,VWS V14.01,2013-01-25 02:05:00,
2013-01-24 21:06:00,21.5,7.4,30.40,NE,56,0.0,2.0,54,0.00,,---,0.00,0.00,VWS V14.01,2013-01-25 02:06:00,
2013-01-24 21:07:00,21.6,7.5,30.40,NE,56,0.0,2.0,54,0.00,,---,0.00,0.00,VWS V14.01,2013-01-25 02:07:00,
2013-01-24 21:08:00,21.6,7.5,30.40,NE,56,0.0,2.0,54,0.00,,---,0.00,0.00,VWS V14.01,2013-01-25 02:08:00,
2013-01-24 21:09:00,21.6,7.9,30.40,NE,56,0.0,2.0,55,0.00,,---,0.00,0.00,VWS V14.01,2013-01-25 02:09:00,
2013-01-24 21:10:00,21.6,7.9,30.40,NE,56,0.0,2.0,55,0.00,,---,0.00,0.00,VWS V14.01,2013-01-25 02:10:00,
2013-01-24 21:11:00,21.5,7.8,30.40,NE,51,1.0,2.0,55,0.00,,---,0.00,0.00,VWS V14.01,2013-01-25 02:11:00,
2013-01-24 21:12:00,21.5,7.8,30.40,NE,51,0.0,2.0,55,0.00,,---,0.00,0.00,VWS V14.01,2013-01-25 02:12:00,
2013-01-24 21:13:00,21.5,7.8,30.40,ENE,58,1.0,2.0,55,0.00,,---,0.00,0.00,VWS V14.01,2013-01-25 02:13:00,
2013-01-24 21:14:00,21.6,7.5,30.40,NE,55,1.0,2.0,54,0.00,,---,0.00,0.00,VWS V14.01,2013-01-25 02:14:00,
2013-01-24 21:15:00,21.5,7.8,30.40,ENE,69,1.0,2.0,55,0.00,,---,0.00,0.00,VWS V14.01,2013-01-25 02:15:00,
2013-01-24 21:16:00,21.5,7.8,30.40,ENE,66,3.0,3.0,55,0.00,,---,0.00,0.00,VWS V14.01,2013-01-25 02:16:00,
2013-01-24 21:17:00,21.5,7.8,30.40,ENE,69,3.0,3.0,55,0.00,,---,0.00,0.00,VWS V14.01,2013-01-25 02:17:00,
2013-01-24 21:18:00,21.5,8.2,30.40,ENE,69,1.0,3.0,56,0.00,,---,0.00,0.00,VWS V14.01,2013-01-25 02:18:00,
2013-01-24 21:19:00,21.5,7.8,30.40,ENE,69,0.0,3.0,55,0.00,,---,0.00,0.00,VWS V14.01,2013-01-25 02:19:00,
2013-01-24 21:20:00,21.5,8.2,30.40,ENE,69,0.0,3.0,56,0.00,,---,0.00,0.00,VWS V14.01,2013-01-25 02:20:00,
2013-01-24 21:21:00,21.5,8.2,30.40,ENE,69,0.0,0.0,56,0.00,,---,0.00,0.00,VWS V14.01,2013-01-25 02:21:00,
2013-01-24 21:22:00,21.5,8.2,30.40,ENE,69,0.0,0.0,56,0.00,,---,0.00,0.00,VWS V14.01,2013-01-25 02:22:00,
2013-01-24 21:23:00,21.5,8.2,30.40,ENE,69,1.0,1.0,56,0.00,,---,0.00,0.00,VWS V14.01,2013-01-25 02:23:00,
2013-01-24 21:24:00,21.4,8.1,30.40,ENE,69,0.0,1.0,56,0.00,,---,0.00,0.00,VWS V14.01,2013-01-25 02:24:00,
2013-01-24 21:25:00,21.4,8.1,30.40,ENE,69,0.0,1.0,56,0.00,,---,0.00,0.00,VWS V14.01,2013-01-25 02:25:00,
2013-01-24 21:26:00,21.4,8.6,30.40,ENE,69,0.0,1.0,57,0.00,,---,0.00,0.00,VWS V14.01,2013-01-25 02:26:00,
2013-01-24 21:27:00,21.3,8.4,30.40,ENE,69,0.0,1.0,57,0.00,,---,0.00,0.00,VWS V14.01,2013-01-25 02:27:00,
2013-01-24 21:28:00,21.3,8.4,30.39,ENE,69,0.0,1.0,57,0.00,,---,0.00,0.00,VWS V14.01,2013-01-25 02:28:00,
2013-01-24 21:29:00,21.5,7.8,30.40,ENE,69,0.0,3.0,55,0.00,,---,0.00,0.00,VWS V14.01,2013-01-25 02:29:00,
2013-01-24 21:30:00,21.3,8.1,30.39,ENE,73,0.0,3.0,56,0.00,,---,0.00,0.00,VWS V14.01,2013-01-25 02:30:00,
2013-01-24 21:31:00,21.2,8.0,30.39,ENE,57,3.0,3.0,56,0.00,,---,0.00,0.00,VWS V14.01,2013-01-25 02:31:00,
2013-01-24 21:32:00,21.2,8.0,30.39,ENE,57,0.0,3.0,56,0.00,,---,0.00,0.00,VWS V14.01,2013-01-25 02:32:00,
2013-01-24 21:33:00,21.2,8.4,30.39,ENE,58,1.0,3.0,57,0.00,,---,0.00,0.00,VWS V14.01,2013-01-25 02:33:00,
2013-01-24 21:34:00,21.2,8.0,30.39,ENE,58,1.0,3.0,56,0.00,,---,0.00,0.00,VWS V14.01,2013-01-25 02:34:00,
2013-01-24 21:35:00,21.2,8.4,30.39,ENE,58,0.0,3.0,57,0.00,,---,0.00,0.00,VWS V14.01,2013-01-25 02:35:00,
2013-01-24 21:36:00,21.3,8.4,30.40,ENE,69,0.0,1.0,57,0.00,,---,0.00,0.00,VWS V14.01,2013-01-25 02:36:00,
2013-01-24 21:37:00,21.2,8.0,30.39,ENE,67,0.0,4.0,56,0.00,,---,0.00,0.00,VWS V14.01,2013-01-25 02:37:00,
2013-01-24 21:38:00,21.2,8.0,30.39,ENE,67,2.0,4.0,56,0.00,,---,0.00,0.00,VWS V14.01,2013-01-25 02:38:00,
2013-01-24 21:39:00,21.2,8.4,30.38,ENE,67,0.0,4.0,57,0.00,,---,0.00,0.00,VWS V14.01,2013-01-25 02:39:00,
2013-01-24 21:40:00,21.2,8.0,30.38,ENE,67,0.0,4.0,56,0.00,,---,0.00,0.00,VWS V14.01,2013-01-25 02:40:00,
2013-01-24 21:41:00,21.2,8.4,30.38,ENE,67,0.0,2.0,57,0.00,,---,0.00,0.00,VWS V14.01,2013-01-25 02:41:00,
2013-01-24 21:42:00,21.2,8.4,30.38,ENE,67,3.0,3.0,57,0.00,,---,0.00,0.00,VWS V14.01,2013-01-25 02:42:00,
2013-01-24 21:43:00,21.1,8.3,30.38,ENE,67,0.0,3.0,57,0.00,,---,0.00,0.00,VWS V14.01,2013-01-25 02:43:00,
2013-01-24 21:44:00,21.1,8.3,30.39,ENE,67,0.0,3.0,57,0.00,,---,0.00,0.00,VWS V14.01,2013-01-25 02:44:00,
2013-01-24 21:45:00,21.1,8.3,30.39,ENE,67,0.0,3.0,57,0.00,,---,0.00,0.00,VWS V14.01,2013-01-25 02:45:00,
2013-01-24 21:46:00,21.1,8.3,30.38,ENE,67,2.0,3.0,57,0.00,,---,0.00,0.00,VWS V14.01,2013-01-25 02:46:00,
2013-01-24 21:47:00,21.1,7.9,30.38,ENE,67,0.0,3.0,56,0.00,,---,0.00,0.00,VWS V14.01,2013-01-25 02:47:00,
2013-01-24 21:48:00,21.2,8.0,30.39,ENE,67,0.0,4.0,56,0.00,,---,0.00,0.00,VWS V14.01,2013-01-25 02:48:00,
2013-01-24 21:49:00,21.1,8.3,30.38,ENE,67,0.0,3.0,57,0.00,,---,0.00,0.00,VWS V14.01,2013-01-25 02:49:00,
2013-01-24 21:50:00,21.1,8.3,30.38,ENE,67,0.0,3.0,57,0.00,,---,0.00,0.00,VWS V14.01,2013-01-25 02:50:00,
2013-01-24 21:51:00,21.1,8.3,30.38,ENE,67,0.0,0.0,57,0.00,,---,0.00,0.00,VWS V14.01,2013-01-25 02:51:00,
2013-01-24 21:52:00,21.0,8.2,30.38,ENE,67,1.0,1.0,57,0.00,,---,0.00,0.00,VWS V14.01,2013-01-25 02:52:00,
2013-01-24 21:53:00,21.0,8.2,30.39,ENE,67,0.0,1.0,57,0.00,,---,0.00,0.00,VWS V14.01,2013-01-25 02:53:00,
2013-01-24 21:54:00,21.0,8.2,30.39,ENE,67,0.0,1.0,57,0.00,,---,0.00,0.00,VWS V14.01,2013-01-25 02:54:00,
2013-01-24 21:55:00,21.0,8.2,30.39,ENE,67,0.0,1.0,57,0.00,,---,0.00,0.00,VWS V14.01,2013-01-25 02:55:00,
2013-01-24 21:56:00,21.0,8.2,30.39,ENE,67,0.0,1.0,57,0.00,,---,0.00,0.00,VWS V14.01,2013-01-25 02:56:00,
2013-01-24 21:57:00,21.0,8.2,30.38,ENE,67,2.0,2.0,57,0.00,,---,0.00,0.00,VWS V14.01,2013-01-25 02:57:00,
2013-01-24 21:58:00,21.0,8.2,30.38,ENE,67,1.0,2.0,57,0.00,,---,0.00,0.00,VWS V14.01,2013-01-25 02:58:00,
2013-01-24 21:59:00,21.0,8.2,30.38,ENE,67,0.0,2.0,57,0.00,,---,0.00,0.00,VWS V14.01,2013-01-25 02:59:00,
2013-01-24 22:00:00,20.9,8.1,30.38,ENE,67,2.0,2.0,57,0.00,,---,0.00,0.00,VWS V14.01,2013-01-25 03:00:00,
2013-01-24 22:01:00,21.0,8.2,30.38,ENE,67,1.0,2.0,57,0.00,,---,0.00,0.00,VWS V14.01,2013-01-25 03:01:00,
2013-01-24 22:02:00,21.0,8.2,30.38,ENE,67,0.0,2.0,57,0.00,,---,0.00,0.00,VWS V14.01,2013-01-25 03:02:00,
2013-01-24 22:03:00,21.0,8.2,30.38,East,84,0.0,2.0,57,0.00,,---,0.00,0.00,VWS V14.01,2013-01-25 03:03:00,
2013-01-24 22:04:00,20.9,7.7,30.38,NE,55,1.0,2.0,56,0.00,,---,0.00,0.00,VWS V14.01,2013-01-25 03:04:00,
2013-01-24 22:05:00,20.9,7.7,30.38,ENE,67,2.0,2.0,56,0.00,,---,0.00,0.00,VWS V14.01,2013-01-25 03:05:00,
2013-01-24 22:06:00,20.9,7.7,30.38,ENE,67,0.0,2.0,56,0.00,,---,0.00,0.00,VWS V14.01,2013-01-25 03:06:00,
2013-01-24 22:07:00,20.9,8.1,30.38,ENE,67,0.0,2.0,57,0.00,,---,0.00,0.00,VWS V14.01,2013-01-25 03:07:00,
2013-01-24 22:08:00,21.0,8.2,30.38,ENE,67,0.0,2.0,57,0.00,,---,0.00,0.00,VWS V14.01,2013-01-25 03:08:00,
2013-01-24 22:09:00,20.9,8.1,30.38,ENE,67,0.0,2.0,57,0.00,,---,0.00,0.00,VWS V14.01,2013-01-25 03:09:00,
2013-01-24 22:10:00,20.9,8.1,30.38,ENE,67,0.0,2.0,57,0.00,,---,0.00,0.00,VWS V14.01,2013-01-25 03:10:00,
2013-01-24 22:11:00,20.9,8.1,30.38,ENE,67,0.0,2.0,57,0.00,,---,0.00,0.00,VWS V14.01,2013-01-25 03:11:00,
2013-01-24 22:12:00,20.9,8.1,30.38,ENE,67,3.0,3.0,57,0.00,,---,0.00,0.00,VWS V14.01,2013-01-25 03:12:00,
2013-01-24 22:13:00,20.9,7.7,30.38,ENE,67,2.0,3.0,56,0.00,,---,0.00,0.00,VWS V14.01,2013-01-25 03:13:00,
2013-01-24 22:14:00,20.9,7.7,30.38,ENE,67,0.0,3.0,56,0.00,,---,0.00,0.00,VWS V14.01,2013-01-25 03:14:00,
2013-01-24 22:15:00,20.9,7.7,30.38,ENE,67,0.0,2.0,56,0.00,,---,0.00,0.00,VWS V14.01,2013-01-25 03:15:00,
2013-01-24 22:16:00,20.9,8.1,30.38,ENE,67,0.0,3.0,57,0.00,,---,0.00,0.00,VWS V14.01,2013-01-25 03:16:00,
2013-01-24 22:17:00,20.9,8.1,30.38,ENE,67,0.0,3.0,57,0.00,,---,0.00,0.00,VWS V14.01,2013-01-25 03:17:00,
2013-01-24 22:18:00,20.8,8.0,30.38,ENE,67,0.0,3.0,57,0.00,,---,0.00,0.00,VWS V14.01,2013-01-25 03:18:00,
2013-01-24 22:19:00,20.8,8.0,30.38,ENE,67,0.0,3.0,57,0.00,,---,0.00,0.00,VWS V14.01,2013-01-25 03:19:00,
2013-01-24 22:20:00,20.8,7.6,30.38,ENE,67,0.0,3.0,56,0.00,,---,0.00,0.00,VWS V14.01,2013-01-25 03:20:00,
2013-01-24 22:21:00,20.8,7.6,30.38,ENE,67,0.0,0.0,56,0.00,,---,0.00,0.00,VWS V14.01,2013-01-25 03:21:00,
2013-01-24 22:22:00,20.8,7.6,30.38,ENE,67,0.0,0.0,56,0.00,,---,0.00,0.00,VWS V14.01,2013-01-25 03:22:00,
2013-01-24 22:24:00,20.8,8.0,30.39,ENE,67,0.0,0.0,57,0.00,,---,0.00,0.00,VWS V14.01,2013-01-25 03:24:00,
2013-01-24 22:25:00,20.8,8.0,30.39,ENE,67,0.0,0.0,57,0.00,,---,0.00,0.00,VWS V14.01,2013-01-25 03:25:00,
2013-01-24 22:26:00,20.7,7.5,30.39,ENE,67,0.0,1.0,56,0.00,,---,0.00,0.00,VWS V14.01,2013-01-25 03:26:00,
2013-01-24 22:27:00,20.7,7.5,30.39,ESE,119,0.0,1.0,56,0.00,,---,0.00,0.00,VWS V14.01,2013-01-25 03:27:00,
2013-01-24 22:28:00,20.7,7.5,30.38,ESE,116,0.0,1.0,56,0.00,,---,0.00,0.00,VWS V14.01,2013-01-25 03:28:00,
2013-01-24 22:29:00,20.8,7.6,30.38,East,80,1.0,1.0,56,0.00,,---,0.00,0.00,VWS V14.01,2013-01-25 03:29:00,
2013-01-24 22:30:00,20.8,7.6,30.38,ENE,66,3.0,3.0,56,0.00,,---,0.00,0.00,VWS V14.01,2013-01-25 03:30:00,
2013-01-24 22:31:00,20.8,7.6,30.38,ENE,59,0.0,3.0,56,0.00,,---,0.00,0.00,VWS V14.01,2013-01-25 03:31:00,
2013-01-24 22:32:00,20.8,7.6,30.39,ENE,67,0.0,0.0,56,0.00,,---,0.00,0.00,VWS V14.01,2013-01-25 03:32:00,
2013-01-24 22:33:00,20.8,8.0,30.38,ENE,59,0.0,3.0,57,0.00,,---,0.00,0.00,VWS V14.01,2013-01-25 03:33:00,
2013-01-24 22:34:00,20.7,7.9,30.38,ENE,59,0.0,3.0,57,0.00,,---,0.00,0.00,VWS V14.01,2013-01-25 03:34:00,
2013-01-24 22:35:00,20.8,8.0,30.38,ENE,59,0.0,3.0,57,0.00,,---,0.00,0.00,VWS V14.01,2013-01-25 03:35:00,
2013-01-24 22:36:00,20.8,8.0,30.38,ENE,59,1.0,3.0,57,0.00,,---,0.00,0.00,VWS V14.01,2013-01-25 03:36:00,
2013-01-24 22:37:00,20.7,7.5,30.38,ENE,59,0.0,3.0,56,0.00,,---,0.00,0.00,VWS V14.01,2013-01-25 03:37:00,
2013-01-24 22:38:00,20.8,7.6,30.38,ENE,59,0.0,3.0,56,0.00,,---,0.00,0.00,VWS V14.01,2013-01-25 03:38:00,
2013-01-24 22:39:00,20.7,7.1,30.38,ENE,59,0.0,3.0,55,0.00,,---,0.00,0.00,VWS V14.01,2013-01-25 03:39:00,
2013-01-24 22:40:00,20.8,8.0,30.39,ENE,59,0.0,3.0,57,0.00,,---,0.00,0.00,VWS V14.01,2013-01-25 03:40:00,
2013-01-24 22:41:00,20.8,8.0,30.40,ENE,59,0.0,0.0,57,0.00,,---,0.00,0.00,VWS V14.01,2013-01-25 03:41:00,
2013-01-24 22:42:00,20.8,7.6,30.40,ENE,59,0.0,0.0,56,0.00,,---,0.00,0.00,VWS V14.01,2013-01-25 03:42:00,
2013-01-24 22:43:00,20.8,7.2,30.40,East,82,0.0,0.0,55,0.00,,---,0.00,0.00,VWS V14.01,2013-01-25 03:43:00,
2013-01-24 22:44:00,20.8,7.2,30.40,East,82,0.0,0.0,55,0.00,,---,0.00,0.00,VWS V14.01,2013-01-25 03:44:00,
2013-01-24 22:45:00,20.8,7.2,30.40,East,82,0.0,0.0,55,0.00,,---,0.00,0.00,VWS V14.01,2013-01-25 03:45:00,
2013-01-24 22:46:00,20.8,7.2,30.40,East,82,0.0,0.0,55,0.00,,---,0.00,0.00,VWS V14.01,2013-01-25 03:46:00,
2013-01-24 22:47:00,20.8,7.6,30.38,ENE,59,0.0,3.0,56,0.00,,---,0.00,0.00,VWS V14.01,2013-01-25 03:47:00,
2013-01-24 22:48:00,20.8,8.4,30.40,East,82,0.0,0.0,58,0.00,,---,0.00,0.00,VWS V14.01,2013-01-25 03:48:00,
2013-01-24 22:49:00,20.7,8.3,30.40,East,82,0.0,0.0,58,0.00,,---,0.00,0.00,VWS V14.01,2013-01-25 03:49:00,
2013-01-24 22:50:00,20.7,8.6,30.39,ENE,67,0.0,1.0,59,0.00,,---,0.00,0.00,VWS V14.01,2013-01-25 03:50:00,
2013-01-24 22:51:00,20.6,8.6,30.39,ENE,67,0.0,0.0,59,0.00,,---,0.00,0.00,VWS V14.01,2013-01-25 03:51:00,
2013-01-24 22:52:00,20.6,8.6,30.39,ENE,67,0.0,0.0,59,0.00,,---,0.00,0.00,VWS V14.01,2013-01-25 03:52:00,
2013-01-24 22:53:00,20.5,8.8,30.39,ENE,68,1.0,1.0,60,0.00,,---,0.00,0.00,VWS V14.01,2013-01-25 03:53:00,
2013-01-24 22:54:00,20.4,8.4,30.39,ENE,68,0.0,1.0,59,0.00,,---,0.00,0.00,VWS V14.01,2013-01-25 03:54:00,
2013-01-24 22:55:00,20.3,8.3,30.39,ENE,68,0.0,1.0,59,0.00,,---,0.00,0.00,VWS V14.01,2013-01-25 03:55:00,
2013-01-24 22:56:00,20.8,8.0,30.40,East,82,0.0,0.0,57,0.00,,---,0.00,0.00,VWS V14.01,2013-01-25 03:56:00,
2013-01-24 22:57:00,20.2,8.6,30.39,ENE,68,0.0,1.0,60,0.00,,---,0.00,0.00,VWS V14.01,2013-01-25 03:57:00,
2013-01-24 22:58:00,20.2,8.6,30.39,ENE,68,0.0,1.0,60,0.00,,---,0.00,0.00,VWS V14.01,2013-01-25 03:58:00,
2013-01-24 22:59:00,20.1,8.5,30.39,ENE,68,0.0,1.0,60,0.00,,---,0.00,0.00,VWS V14.01,2013-01-25 03:59:00,
2013-01-24 23:01:00,20.0,8.4,30.39,ENE,68,0.0,1.0,60,0.00,,---,0.00,0.00,VWS V14.01,2013-01-25 04:01:00,
2013-01-24 23:02:00,20.5,8.8,30.39,ENE,68,1.0,1.0,60,0.00,,---,0.00,0.00,VWS V14.01,2013-01-25 04:02:00,
2013-01-24 23:03:00,20.0,8.0,30.38,East,81,0.0,2.0,59,0.00,,---,0.00,0.00,VWS V14.01,2013-01-25 04:03:00,
2013-01-24 23:04:00,20.0,8.0,30.38,East,82,0.0,2.0,59,0.00,,---,0.00,0.00,VWS V14.01,2013-01-25 04:04:00,
2013-01-24 23:05:00,20.0,8.0,30.38,East,82,0.0,2.0,59,0.00,,---,0.00,0.00,VWS V14.01,2013-01-25 04:05:00,
2013-01-24 23:06:00,20.0,8.0,30.39,East,82,0.0,2.0,59,0.00,,---,0.00,0.00,VWS V14.01,2013-01-25 04:06:00,
2013-01-24 23:07:00,20.0,8.0,30.39,East,82,0.0,2.0,59,0.00,,---,0.00,0.00,VWS V14.01,2013-01-25 04:07:00,
2013-01-24 23:08:00,20.1,7.7,30.39,East,82,0.0,2.0,58,0.00,,---,0.00,0.00,VWS V14.01,2013-01-25 04:08:00,
2013-01-24 23:09:00,20.1,7.7,30.39,East,82,1.0,2.0,58,0.00,,---,0.00,0.00,VWS V14.01,2013-01-25 04:09:00,
2013-01-24 23:10:00,20.1,8.8,30.39,ENE,68,0.0,1.0,61,0.00,,---,0.00,0.00,VWS V14.01,2013-01-25 04:10:00,
2013-01-24 23:11:00,20.2,7.8,30.39,East,82,0.0,0.0,58,0.00,,---,0.00,0.00,VWS V14.01,2013-01-25 04:11:00,
2013-01-24 23:12:00,20.2,7.4,30.39,East,82,0.0,0.0,57,0.00,,---,0.00,0.00,VWS V14.01,2013-01-25 04:12:00,
2013-01-24 23:13:00,20.3,7.9,30.39,East,82,0.0,1.0,58,0.00,,---,0.00,0.00,VWS V14.01,2013-01-25 04:13:00,
2013-01-24 23:14:00,20.3,7.9,30.39,East,84,1.0,1.0,58,0.00,,---,0.00,0.00,VWS V14.01,2013-01-25 04:14:00,
2013-01-24 23:15:00,20.3,7.9,30.38,East,84,0.0,1.0,58,0.00,,---,0.00,0.00,VWS V14.01,2013-01-25 04:15:00,
2013-01-24 23:16:00,20.3,7.9,30.39,East,84,0.0,1.0,58,0.00,,---,0.00,0.00,VWS V14.01,2013-01-25 04:16:00,
2013-01-24 23:17:00,20.3,7.9,30.38,East,84,0.0,1.0,58,0.00,,---,0.00,0.00,VWS V14.01,2013-01-25 04:17:00,
2013-01-24 23:18:00,20.3,7.9,30.39,East,84,0.0,1.0,58,0.00,,---,0.00,0.00,VWS V14.01,2013-01-25 04:18:00,
2013-01-24 23:19:00,20.3,8.3,30.38,East,92,2.0,2.0,59,0.00,,---,0.00,0.00,VWS V14.01,2013-01-25 04:19:00,
2013-01-24 23:20:00,20.3,8.3,30.38,ENE,57,2.0,2.0,59,0.00,,---,0.00,0.00,VWS V14.01,2013-01-25 04:20:00,
2013-01-24 23:21:00,20.2,7.4,30.39,East,82,0.0,0.0,57,0.00,,---,0.00,0.00,VWS V14.01,2013-01-25 04:21:00,
2013-01-24 23:22:00,20.3,7.9,30.38,ENE,57,0.0,2.0,58,0.00,,---,0.00,0.00,VWS V14.01,2013-01-25 04:22:00,
2013-01-24 23:23:00,20.3,7.9,30.38,ENE,57,2.0,2.0,58,0.00,,---,0.00,0.00,VWS V14.01,2013-01-25 04:23:00,
2013-01-24 23:24:00,20.3,8.3,30.38,ENE,57,0.0,2.0,59,0.00,,---,0.00,0.00,VWS V14.01,2013-01-25 04:24:00,
2013-01-24 23:25:00,20.3,7.9,30.38,ENE,57,0.0,2.0,58,0.00,,---,0.00,0.00,VWS V14.01,2013-01-25 04:25:00,
2013-01-24 23:26:00,20.2,8.2,30.38,ENE,57,0.0,2.0,59,0.00,,---,0.00,0.00,VWS V14.01,2013-01-25 04:26:00,
2013-01-24 23:27:00,20.3,8.3,30.38,ENE,57,0.0,2.0,59,0.00,,---,0.00,0.00,VWS V14.01,2013-01-25 04:27:00,
2013-01-24 23:28:00,20.2,8.2,30.38,ENE,57,0.0,2.0,59,0.00,,---,0.00,0.00,VWS V14.01,2013-01-25 04:28:00,
2013-01-24 23:29:00,20.2,8.2,30.38,ENE,57,0.0,2.0,59,0.00,,---,0.00,0.00,VWS V14.01,2013-01-25 04:29:00,
2013-01-24 23:30:00,20.2,7.8,30.38,ENE,57,1.0,2.0,58,0.00,,---,0.00,0.00,VWS V14.01,2013-01-25 04:30:00,
2013-01-24 23:31:00,20.2,8.2,30.38,ENE,57,1.0,1.0,59,0.00,,---,0.00,0.00,VWS V14.01,2013-01-25 04:31:00,
2013-01-24 23:32:00,20.2,8.2,30.38,ENE,57,0.0,1.0,59,0.00,,---,0.00,0.00,VWS V14.01,2013-01-25 04:32:00,
2013-01-24 23:33:00,20.2,8.6,30.37,ENE,57,0.0,1.0,60,0.00,,---,0.00,0.00,VWS V14.01,2013-01-25 04:33:00,
2013-01-24 23:34:00,20.2,8.6,30.37,ENE,58,1.0,1.0,60,0.00,,---,0.00,0.00,VWS V14.01,2013-01-25 04:34:00,
2013-01-24 23:35:00,20.2,8.2,30.38,ENE,57,0.0,2.0,59,0.00,,---,0.00,0.00,VWS V14.01,2013-01-25 04:35:00,
2013-01-24 23:36:00,20.2,8.6,30.37,ENE,58,1.0,1.0,60,0.00,,---,0.00,0.00,VWS V14.01,2013-01-25 04:36:00,
2013-01-24 23:37:00,20.2,8.6,30.37,ENE,57,0.0,1.0,60,0.00,,---,0.00,0.00,VWS V14.01,2013-01-25 04:37:00,
2013-01-24 23:38:00,20.2,8.6,30.37,ENE,57,1.0,1.0,60,0.00,,---,0.00,0.00,VWS V14.01,2013-01-25 04:38:00,
2013-01-24 23:39:00,20.2,8.2,30.37,ENE,59,0.0,2.0,59,0.00,,---,0.00,0.00,VWS V14.01,2013-01-25 04:39:00,
2013-01-24 23:40:00,20.2,8.6,30.37,ENE,59,0.0,2.0,60,0.00,,---,0.00,0.00,VWS V14.01,2013-01-25 04:40:00,
2013-01-24 23:41:00,20.2,8.6,30.38,ENE,58,2.0,2.0,60,0.00,,---,0.00,0.00,VWS V14.01,2013-01-25 04:41:00,
2013-01-24 23:42:00,20.2,8.6,30.37,ENE,60,2.0,2.0,60,0.00,,---,0.00,0.00,VWS V14.01,2013-01-25 04:42:00,
2013-01-24 23:43:00,20.2,8.6,30.37,ENE,60,0.0,2.0,60,0.00,,---,0.00,0.00,VWS V14.01,2013-01-25 04:43:00,
2013-01-24 23:44:00,20.2,8.2,30.37,ENE,60,0.0,2.0,59,0.00,,---,0.00,0.00,VWS V14.01,2013-01-25 04:44:00,
2013-01-24 23:45:00,20.2,8.6,30.37,ENE,60,0.0,2.0,60,0.00,,---,0.00,0.00,VWS V14.01,2013-01-25 04:45:00,
2013-01-24 23:46:00,20.2,8.6,30.37,ENE,57,1.0,1.0,60,0.00,,---,0.00,0.00,VWS V14.01,2013-01-25 04:46:00,
2013-01-24 23:47:00,20.3,8.6,30.37,ENE,60,0.0,2.0,60,0.00,,---,0.00,0.00,VWS V14.01,2013-01-25 04:47:00,
2013-01-24 23:48:00,20.3,8.6,30.37,ENE,60,0.0,2.0,60,0.00,,---,0.00,0.00,VWS V14.01,2013-01-25 04:48:00,
2013-01-24 23:49:00,20.3,8.6,30.37,ENE,61,1.0,2.0,60,0.00,,---,0.00,0.00,VWS V14.01,2013-01-25 04:49:00,
2013-01-24 23:50:00,20.3,8.6,30.37,ENE,66,0.0,2.0,60,0.00,,---,0.00,0.00,VWS V14.01,2013-01-25 04:50:00,
2013-01-24 23:51:00,20.4,8.4,30.37,ENE,69,1.0,2.0,59,0.00,,---,0.00,0.00,VWS V14.01,2013-01-25 04:51:00,
2013-01-24 23:52:00,20.4,8.7,30.37,ENE,69,1.0,2.0,60,0.00,,---,0.00,0.00,VWS V14.01,2013-01-25 04:52:00,
2013-01-24 23:53:00,20.4,8.7,30.37,ENE,72,0.0,2.0,60,0.00,,---,0.00,0.00,VWS V14.01,2013-01-25 04:53:00,
2013-01-24 23:54:00,20.4,8.7,30.37,ENE,72,0.0,2.0,60,0.00,,---,0.00,0.00,VWS V14.01,2013-01-25 04:54:00,
2013-01-24 23:55:00,20.5,8.8,30.37,NE,47,2.0,2.0,60,0.00,,---,0.00,0.00,VWS V14.01,2013-01-25 04:55:00,
2013-01-24 23:56:00,20.5,8.8,30.37,ENE,63,0.0,2.0,60,0.00,,---,0.00,0.00,VWS V14.01,2013-01-25 04:56:00,
2013-01-24 23:57:00,20.3,8.6,30.37,ENE,60,0.0,2.0,60,0.00,,---,0.00,0.00,VWS V14.01,2013-01-25 04:57:00,
2013-01-24 23:58:00,20.6,8.9,30.37,ENE,63,0.0,2.0,60,0.00,,---,0.00,0.00,VWS V14.01,2013-01-25 04:58:00,
2013-01-24 23:59:00,20.6,8.9,30.37,ENE,63,0.0,2.0,60,0.00,,---,0.00,0.00,VWS V14.01,2013-01-25 04:59:00,